<?xml version="1.0" encoding="UTF-8" standalone="no" ?>
<gpx xmlns="http://www.topografix.com/GPX/1/1" xmlns:xsi="http://www.w3.org/2001/XMLSchema-instance" xsi:schemaLocation="http://www.topografix.com/GPX/1/1 http://www.topografix.com/GPX/1/1/gpx.xsd" version="1.1" creator="VisuGPX - https://www.visugpx.com">
  <metadata>
    <name>Retour plage de l'argentière</name>
    <desc><![CDATA[?]]></desc>
  </metadata>
  <trk>
    <name><![CDATA[Retour plage de l'argentière_1]]></name>
    <trkseg>
      <trkpt lat="43.12155" lon="6.26516">
        <ele>2.6</ele>
        <time>2021-07-18T18:44:07Z</time>
      </trkpt>
      <trkpt lat="43.12154" lon="6.26517">
        <ele>2.6</ele>
        <time>2021-07-18T18:44:09Z</time>
      </trkpt>
      <trkpt lat="43.12154" lon="6.26517">
        <ele>2.6</ele>
        <time>2021-07-18T18:44:11Z</time>
      </trkpt>
      <trkpt lat="43.12154" lon="6.26517">
        <ele>2.6</ele>
        <time>2021-07-18T18:44:12Z</time>
      </trkpt>
      <trkpt lat="43.12154" lon="6.26518">
        <ele>2.6</ele>
        <time>2021-07-18T18:44:13Z</time>
      </trkpt>
      <trkpt lat="43.12154" lon="6.26517">
        <ele>2.6</ele>
        <time>2021-07-18T18:44:15Z</time>
      </trkpt>
      <trkpt lat="43.12154" lon="6.26517">
        <ele>2.6</ele>
        <time>2021-07-18T18:44:16Z</time>
      </trkpt>
      <trkpt lat="43.12155" lon="6.26518">
        <ele>2.6</ele>
        <time>2021-07-18T18:44:18Z</time>
      </trkpt>
      <trkpt lat="43.12155" lon="6.26519">
        <ele>2.6</ele>
        <time>2021-07-18T18:44:20Z</time>
      </trkpt>
      <trkpt lat="43.12155" lon="6.26518">
        <ele>2.6</ele>
        <time>2021-07-18T18:44:22Z</time>
      </trkpt>
      <trkpt lat="43.12155" lon="6.26518">
        <ele>2.6</ele>
        <time>2021-07-18T18:44:23Z</time>
      </trkpt>
      <trkpt lat="43.12155" lon="6.26517">
        <ele>2.6</ele>
        <time>2021-07-18T18:44:24Z</time>
      </trkpt>
      <trkpt lat="43.12155" lon="6.26517">
        <ele>2.6</ele>
        <time>2021-07-18T18:44:26Z</time>
      </trkpt>
      <trkpt lat="43.12155" lon="6.26517">
        <ele>2.6</ele>
        <time>2021-07-18T18:44:27Z</time>
      </trkpt>
      <trkpt lat="43.12155" lon="6.26517">
        <ele>2.6</ele>
        <time>2021-07-18T18:44:28Z</time>
      </trkpt>
      <trkpt lat="43.12156" lon="6.26516">
        <ele>2.6</ele>
        <time>2021-07-18T18:44:30Z</time>
      </trkpt>
      <trkpt lat="43.12156" lon="6.26516">
        <ele>2.6</ele>
        <time>2021-07-18T18:44:31Z</time>
      </trkpt>
      <trkpt lat="43.12156" lon="6.26516">
        <ele>2.6</ele>
        <time>2021-07-18T18:44:32Z</time>
      </trkpt>
      <trkpt lat="43.12156" lon="6.26516">
        <ele>2.6</ele>
        <time>2021-07-18T18:44:33Z</time>
      </trkpt>
      <trkpt lat="43.12156" lon="6.26516">
        <ele>2.6</ele>
        <time>2021-07-18T18:44:35Z</time>
      </trkpt>
      <trkpt lat="43.12156" lon="6.26515">
        <ele>2.6</ele>
        <time>2021-07-18T18:44:37Z</time>
      </trkpt>
      <trkpt lat="43.12156" lon="6.26514">
        <ele>2.5</ele>
        <time>2021-07-18T18:44:39Z</time>
      </trkpt>
      <trkpt lat="43.12156" lon="6.26513">
        <ele>2.5</ele>
        <time>2021-07-18T18:44:41Z</time>
      </trkpt>
      <trkpt lat="43.12156" lon="6.26512">
        <ele>2.5</ele>
        <time>2021-07-18T18:44:43Z</time>
      </trkpt>
      <trkpt lat="43.12156" lon="6.26512">
        <ele>2.5</ele>
        <time>2021-07-18T18:44:44Z</time>
      </trkpt>
      <trkpt lat="43.12156" lon="6.26512">
        <ele>2.5</ele>
        <time>2021-07-18T18:44:45Z</time>
      </trkpt>
      <trkpt lat="43.12156" lon="6.26511">
        <ele>2.5</ele>
        <time>2021-07-18T18:44:47Z</time>
      </trkpt>
      <trkpt lat="43.12156" lon="6.26512">
        <ele>2.5</ele>
        <time>2021-07-18T18:44:48Z</time>
      </trkpt>
      <trkpt lat="43.12156" lon="6.26512">
        <ele>2.5</ele>
        <time>2021-07-18T18:44:50Z</time>
      </trkpt>
      <trkpt lat="43.12156" lon="6.26512">
        <ele>2.5</ele>
        <time>2021-07-18T18:44:51Z</time>
      </trkpt>
      <trkpt lat="43.12156" lon="6.26512">
        <ele>2.5</ele>
        <time>2021-07-18T18:44:53Z</time>
      </trkpt>
      <trkpt lat="43.12156" lon="6.26512">
        <ele>2.5</ele>
        <time>2021-07-18T18:44:55Z</time>
      </trkpt>
      <trkpt lat="43.12156" lon="6.26512">
        <ele>2.5</ele>
        <time>2021-07-18T18:44:57Z</time>
      </trkpt>
      <trkpt lat="43.12156" lon="6.26512">
        <ele>2.5</ele>
        <time>2021-07-18T18:44:58Z</time>
      </trkpt>
      <trkpt lat="43.12156" lon="6.26512">
        <ele>2.5</ele>
        <time>2021-07-18T18:44:59Z</time>
      </trkpt>
      <trkpt lat="43.12156" lon="6.26512">
        <ele>2.5</ele>
        <time>2021-07-18T18:45:01Z</time>
      </trkpt>
      <trkpt lat="43.12156" lon="6.26512">
        <ele>2.5</ele>
        <time>2021-07-18T18:45:03Z</time>
      </trkpt>
      <trkpt lat="43.12156" lon="6.26512">
        <ele>2.5</ele>
        <time>2021-07-18T18:45:04Z</time>
      </trkpt>
      <trkpt lat="43.12156" lon="6.26512">
        <ele>2.5</ele>
        <time>2021-07-18T18:45:05Z</time>
      </trkpt>
      <trkpt lat="43.12156" lon="6.26512">
        <ele>2.5</ele>
        <time>2021-07-18T18:45:07Z</time>
      </trkpt>
      <trkpt lat="43.12156" lon="6.26512">
        <ele>2.5</ele>
        <time>2021-07-18T18:45:08Z</time>
      </trkpt>
      <trkpt lat="43.12156" lon="6.26512">
        <ele>2.5</ele>
        <time>2021-07-18T18:45:10Z</time>
      </trkpt>
      <trkpt lat="43.12156" lon="6.26512">
        <ele>2.5</ele>
        <time>2021-07-18T18:45:11Z</time>
      </trkpt>
      <trkpt lat="43.12156" lon="6.26512">
        <ele>2.5</ele>
        <time>2021-07-18T18:45:13Z</time>
      </trkpt>
      <trkpt lat="43.12156" lon="6.26512">
        <ele>2.5</ele>
        <time>2021-07-18T18:45:14Z</time>
      </trkpt>
      <trkpt lat="43.12156" lon="6.26511">
        <ele>2.5</ele>
        <time>2021-07-18T18:45:15Z</time>
      </trkpt>
      <trkpt lat="43.12156" lon="6.26511">
        <ele>2.5</ele>
        <time>2021-07-18T18:45:16Z</time>
      </trkpt>
      <trkpt lat="43.12156" lon="6.26511">
        <ele>2.5</ele>
        <time>2021-07-18T18:45:18Z</time>
      </trkpt>
      <trkpt lat="43.12157" lon="6.26511">
        <ele>2.5</ele>
        <time>2021-07-18T18:45:20Z</time>
      </trkpt>
      <trkpt lat="43.12156" lon="6.26511">
        <ele>2.5</ele>
        <time>2021-07-18T18:45:21Z</time>
      </trkpt>
      <trkpt lat="43.12156" lon="6.26511">
        <ele>2.5</ele>
        <time>2021-07-18T18:45:23Z</time>
      </trkpt>
      <trkpt lat="43.12156" lon="6.26511">
        <ele>2.5</ele>
        <time>2021-07-18T18:45:24Z</time>
      </trkpt>
      <trkpt lat="43.12156" lon="6.26511">
        <ele>2.5</ele>
        <time>2021-07-18T18:45:26Z</time>
      </trkpt>
      <trkpt lat="43.12156" lon="6.2651">
        <ele>2.5</ele>
        <time>2021-07-18T18:45:27Z</time>
      </trkpt>
      <trkpt lat="43.12156" lon="6.2651">
        <ele>2.5</ele>
        <time>2021-07-18T18:45:28Z</time>
      </trkpt>
      <trkpt lat="43.12156" lon="6.26508">
        <ele>2.5</ele>
        <time>2021-07-18T18:45:30Z</time>
      </trkpt>
      <trkpt lat="43.12156" lon="6.26507">
        <ele>2.5</ele>
        <time>2021-07-18T18:45:31Z</time>
      </trkpt>
      <trkpt lat="43.12156" lon="6.26505">
        <ele>2.5</ele>
        <time>2021-07-18T18:45:32Z</time>
      </trkpt>
      <trkpt lat="43.12155" lon="6.26502">
        <ele>2.5</ele>
        <time>2021-07-18T18:45:34Z</time>
      </trkpt>
      <trkpt lat="43.12155" lon="6.26501">
        <ele>2.5</ele>
        <time>2021-07-18T18:45:35Z</time>
      </trkpt>
      <trkpt lat="43.12154" lon="6.26499">
        <ele>2.5</ele>
        <time>2021-07-18T18:45:36Z</time>
      </trkpt>
      <trkpt lat="43.12154" lon="6.26498">
        <ele>2.5</ele>
        <time>2021-07-18T18:45:38Z</time>
      </trkpt>
      <trkpt lat="43.12154" lon="6.26497">
        <ele>2.5</ele>
        <time>2021-07-18T18:45:39Z</time>
      </trkpt>
      <trkpt lat="43.12153" lon="6.26496">
        <ele>2.5</ele>
        <time>2021-07-18T18:45:40Z</time>
      </trkpt>
      <trkpt lat="43.12153" lon="6.26495">
        <ele>2.5</ele>
        <time>2021-07-18T18:45:41Z</time>
      </trkpt>
      <trkpt lat="43.12152" lon="6.26493">
        <ele>2.5</ele>
        <time>2021-07-18T18:45:43Z</time>
      </trkpt>
      <trkpt lat="43.12152" lon="6.26492">
        <ele>2.5</ele>
        <time>2021-07-18T18:45:45Z</time>
      </trkpt>
      <trkpt lat="43.12152" lon="6.26491">
        <ele>2.5</ele>
        <time>2021-07-18T18:45:46Z</time>
      </trkpt>
      <trkpt lat="43.12152" lon="6.26489">
        <ele>2.5</ele>
        <time>2021-07-18T18:45:47Z</time>
      </trkpt>
      <trkpt lat="43.12152" lon="6.26487">
        <ele>2.5</ele>
        <time>2021-07-18T18:45:48Z</time>
      </trkpt>
      <trkpt lat="43.12152" lon="6.26487">
        <ele>2.5</ele>
        <time>2021-07-18T18:45:50Z</time>
      </trkpt>
      <trkpt lat="43.12152" lon="6.26485">
        <ele>2.5</ele>
        <time>2021-07-18T18:45:51Z</time>
      </trkpt>
      <trkpt lat="43.12151" lon="6.26484">
        <ele>2.6</ele>
        <time>2021-07-18T18:45:52Z</time>
      </trkpt>
      <trkpt lat="43.12151" lon="6.26483">
        <ele>2.6</ele>
        <time>2021-07-18T18:45:53Z</time>
      </trkpt>
      <trkpt lat="43.12151" lon="6.26481">
        <ele>2.6</ele>
        <time>2021-07-18T18:45:54Z</time>
      </trkpt>
      <trkpt lat="43.12151" lon="6.2648">
        <ele>2.6</ele>
        <time>2021-07-18T18:45:56Z</time>
      </trkpt>
      <trkpt lat="43.12151" lon="6.26479">
        <ele>2.6</ele>
        <time>2021-07-18T18:45:57Z</time>
      </trkpt>
      <trkpt lat="43.12151" lon="6.26477">
        <ele>2.6</ele>
        <time>2021-07-18T18:45:58Z</time>
      </trkpt>
      <trkpt lat="43.12151" lon="6.26475">
        <ele>2.6</ele>
        <time>2021-07-18T18:46:00Z</time>
      </trkpt>
      <trkpt lat="43.12151" lon="6.26474">
        <ele>2.6</ele>
        <time>2021-07-18T18:46:02Z</time>
      </trkpt>
      <trkpt lat="43.12151" lon="6.26472">
        <ele>2.6</ele>
        <time>2021-07-18T18:46:03Z</time>
      </trkpt>
      <trkpt lat="43.12151" lon="6.2647">
        <ele>2.6</ele>
        <time>2021-07-18T18:46:04Z</time>
      </trkpt>
      <trkpt lat="43.12151" lon="6.26467">
        <ele>2.6</ele>
        <time>2021-07-18T18:46:06Z</time>
      </trkpt>
      <trkpt lat="43.12151" lon="6.26465">
        <ele>2.6</ele>
        <time>2021-07-18T18:46:08Z</time>
      </trkpt>
      <trkpt lat="43.12151" lon="6.26464">
        <ele>2.6</ele>
        <time>2021-07-18T18:46:09Z</time>
      </trkpt>
      <trkpt lat="43.12151" lon="6.26462">
        <ele>2.6</ele>
        <time>2021-07-18T18:46:10Z</time>
      </trkpt>
      <trkpt lat="43.1215" lon="6.2646">
        <ele>2.6</ele>
        <time>2021-07-18T18:46:12Z</time>
      </trkpt>
      <trkpt lat="43.1215" lon="6.26458">
        <ele>2.6</ele>
        <time>2021-07-18T18:46:13Z</time>
      </trkpt>
      <trkpt lat="43.1215" lon="6.26456">
        <ele>2.6</ele>
        <time>2021-07-18T18:46:15Z</time>
      </trkpt>
      <trkpt lat="43.1215" lon="6.26455">
        <ele>2.6</ele>
        <time>2021-07-18T18:46:17Z</time>
      </trkpt>
      <trkpt lat="43.1215" lon="6.26453">
        <ele>2.6</ele>
        <time>2021-07-18T18:46:18Z</time>
      </trkpt>
      <trkpt lat="43.1215" lon="6.26452">
        <ele>2.6</ele>
        <time>2021-07-18T18:46:19Z</time>
      </trkpt>
      <trkpt lat="43.1215" lon="6.2645">
        <ele>2.6</ele>
        <time>2021-07-18T18:46:21Z</time>
      </trkpt>
      <trkpt lat="43.1215" lon="6.26449">
        <ele>2.6</ele>
        <time>2021-07-18T18:46:22Z</time>
      </trkpt>
      <trkpt lat="43.1215" lon="6.26447">
        <ele>2.6</ele>
        <time>2021-07-18T18:46:23Z</time>
      </trkpt>
      <trkpt lat="43.12151" lon="6.26447">
        <ele>2.6</ele>
        <time>2021-07-18T18:46:24Z</time>
      </trkpt>
      <trkpt lat="43.12151" lon="6.26447">
        <ele>2.6</ele>
        <time>2021-07-18T18:46:26Z</time>
      </trkpt>
      <trkpt lat="43.12151" lon="6.26447">
        <ele>2.6</ele>
        <time>2021-07-18T18:46:27Z</time>
      </trkpt>
      <trkpt lat="43.12152" lon="6.26445">
        <ele>2.6</ele>
        <time>2021-07-18T18:46:28Z</time>
      </trkpt>
      <trkpt lat="43.12152" lon="6.26444">
        <ele>2.6</ele>
        <time>2021-07-18T18:46:29Z</time>
      </trkpt>
      <trkpt lat="43.12152" lon="6.26443">
        <ele>2.6</ele>
        <time>2021-07-18T18:46:31Z</time>
      </trkpt>
      <trkpt lat="43.12152" lon="6.26442">
        <ele>2.6</ele>
        <time>2021-07-18T18:46:32Z</time>
      </trkpt>
      <trkpt lat="43.12153" lon="6.26438">
        <ele>2.6</ele>
        <time>2021-07-18T18:46:33Z</time>
      </trkpt>
      <trkpt lat="43.12153" lon="6.26437">
        <ele>2.7</ele>
        <time>2021-07-18T18:46:35Z</time>
      </trkpt>
      <trkpt lat="43.12153" lon="6.26435">
        <ele>2.7</ele>
        <time>2021-07-18T18:46:36Z</time>
      </trkpt>
      <trkpt lat="43.12153" lon="6.26434">
        <ele>2.7</ele>
        <time>2021-07-18T18:46:38Z</time>
      </trkpt>
      <trkpt lat="43.12153" lon="6.26432">
        <ele>2.7</ele>
        <time>2021-07-18T18:46:40Z</time>
      </trkpt>
      <trkpt lat="43.12153" lon="6.2643">
        <ele>2.7</ele>
        <time>2021-07-18T18:46:41Z</time>
      </trkpt>
      <trkpt lat="43.12153" lon="6.26429">
        <ele>2.7</ele>
        <time>2021-07-18T18:46:42Z</time>
      </trkpt>
      <trkpt lat="43.12153" lon="6.26427">
        <ele>2.7</ele>
        <time>2021-07-18T18:46:44Z</time>
      </trkpt>
      <trkpt lat="43.12153" lon="6.26426">
        <ele>2.7</ele>
        <time>2021-07-18T18:46:45Z</time>
      </trkpt>
      <trkpt lat="43.12153" lon="6.26425">
        <ele>2.7</ele>
        <time>2021-07-18T18:46:46Z</time>
      </trkpt>
      <trkpt lat="43.12154" lon="6.26424">
        <ele>2.7</ele>
        <time>2021-07-18T18:46:47Z</time>
      </trkpt>
      <trkpt lat="43.12154" lon="6.26423">
        <ele>2.7</ele>
        <time>2021-07-18T18:46:48Z</time>
      </trkpt>
      <trkpt lat="43.12154" lon="6.26421">
        <ele>2.7</ele>
        <time>2021-07-18T18:46:50Z</time>
      </trkpt>
      <trkpt lat="43.12155" lon="6.2642">
        <ele>2.7</ele>
        <time>2021-07-18T18:46:51Z</time>
      </trkpt>
      <trkpt lat="43.12155" lon="6.26419">
        <ele>2.7</ele>
        <time>2021-07-18T18:46:53Z</time>
      </trkpt>
      <trkpt lat="43.12156" lon="6.26418">
        <ele>2.8</ele>
        <time>2021-07-18T18:46:54Z</time>
      </trkpt>
      <trkpt lat="43.12156" lon="6.26417">
        <ele>2.8</ele>
        <time>2021-07-18T18:46:55Z</time>
      </trkpt>
      <trkpt lat="43.12156" lon="6.26417">
        <ele>2.8</ele>
        <time>2021-07-18T18:46:56Z</time>
      </trkpt>
      <trkpt lat="43.12155" lon="6.26416">
        <ele>2.8</ele>
        <time>2021-07-18T18:46:58Z</time>
      </trkpt>
      <trkpt lat="43.12155" lon="6.26415">
        <ele>2.8</ele>
        <time>2021-07-18T18:46:59Z</time>
      </trkpt>
      <trkpt lat="43.12155" lon="6.26413">
        <ele>2.8</ele>
        <time>2021-07-18T18:47:00Z</time>
      </trkpt>
      <trkpt lat="43.12154" lon="6.26412">
        <ele>2.8</ele>
        <time>2021-07-18T18:47:01Z</time>
      </trkpt>
      <trkpt lat="43.12154" lon="6.26411">
        <ele>2.8</ele>
        <time>2021-07-18T18:47:03Z</time>
      </trkpt>
      <trkpt lat="43.12153" lon="6.26409">
        <ele>2.8</ele>
        <time>2021-07-18T18:47:05Z</time>
      </trkpt>
      <trkpt lat="43.12153" lon="6.26407">
        <ele>2.8</ele>
        <time>2021-07-18T18:47:06Z</time>
      </trkpt>
      <trkpt lat="43.12153" lon="6.26406">
        <ele>2.9</ele>
        <time>2021-07-18T18:47:08Z</time>
      </trkpt>
      <trkpt lat="43.12153" lon="6.26405">
        <ele>2.9</ele>
        <time>2021-07-18T18:47:09Z</time>
      </trkpt>
      <trkpt lat="43.12153" lon="6.26404">
        <ele>2.9</ele>
        <time>2021-07-18T18:47:10Z</time>
      </trkpt>
      <trkpt lat="43.12153" lon="6.26404">
        <ele>2.9</ele>
        <time>2021-07-18T18:47:12Z</time>
      </trkpt>
      <trkpt lat="43.12152" lon="6.26403">
        <ele>2.9</ele>
        <time>2021-07-18T18:47:13Z</time>
      </trkpt>
      <trkpt lat="43.12152" lon="6.26402">
        <ele>2.9</ele>
        <time>2021-07-18T18:47:14Z</time>
      </trkpt>
      <trkpt lat="43.12151" lon="6.26401">
        <ele>2.9</ele>
        <time>2021-07-18T18:47:16Z</time>
      </trkpt>
      <trkpt lat="43.12151" lon="6.264">
        <ele>2.9</ele>
        <time>2021-07-18T18:47:17Z</time>
      </trkpt>
      <trkpt lat="43.12151" lon="6.26398">
        <ele>2.9</ele>
        <time>2021-07-18T18:47:19Z</time>
      </trkpt>
      <trkpt lat="43.12151" lon="6.26397">
        <ele>2.9</ele>
        <time>2021-07-18T18:47:20Z</time>
      </trkpt>
      <trkpt lat="43.12151" lon="6.26396">
        <ele>2.9</ele>
        <time>2021-07-18T18:47:21Z</time>
      </trkpt>
      <trkpt lat="43.12151" lon="6.26394">
        <ele>2.9</ele>
        <time>2021-07-18T18:47:23Z</time>
      </trkpt>
      <trkpt lat="43.12151" lon="6.26393">
        <ele>2.9</ele>
        <time>2021-07-18T18:47:24Z</time>
      </trkpt>
      <trkpt lat="43.12152" lon="6.26392">
        <ele>2.9</ele>
        <time>2021-07-18T18:47:26Z</time>
      </trkpt>
      <trkpt lat="43.12152" lon="6.26392">
        <ele>2.9</ele>
        <time>2021-07-18T18:47:28Z</time>
      </trkpt>
      <trkpt lat="43.12152" lon="6.26393">
        <ele>2.9</ele>
        <time>2021-07-18T18:47:29Z</time>
      </trkpt>
      <trkpt lat="43.12152" lon="6.26393">
        <ele>2.9</ele>
        <time>2021-07-18T18:47:31Z</time>
      </trkpt>
      <trkpt lat="43.12152" lon="6.26393">
        <ele>2.9</ele>
        <time>2021-07-18T18:47:32Z</time>
      </trkpt>
      <trkpt lat="43.12152" lon="6.26393">
        <ele>2.9</ele>
        <time>2021-07-18T18:47:33Z</time>
      </trkpt>
      <trkpt lat="43.12152" lon="6.26392">
        <ele>2.9</ele>
        <time>2021-07-18T18:47:35Z</time>
      </trkpt>
      <trkpt lat="43.12151" lon="6.26391">
        <ele>2.9</ele>
        <time>2021-07-18T18:47:36Z</time>
      </trkpt>
      <trkpt lat="43.12151" lon="6.2639">
        <ele>2.9</ele>
        <time>2021-07-18T18:47:38Z</time>
      </trkpt>
      <trkpt lat="43.12151" lon="6.26388">
        <ele>2.9</ele>
        <time>2021-07-18T18:47:40Z</time>
      </trkpt>
      <trkpt lat="43.12151" lon="6.26387">
        <ele>3</ele>
        <time>2021-07-18T18:47:41Z</time>
      </trkpt>
      <trkpt lat="43.1215" lon="6.26385">
        <ele>3</ele>
        <time>2021-07-18T18:47:43Z</time>
      </trkpt>
      <trkpt lat="43.1215" lon="6.26384">
        <ele>3</ele>
        <time>2021-07-18T18:47:44Z</time>
      </trkpt>
      <trkpt lat="43.12151" lon="6.26381">
        <ele>3</ele>
        <time>2021-07-18T18:47:46Z</time>
      </trkpt>
      <trkpt lat="43.12151" lon="6.2638">
        <ele>3</ele>
        <time>2021-07-18T18:47:47Z</time>
      </trkpt>
      <trkpt lat="43.12151" lon="6.26379">
        <ele>3</ele>
        <time>2021-07-18T18:47:48Z</time>
      </trkpt>
      <trkpt lat="43.12152" lon="6.26377">
        <ele>3</ele>
        <time>2021-07-18T18:47:50Z</time>
      </trkpt>
      <trkpt lat="43.12152" lon="6.26375">
        <ele>3</ele>
        <time>2021-07-18T18:47:51Z</time>
      </trkpt>
      <trkpt lat="43.12153" lon="6.26374">
        <ele>2.9</ele>
        <time>2021-07-18T18:47:53Z</time>
      </trkpt>
      <trkpt lat="43.12153" lon="6.26373">
        <ele>2.9</ele>
        <time>2021-07-18T18:47:54Z</time>
      </trkpt>
      <trkpt lat="43.12153" lon="6.26371">
        <ele>2.9</ele>
        <time>2021-07-18T18:47:56Z</time>
      </trkpt>
      <trkpt lat="43.12153" lon="6.26371">
        <ele>2.9</ele>
        <time>2021-07-18T18:47:57Z</time>
      </trkpt>
      <trkpt lat="43.12153" lon="6.2637">
        <ele>2.9</ele>
        <time>2021-07-18T18:47:58Z</time>
      </trkpt>
      <trkpt lat="43.12154" lon="6.2637">
        <ele>2.9</ele>
        <time>2021-07-18T18:47:59Z</time>
      </trkpt>
      <trkpt lat="43.12154" lon="6.2637">
        <ele>2.9</ele>
        <time>2021-07-18T18:48:01Z</time>
      </trkpt>
      <trkpt lat="43.12154" lon="6.2637">
        <ele>2.9</ele>
        <time>2021-07-18T18:48:02Z</time>
      </trkpt>
      <trkpt lat="43.12154" lon="6.26369">
        <ele>2.9</ele>
        <time>2021-07-18T18:48:03Z</time>
      </trkpt>
      <trkpt lat="43.12154" lon="6.26368">
        <ele>2.9</ele>
        <time>2021-07-18T18:48:05Z</time>
      </trkpt>
      <trkpt lat="43.12154" lon="6.26366">
        <ele>2.9</ele>
        <time>2021-07-18T18:48:06Z</time>
      </trkpt>
      <trkpt lat="43.12153" lon="6.26365">
        <ele>2.9</ele>
        <time>2021-07-18T18:48:07Z</time>
      </trkpt>
      <trkpt lat="43.12153" lon="6.26363">
        <ele>2.9</ele>
        <time>2021-07-18T18:48:08Z</time>
      </trkpt>
      <trkpt lat="43.12153" lon="6.26362">
        <ele>2.9</ele>
        <time>2021-07-18T18:48:09Z</time>
      </trkpt>
      <trkpt lat="43.12153" lon="6.26359">
        <ele>2.9</ele>
        <time>2021-07-18T18:48:11Z</time>
      </trkpt>
      <trkpt lat="43.12153" lon="6.26358">
        <ele>2.9</ele>
        <time>2021-07-18T18:48:12Z</time>
      </trkpt>
      <trkpt lat="43.12153" lon="6.26356">
        <ele>2.8</ele>
        <time>2021-07-18T18:48:13Z</time>
      </trkpt>
      <trkpt lat="43.12153" lon="6.26355">
        <ele>2.8</ele>
        <time>2021-07-18T18:48:14Z</time>
      </trkpt>
      <trkpt lat="43.12153" lon="6.26352">
        <ele>2.8</ele>
        <time>2021-07-18T18:48:16Z</time>
      </trkpt>
      <trkpt lat="43.12153" lon="6.26351">
        <ele>2.8</ele>
        <time>2021-07-18T18:48:17Z</time>
      </trkpt>
      <trkpt lat="43.12153" lon="6.26349">
        <ele>2.8</ele>
        <time>2021-07-18T18:48:18Z</time>
      </trkpt>
      <trkpt lat="43.12153" lon="6.26347">
        <ele>2.8</ele>
        <time>2021-07-18T18:48:20Z</time>
      </trkpt>
      <trkpt lat="43.12153" lon="6.26345">
        <ele>2.8</ele>
        <time>2021-07-18T18:48:21Z</time>
      </trkpt>
      <trkpt lat="43.12153" lon="6.26344">
        <ele>2.8</ele>
        <time>2021-07-18T18:48:22Z</time>
      </trkpt>
      <trkpt lat="43.12153" lon="6.26342">
        <ele>2.7</ele>
        <time>2021-07-18T18:48:24Z</time>
      </trkpt>
      <trkpt lat="43.12153" lon="6.2634">
        <ele>2.7</ele>
        <time>2021-07-18T18:48:25Z</time>
      </trkpt>
      <trkpt lat="43.12153" lon="6.26338">
        <ele>2.7</ele>
        <time>2021-07-18T18:48:26Z</time>
      </trkpt>
      <trkpt lat="43.12152" lon="6.26337">
        <ele>2.7</ele>
        <time>2021-07-18T18:48:28Z</time>
      </trkpt>
      <trkpt lat="43.12152" lon="6.26336">
        <ele>2.7</ele>
        <time>2021-07-18T18:48:29Z</time>
      </trkpt>
      <trkpt lat="43.12152" lon="6.26334">
        <ele>2.7</ele>
        <time>2021-07-18T18:48:31Z</time>
      </trkpt>
      <trkpt lat="43.12153" lon="6.26333">
        <ele>2.7</ele>
        <time>2021-07-18T18:48:32Z</time>
      </trkpt>
      <trkpt lat="43.12153" lon="6.26331">
        <ele>2.7</ele>
        <time>2021-07-18T18:48:33Z</time>
      </trkpt>
      <trkpt lat="43.12153" lon="6.26329">
        <ele>2.7</ele>
        <time>2021-07-18T18:48:35Z</time>
      </trkpt>
      <trkpt lat="43.12153" lon="6.26328">
        <ele>2.7</ele>
        <time>2021-07-18T18:48:36Z</time>
      </trkpt>
      <trkpt lat="43.12153" lon="6.26326">
        <ele>2.6</ele>
        <time>2021-07-18T18:48:37Z</time>
      </trkpt>
      <trkpt lat="43.12153" lon="6.26325">
        <ele>2.6</ele>
        <time>2021-07-18T18:48:38Z</time>
      </trkpt>
      <trkpt lat="43.12154" lon="6.26323">
        <ele>2.6</ele>
        <time>2021-07-18T18:48:39Z</time>
      </trkpt>
      <trkpt lat="43.12154" lon="6.26321">
        <ele>2.6</ele>
        <time>2021-07-18T18:48:41Z</time>
      </trkpt>
      <trkpt lat="43.12154" lon="6.2632">
        <ele>2.6</ele>
        <time>2021-07-18T18:48:42Z</time>
      </trkpt>
      <trkpt lat="43.12154" lon="6.26318">
        <ele>2.6</ele>
        <time>2021-07-18T18:48:43Z</time>
      </trkpt>
      <trkpt lat="43.12154" lon="6.26316">
        <ele>2.6</ele>
        <time>2021-07-18T18:48:44Z</time>
      </trkpt>
      <trkpt lat="43.12154" lon="6.26315">
        <ele>2.6</ele>
        <time>2021-07-18T18:48:45Z</time>
      </trkpt>
      <trkpt lat="43.12154" lon="6.26314">
        <ele>2.6</ele>
        <time>2021-07-18T18:48:47Z</time>
      </trkpt>
      <trkpt lat="43.12154" lon="6.26312">
        <ele>2.6</ele>
        <time>2021-07-18T18:48:48Z</time>
      </trkpt>
      <trkpt lat="43.12154" lon="6.2631">
        <ele>2.6</ele>
        <time>2021-07-18T18:48:49Z</time>
      </trkpt>
      <trkpt lat="43.12154" lon="6.26309">
        <ele>2.6</ele>
        <time>2021-07-18T18:48:50Z</time>
      </trkpt>
      <trkpt lat="43.12155" lon="6.26306">
        <ele>2.6</ele>
        <time>2021-07-18T18:48:52Z</time>
      </trkpt>
      <trkpt lat="43.12155" lon="6.26305">
        <ele>2.6</ele>
        <time>2021-07-18T18:48:53Z</time>
      </trkpt>
      <trkpt lat="43.12156" lon="6.26304">
        <ele>2.6</ele>
        <time>2021-07-18T18:48:55Z</time>
      </trkpt>
      <trkpt lat="43.12156" lon="6.26302">
        <ele>2.6</ele>
        <time>2021-07-18T18:48:56Z</time>
      </trkpt>
      <trkpt lat="43.12155" lon="6.26301">
        <ele>2.6</ele>
        <time>2021-07-18T18:48:58Z</time>
      </trkpt>
      <trkpt lat="43.12154" lon="6.263">
        <ele>2.6</ele>
        <time>2021-07-18T18:49:00Z</time>
      </trkpt>
      <trkpt lat="43.12154" lon="6.26299">
        <ele>2.6</ele>
        <time>2021-07-18T18:49:01Z</time>
      </trkpt>
      <trkpt lat="43.12153" lon="6.26297">
        <ele>2.6</ele>
        <time>2021-07-18T18:49:02Z</time>
      </trkpt>
      <trkpt lat="43.12153" lon="6.26297">
        <ele>2.6</ele>
        <time>2021-07-18T18:49:04Z</time>
      </trkpt>
      <trkpt lat="43.12153" lon="6.26296">
        <ele>2.6</ele>
        <time>2021-07-18T18:49:06Z</time>
      </trkpt>
      <trkpt lat="43.12152" lon="6.26295">
        <ele>2.6</ele>
        <time>2021-07-18T18:49:07Z</time>
      </trkpt>
      <trkpt lat="43.12152" lon="6.26295">
        <ele>2.7</ele>
        <time>2021-07-18T18:49:09Z</time>
      </trkpt>
      <trkpt lat="43.12152" lon="6.26294">
        <ele>2.7</ele>
        <time>2021-07-18T18:49:10Z</time>
      </trkpt>
      <trkpt lat="43.12152" lon="6.26293">
        <ele>2.7</ele>
        <time>2021-07-18T18:49:11Z</time>
      </trkpt>
      <trkpt lat="43.12152" lon="6.26293">
        <ele>2.7</ele>
        <time>2021-07-18T18:49:12Z</time>
      </trkpt>
      <trkpt lat="43.12152" lon="6.26292">
        <ele>2.7</ele>
        <time>2021-07-18T18:49:14Z</time>
      </trkpt>
      <trkpt lat="43.12151" lon="6.26292">
        <ele>2.7</ele>
        <time>2021-07-18T18:49:16Z</time>
      </trkpt>
      <trkpt lat="43.12151" lon="6.26291">
        <ele>2.7</ele>
        <time>2021-07-18T18:49:17Z</time>
      </trkpt>
      <trkpt lat="43.12151" lon="6.2629">
        <ele>2.7</ele>
        <time>2021-07-18T18:49:19Z</time>
      </trkpt>
      <trkpt lat="43.12151" lon="6.2629">
        <ele>2.7</ele>
        <time>2021-07-18T18:49:20Z</time>
      </trkpt>
      <trkpt lat="43.12151" lon="6.26289">
        <ele>2.7</ele>
        <time>2021-07-18T18:49:21Z</time>
      </trkpt>
      <trkpt lat="43.1215" lon="6.26288">
        <ele>2.7</ele>
        <time>2021-07-18T18:49:23Z</time>
      </trkpt>
      <trkpt lat="43.1215" lon="6.26288">
        <ele>2.7</ele>
        <time>2021-07-18T18:49:24Z</time>
      </trkpt>
      <trkpt lat="43.1215" lon="6.26287">
        <ele>2.7</ele>
        <time>2021-07-18T18:49:25Z</time>
      </trkpt>
      <trkpt lat="43.1215" lon="6.26286">
        <ele>2.7</ele>
        <time>2021-07-18T18:49:26Z</time>
      </trkpt>
      <trkpt lat="43.12151" lon="6.26285">
        <ele>2.7</ele>
        <time>2021-07-18T18:49:27Z</time>
      </trkpt>
      <trkpt lat="43.12151" lon="6.26284">
        <ele>2.7</ele>
        <time>2021-07-18T18:49:29Z</time>
      </trkpt>
      <trkpt lat="43.12152" lon="6.26283">
        <ele>2.7</ele>
        <time>2021-07-18T18:49:30Z</time>
      </trkpt>
      <trkpt lat="43.12152" lon="6.26282">
        <ele>2.7</ele>
        <time>2021-07-18T18:49:32Z</time>
      </trkpt>
      <trkpt lat="43.12152" lon="6.26281">
        <ele>2.7</ele>
        <time>2021-07-18T18:49:33Z</time>
      </trkpt>
      <trkpt lat="43.12152" lon="6.2628">
        <ele>2.7</ele>
        <time>2021-07-18T18:49:34Z</time>
      </trkpt>
      <trkpt lat="43.12152" lon="6.26279">
        <ele>2.7</ele>
        <time>2021-07-18T18:49:35Z</time>
      </trkpt>
      <trkpt lat="43.12152" lon="6.26276">
        <ele>2.7</ele>
        <time>2021-07-18T18:49:36Z</time>
      </trkpt>
      <trkpt lat="43.12152" lon="6.26274">
        <ele>2.7</ele>
        <time>2021-07-18T18:49:38Z</time>
      </trkpt>
      <trkpt lat="43.12152" lon="6.26272">
        <ele>2.7</ele>
        <time>2021-07-18T18:49:39Z</time>
      </trkpt>
      <trkpt lat="43.12152" lon="6.26271">
        <ele>2.7</ele>
        <time>2021-07-18T18:49:41Z</time>
      </trkpt>
      <trkpt lat="43.12152" lon="6.26269">
        <ele>2.7</ele>
        <time>2021-07-18T18:49:42Z</time>
      </trkpt>
      <trkpt lat="43.12151" lon="6.26267">
        <ele>2.7</ele>
        <time>2021-07-18T18:49:43Z</time>
      </trkpt>
      <trkpt lat="43.12151" lon="6.26266">
        <ele>2.7</ele>
        <time>2021-07-18T18:49:44Z</time>
      </trkpt>
      <trkpt lat="43.12151" lon="6.26264">
        <ele>2.7</ele>
        <time>2021-07-18T18:49:45Z</time>
      </trkpt>
      <trkpt lat="43.12151" lon="6.26263">
        <ele>2.6</ele>
        <time>2021-07-18T18:49:46Z</time>
      </trkpt>
      <trkpt lat="43.12151" lon="6.26261">
        <ele>2.6</ele>
        <time>2021-07-18T18:49:48Z</time>
      </trkpt>
      <trkpt lat="43.12151" lon="6.2626">
        <ele>2.6</ele>
        <time>2021-07-18T18:49:49Z</time>
      </trkpt>
      <trkpt lat="43.12152" lon="6.26258">
        <ele>2.6</ele>
        <time>2021-07-18T18:49:50Z</time>
      </trkpt>
      <trkpt lat="43.12152" lon="6.26257">
        <ele>2.6</ele>
        <time>2021-07-18T18:49:51Z</time>
      </trkpt>
      <trkpt lat="43.12153" lon="6.26255">
        <ele>2.6</ele>
        <time>2021-07-18T18:49:53Z</time>
      </trkpt>
      <trkpt lat="43.12153" lon="6.26254">
        <ele>2.6</ele>
        <time>2021-07-18T18:49:54Z</time>
      </trkpt>
      <trkpt lat="43.12154" lon="6.26252">
        <ele>2.6</ele>
        <time>2021-07-18T18:49:56Z</time>
      </trkpt>
      <trkpt lat="43.12154" lon="6.26251">
        <ele>2.6</ele>
        <time>2021-07-18T18:49:57Z</time>
      </trkpt>
      <trkpt lat="43.12154" lon="6.2625">
        <ele>2.6</ele>
        <time>2021-07-18T18:49:59Z</time>
      </trkpt>
      <trkpt lat="43.12154" lon="6.2625">
        <ele>2.6</ele>
        <time>2021-07-18T18:50:00Z</time>
      </trkpt>
      <trkpt lat="43.12154" lon="6.2625">
        <ele>2.6</ele>
        <time>2021-07-18T18:50:02Z</time>
      </trkpt>
      <trkpt lat="43.12154" lon="6.2625">
        <ele>2.6</ele>
        <time>2021-07-18T18:50:03Z</time>
      </trkpt>
      <trkpt lat="43.12154" lon="6.26251">
        <ele>2.6</ele>
        <time>2021-07-18T18:50:04Z</time>
      </trkpt>
      <trkpt lat="43.12154" lon="6.26251">
        <ele>2.6</ele>
        <time>2021-07-18T18:50:05Z</time>
      </trkpt>
      <trkpt lat="43.12154" lon="6.26251">
        <ele>2.6</ele>
        <time>2021-07-18T18:50:06Z</time>
      </trkpt>
      <trkpt lat="43.12154" lon="6.26251">
        <ele>2.6</ele>
        <time>2021-07-18T18:50:08Z</time>
      </trkpt>
      <trkpt lat="43.12154" lon="6.26251">
        <ele>2.6</ele>
        <time>2021-07-18T18:50:09Z</time>
      </trkpt>
      <trkpt lat="43.12154" lon="6.26251">
        <ele>2.6</ele>
        <time>2021-07-18T18:50:10Z</time>
      </trkpt>
      <trkpt lat="43.12154" lon="6.2625">
        <ele>2.6</ele>
        <time>2021-07-18T18:50:11Z</time>
      </trkpt>
      <trkpt lat="43.12154" lon="6.2625">
        <ele>2.6</ele>
        <time>2021-07-18T18:50:13Z</time>
      </trkpt>
      <trkpt lat="43.12154" lon="6.2625">
        <ele>2.6</ele>
        <time>2021-07-18T18:50:14Z</time>
      </trkpt>
      <trkpt lat="43.12154" lon="6.26249">
        <ele>2.6</ele>
        <time>2021-07-18T18:50:15Z</time>
      </trkpt>
      <trkpt lat="43.12154" lon="6.26248">
        <ele>2.6</ele>
        <time>2021-07-18T18:50:16Z</time>
      </trkpt>
      <trkpt lat="43.12155" lon="6.26245">
        <ele>2.6</ele>
        <time>2021-07-18T18:50:18Z</time>
      </trkpt>
      <trkpt lat="43.12155" lon="6.26244">
        <ele>2.6</ele>
        <time>2021-07-18T18:50:19Z</time>
      </trkpt>
      <trkpt lat="43.12156" lon="6.2624">
        <ele>2.6</ele>
        <time>2021-07-18T18:50:21Z</time>
      </trkpt>
      <trkpt lat="43.12156" lon="6.26239">
        <ele>2.6</ele>
        <time>2021-07-18T18:50:22Z</time>
      </trkpt>
      <trkpt lat="43.12156" lon="6.26237">
        <ele>2.6</ele>
        <time>2021-07-18T18:50:24Z</time>
      </trkpt>
      <trkpt lat="43.12156" lon="6.26235">
        <ele>2.6</ele>
        <time>2021-07-18T18:50:25Z</time>
      </trkpt>
      <trkpt lat="43.12156" lon="6.26232">
        <ele>2.6</ele>
        <time>2021-07-18T18:50:26Z</time>
      </trkpt>
      <trkpt lat="43.12156" lon="6.26231">
        <ele>2.6</ele>
        <time>2021-07-18T18:50:27Z</time>
      </trkpt>
      <trkpt lat="43.12157" lon="6.26229">
        <ele>2.6</ele>
        <time>2021-07-18T18:50:29Z</time>
      </trkpt>
      <trkpt lat="43.12158" lon="6.26227">
        <ele>2.6</ele>
        <time>2021-07-18T18:50:31Z</time>
      </trkpt>
      <trkpt lat="43.12159" lon="6.26227">
        <ele>2.6</ele>
        <time>2021-07-18T18:50:32Z</time>
      </trkpt>
      <trkpt lat="43.1216" lon="6.26225">
        <ele>2.6</ele>
        <time>2021-07-18T18:50:34Z</time>
      </trkpt>
      <trkpt lat="43.1216" lon="6.26224">
        <ele>2.6</ele>
        <time>2021-07-18T18:50:35Z</time>
      </trkpt>
      <trkpt lat="43.1216" lon="6.26222">
        <ele>2.6</ele>
        <time>2021-07-18T18:50:36Z</time>
      </trkpt>
      <trkpt lat="43.1216" lon="6.26221">
        <ele>2.6</ele>
        <time>2021-07-18T18:50:37Z</time>
      </trkpt>
      <trkpt lat="43.1216" lon="6.2622">
        <ele>2.6</ele>
        <time>2021-07-18T18:50:38Z</time>
      </trkpt>
      <trkpt lat="43.1216" lon="6.26218">
        <ele>2.6</ele>
        <time>2021-07-18T18:50:39Z</time>
      </trkpt>
      <trkpt lat="43.12159" lon="6.26216">
        <ele>2.7</ele>
        <time>2021-07-18T18:50:40Z</time>
      </trkpt>
      <trkpt lat="43.12159" lon="6.26213">
        <ele>2.7</ele>
        <time>2021-07-18T18:50:42Z</time>
      </trkpt>
      <trkpt lat="43.12159" lon="6.26211">
        <ele>2.7</ele>
        <time>2021-07-18T18:50:44Z</time>
      </trkpt>
      <trkpt lat="43.12159" lon="6.26209">
        <ele>2.7</ele>
        <time>2021-07-18T18:50:45Z</time>
      </trkpt>
      <trkpt lat="43.12159" lon="6.26208">
        <ele>2.7</ele>
        <time>2021-07-18T18:50:46Z</time>
      </trkpt>
      <trkpt lat="43.12159" lon="6.26206">
        <ele>2.7</ele>
        <time>2021-07-18T18:50:47Z</time>
      </trkpt>
      <trkpt lat="43.12159" lon="6.26205">
        <ele>2.7</ele>
        <time>2021-07-18T18:50:49Z</time>
      </trkpt>
      <trkpt lat="43.12158" lon="6.26203">
        <ele>2.7</ele>
        <time>2021-07-18T18:50:50Z</time>
      </trkpt>
      <trkpt lat="43.12159" lon="6.26201">
        <ele>2.7</ele>
        <time>2021-07-18T18:50:51Z</time>
      </trkpt>
      <trkpt lat="43.12159" lon="6.262">
        <ele>2.7</ele>
        <time>2021-07-18T18:50:52Z</time>
      </trkpt>
      <trkpt lat="43.12159" lon="6.26198">
        <ele>2.7</ele>
        <time>2021-07-18T18:50:53Z</time>
      </trkpt>
      <trkpt lat="43.12159" lon="6.26196">
        <ele>2.7</ele>
        <time>2021-07-18T18:50:55Z</time>
      </trkpt>
      <trkpt lat="43.12159" lon="6.26194">
        <ele>2.7</ele>
        <time>2021-07-18T18:50:56Z</time>
      </trkpt>
      <trkpt lat="43.12159" lon="6.26193">
        <ele>2.7</ele>
        <time>2021-07-18T18:50:57Z</time>
      </trkpt>
      <trkpt lat="43.12158" lon="6.26191">
        <ele>2.7</ele>
        <time>2021-07-18T18:50:59Z</time>
      </trkpt>
      <trkpt lat="43.12158" lon="6.26189">
        <ele>2.7</ele>
        <time>2021-07-18T18:51:00Z</time>
      </trkpt>
      <trkpt lat="43.12158" lon="6.26188">
        <ele>2.7</ele>
        <time>2021-07-18T18:51:01Z</time>
      </trkpt>
      <trkpt lat="43.12158" lon="6.26184">
        <ele>2.7</ele>
        <time>2021-07-18T18:51:03Z</time>
      </trkpt>
      <trkpt lat="43.12158" lon="6.26183">
        <ele>2.7</ele>
        <time>2021-07-18T18:51:04Z</time>
      </trkpt>
      <trkpt lat="43.12158" lon="6.26181">
        <ele>2.7</ele>
        <time>2021-07-18T18:51:05Z</time>
      </trkpt>
      <trkpt lat="43.12158" lon="6.26179">
        <ele>2.7</ele>
        <time>2021-07-18T18:51:07Z</time>
      </trkpt>
      <trkpt lat="43.12158" lon="6.26176">
        <ele>2.7</ele>
        <time>2021-07-18T18:51:08Z</time>
      </trkpt>
      <trkpt lat="43.12158" lon="6.26174">
        <ele>2.7</ele>
        <time>2021-07-18T18:51:10Z</time>
      </trkpt>
      <trkpt lat="43.12159" lon="6.26173">
        <ele>2.7</ele>
        <time>2021-07-18T18:51:11Z</time>
      </trkpt>
      <trkpt lat="43.12159" lon="6.26171">
        <ele>2.7</ele>
        <time>2021-07-18T18:51:13Z</time>
      </trkpt>
      <trkpt lat="43.12159" lon="6.2617">
        <ele>2.7</ele>
        <time>2021-07-18T18:51:14Z</time>
      </trkpt>
      <trkpt lat="43.12159" lon="6.26167">
        <ele>2.7</ele>
        <time>2021-07-18T18:51:15Z</time>
      </trkpt>
      <trkpt lat="43.12159" lon="6.26166">
        <ele>2.7</ele>
        <time>2021-07-18T18:51:16Z</time>
      </trkpt>
      <trkpt lat="43.12159" lon="6.26164">
        <ele>2.7</ele>
        <time>2021-07-18T18:51:17Z</time>
      </trkpt>
      <trkpt lat="43.1216" lon="6.26163">
        <ele>2.7</ele>
        <time>2021-07-18T18:51:19Z</time>
      </trkpt>
      <trkpt lat="43.12161" lon="6.26162">
        <ele>2.7</ele>
        <time>2021-07-18T18:51:20Z</time>
      </trkpt>
      <trkpt lat="43.12161" lon="6.26161">
        <ele>2.7</ele>
        <time>2021-07-18T18:51:21Z</time>
      </trkpt>
      <trkpt lat="43.12161" lon="6.26161">
        <ele>2.7</ele>
        <time>2021-07-18T18:51:22Z</time>
      </trkpt>
      <trkpt lat="43.12161" lon="6.26162">
        <ele>2.7</ele>
        <time>2021-07-18T18:51:24Z</time>
      </trkpt>
      <trkpt lat="43.12161" lon="6.26162">
        <ele>2.7</ele>
        <time>2021-07-18T18:51:25Z</time>
      </trkpt>
      <trkpt lat="43.1216" lon="6.26162">
        <ele>2.7</ele>
        <time>2021-07-18T18:51:26Z</time>
      </trkpt>
      <trkpt lat="43.1216" lon="6.26162">
        <ele>2.7</ele>
        <time>2021-07-18T18:51:28Z</time>
      </trkpt>
      <trkpt lat="43.1216" lon="6.26162">
        <ele>2.7</ele>
        <time>2021-07-18T18:51:29Z</time>
      </trkpt>
      <trkpt lat="43.1216" lon="6.26162">
        <ele>2.7</ele>
        <time>2021-07-18T18:51:30Z</time>
      </trkpt>
      <trkpt lat="43.12159" lon="6.26162">
        <ele>2.7</ele>
        <time>2021-07-18T18:51:32Z</time>
      </trkpt>
      <trkpt lat="43.12159" lon="6.26162">
        <ele>2.7</ele>
        <time>2021-07-18T18:51:34Z</time>
      </trkpt>
      <trkpt lat="43.12158" lon="6.26162">
        <ele>2.7</ele>
        <time>2021-07-18T18:51:35Z</time>
      </trkpt>
      <trkpt lat="43.12158" lon="6.26161">
        <ele>2.7</ele>
        <time>2021-07-18T18:51:37Z</time>
      </trkpt>
      <trkpt lat="43.12158" lon="6.26161">
        <ele>2.6</ele>
        <time>2021-07-18T18:51:38Z</time>
      </trkpt>
      <trkpt lat="43.12158" lon="6.2616">
        <ele>2.6</ele>
        <time>2021-07-18T18:51:40Z</time>
      </trkpt>
      <trkpt lat="43.12158" lon="6.26159">
        <ele>2.6</ele>
        <time>2021-07-18T18:51:41Z</time>
      </trkpt>
      <trkpt lat="43.12158" lon="6.26158">
        <ele>2.6</ele>
        <time>2021-07-18T18:51:42Z</time>
      </trkpt>
      <trkpt lat="43.12158" lon="6.26158">
        <ele>2.6</ele>
        <time>2021-07-18T18:51:44Z</time>
      </trkpt>
      <trkpt lat="43.12158" lon="6.26157">
        <ele>2.6</ele>
        <time>2021-07-18T18:51:45Z</time>
      </trkpt>
      <trkpt lat="43.12158" lon="6.26157">
        <ele>2.6</ele>
        <time>2021-07-18T18:51:46Z</time>
      </trkpt>
      <trkpt lat="43.12158" lon="6.26156">
        <ele>2.6</ele>
        <time>2021-07-18T18:51:48Z</time>
      </trkpt>
      <trkpt lat="43.12158" lon="6.26156">
        <ele>2.6</ele>
        <time>2021-07-18T18:51:49Z</time>
      </trkpt>
      <trkpt lat="43.12158" lon="6.26155">
        <ele>2.6</ele>
        <time>2021-07-18T18:51:50Z</time>
      </trkpt>
      <trkpt lat="43.12158" lon="6.26154">
        <ele>2.6</ele>
        <time>2021-07-18T18:51:51Z</time>
      </trkpt>
      <trkpt lat="43.12158" lon="6.26152">
        <ele>2.6</ele>
        <time>2021-07-18T18:51:53Z</time>
      </trkpt>
      <trkpt lat="43.12157" lon="6.26151">
        <ele>2.6</ele>
        <time>2021-07-18T18:51:54Z</time>
      </trkpt>
      <trkpt lat="43.12157" lon="6.26149">
        <ele>2.6</ele>
        <time>2021-07-18T18:51:56Z</time>
      </trkpt>
      <trkpt lat="43.12157" lon="6.26148">
        <ele>2.6</ele>
        <time>2021-07-18T18:51:57Z</time>
      </trkpt>
      <trkpt lat="43.12157" lon="6.26147">
        <ele>2.6</ele>
        <time>2021-07-18T18:51:59Z</time>
      </trkpt>
      <trkpt lat="43.12157" lon="6.26147">
        <ele>2.6</ele>
        <time>2021-07-18T18:52:00Z</time>
      </trkpt>
      <trkpt lat="43.12157" lon="6.26146">
        <ele>2.6</ele>
        <time>2021-07-18T18:52:02Z</time>
      </trkpt>
      <trkpt lat="43.12157" lon="6.26145">
        <ele>2.6</ele>
        <time>2021-07-18T18:52:03Z</time>
      </trkpt>
      <trkpt lat="43.12158" lon="6.26144">
        <ele>2.6</ele>
        <time>2021-07-18T18:52:04Z</time>
      </trkpt>
      <trkpt lat="43.12158" lon="6.26144">
        <ele>2.7</ele>
        <time>2021-07-18T18:52:05Z</time>
      </trkpt>
      <trkpt lat="43.12158" lon="6.26143">
        <ele>2.6</ele>
        <time>2021-07-18T18:52:06Z</time>
      </trkpt>
      <trkpt lat="43.12159" lon="6.26141">
        <ele>2.6</ele>
        <time>2021-07-18T18:52:08Z</time>
      </trkpt>
      <trkpt lat="43.12159" lon="6.26139">
        <ele>2.6</ele>
        <time>2021-07-18T18:52:09Z</time>
      </trkpt>
      <trkpt lat="43.12159" lon="6.26137">
        <ele>2.6</ele>
        <time>2021-07-18T18:52:10Z</time>
      </trkpt>
      <trkpt lat="43.12159" lon="6.26136">
        <ele>2.6</ele>
        <time>2021-07-18T18:52:11Z</time>
      </trkpt>
      <trkpt lat="43.12159" lon="6.26134">
        <ele>2.5</ele>
        <time>2021-07-18T18:52:13Z</time>
      </trkpt>
      <trkpt lat="43.12159" lon="6.26132">
        <ele>2.5</ele>
        <time>2021-07-18T18:52:14Z</time>
      </trkpt>
      <trkpt lat="43.1216" lon="6.2613">
        <ele>2.4</ele>
        <time>2021-07-18T18:52:15Z</time>
      </trkpt>
      <trkpt lat="43.1216" lon="6.26127">
        <ele>2.5</ele>
        <time>2021-07-18T18:52:17Z</time>
      </trkpt>
      <trkpt lat="43.1216" lon="6.26126">
        <ele>2.7</ele>
        <time>2021-07-18T18:52:18Z</time>
      </trkpt>
      <trkpt lat="43.1216" lon="6.26123">
        <ele>2.4</ele>
        <time>2021-07-18T18:52:20Z</time>
      </trkpt>
      <trkpt lat="43.1216" lon="6.26122">
        <ele>2.3</ele>
        <time>2021-07-18T18:52:21Z</time>
      </trkpt>
      <trkpt lat="43.12159" lon="6.2612">
        <ele>2.3</ele>
        <time>2021-07-18T18:52:23Z</time>
      </trkpt>
      <trkpt lat="43.1216" lon="6.26119">
        <ele>2.3</ele>
        <time>2021-07-18T18:52:24Z</time>
      </trkpt>
      <trkpt lat="43.1216" lon="6.26117">
        <ele>2.2</ele>
        <time>2021-07-18T18:52:26Z</time>
      </trkpt>
      <trkpt lat="43.1216" lon="6.26116">
        <ele>2.2</ele>
        <time>2021-07-18T18:52:27Z</time>
      </trkpt>
      <trkpt lat="43.1216" lon="6.26114">
        <ele>2.3</ele>
        <time>2021-07-18T18:52:28Z</time>
      </trkpt>
      <trkpt lat="43.1216" lon="6.26113">
        <ele>2.5</ele>
        <time>2021-07-18T18:52:29Z</time>
      </trkpt>
      <trkpt lat="43.1216" lon="6.26112">
        <ele>2.5</ele>
        <time>2021-07-18T18:52:30Z</time>
      </trkpt>
      <trkpt lat="43.12161" lon="6.26112">
        <ele>2.6</ele>
        <time>2021-07-18T18:52:32Z</time>
      </trkpt>
      <trkpt lat="43.12162" lon="6.2611">
        <ele>2.6</ele>
        <time>2021-07-18T18:52:33Z</time>
      </trkpt>
      <trkpt lat="43.12162" lon="6.26109">
        <ele>2.5</ele>
        <time>2021-07-18T18:52:34Z</time>
      </trkpt>
      <trkpt lat="43.12163" lon="6.26107">
        <ele>2.5</ele>
        <time>2021-07-18T18:52:35Z</time>
      </trkpt>
      <trkpt lat="43.12163" lon="6.26106">
        <ele>2.5</ele>
        <time>2021-07-18T18:52:36Z</time>
      </trkpt>
      <trkpt lat="43.12163" lon="6.26104">
        <ele>2.8</ele>
        <time>2021-07-18T18:52:38Z</time>
      </trkpt>
      <trkpt lat="43.12164" lon="6.26102">
        <ele>2.9</ele>
        <time>2021-07-18T18:52:39Z</time>
      </trkpt>
      <trkpt lat="43.12164" lon="6.26101">
        <ele>2.8</ele>
        <time>2021-07-18T18:52:40Z</time>
      </trkpt>
      <trkpt lat="43.12164" lon="6.26099">
        <ele>2.8</ele>
        <time>2021-07-18T18:52:41Z</time>
      </trkpt>
      <trkpt lat="43.12164" lon="6.26097">
        <ele>2.8</ele>
        <time>2021-07-18T18:52:43Z</time>
      </trkpt>
      <trkpt lat="43.12164" lon="6.26094">
        <ele>2.8</ele>
        <time>2021-07-18T18:52:45Z</time>
      </trkpt>
      <trkpt lat="43.12163" lon="6.26093">
        <ele>2.8</ele>
        <time>2021-07-18T18:52:46Z</time>
      </trkpt>
      <trkpt lat="43.12163" lon="6.26091">
        <ele>2.4</ele>
        <time>2021-07-18T18:52:47Z</time>
      </trkpt>
      <trkpt lat="43.12162" lon="6.2609">
        <ele>2.4</ele>
        <time>2021-07-18T18:52:49Z</time>
      </trkpt>
      <trkpt lat="43.12162" lon="6.26089">
        <ele>2.4</ele>
        <time>2021-07-18T18:52:50Z</time>
      </trkpt>
      <trkpt lat="43.12161" lon="6.26087">
        <ele>2.4</ele>
        <time>2021-07-18T18:52:51Z</time>
      </trkpt>
      <trkpt lat="43.12161" lon="6.26086">
        <ele>2.4</ele>
        <time>2021-07-18T18:52:52Z</time>
      </trkpt>
      <trkpt lat="43.1216" lon="6.26085">
        <ele>2.5</ele>
        <time>2021-07-18T18:52:54Z</time>
      </trkpt>
      <trkpt lat="43.1216" lon="6.26084">
        <ele>2.2</ele>
        <time>2021-07-18T18:52:55Z</time>
      </trkpt>
      <trkpt lat="43.12159" lon="6.26083">
        <ele>2.2</ele>
        <time>2021-07-18T18:52:57Z</time>
      </trkpt>
      <trkpt lat="43.12159" lon="6.26082">
        <ele>2.3</ele>
        <time>2021-07-18T18:52:58Z</time>
      </trkpt>
      <trkpt lat="43.12159" lon="6.26081">
        <ele>2.3</ele>
        <time>2021-07-18T18:52:59Z</time>
      </trkpt>
      <trkpt lat="43.12159" lon="6.2608">
        <ele>2.3</ele>
        <time>2021-07-18T18:53:00Z</time>
      </trkpt>
      <trkpt lat="43.1216" lon="6.26078">
        <ele>2.3</ele>
        <time>2021-07-18T18:53:02Z</time>
      </trkpt>
      <trkpt lat="43.1216" lon="6.26076">
        <ele>2.6</ele>
        <time>2021-07-18T18:53:03Z</time>
      </trkpt>
      <trkpt lat="43.1216" lon="6.26073">
        <ele>2.6</ele>
        <time>2021-07-18T18:53:05Z</time>
      </trkpt>
      <trkpt lat="43.12161" lon="6.26072">
        <ele>2.6</ele>
        <time>2021-07-18T18:53:06Z</time>
      </trkpt>
      <trkpt lat="43.12161" lon="6.26071">
        <ele>2.7</ele>
        <time>2021-07-18T18:53:08Z</time>
      </trkpt>
      <trkpt lat="43.1216" lon="6.26069">
        <ele>2.7</ele>
        <time>2021-07-18T18:53:09Z</time>
      </trkpt>
      <trkpt lat="43.1216" lon="6.26068">
        <ele>2.7</ele>
        <time>2021-07-18T18:53:10Z</time>
      </trkpt>
      <trkpt lat="43.12159" lon="6.26066">
        <ele>2.5</ele>
        <time>2021-07-18T18:53:11Z</time>
      </trkpt>
      <trkpt lat="43.12159" lon="6.26065">
        <ele>2.5</ele>
        <time>2021-07-18T18:53:13Z</time>
      </trkpt>
      <trkpt lat="43.12159" lon="6.26064">
        <ele>2.6</ele>
        <time>2021-07-18T18:53:14Z</time>
      </trkpt>
      <trkpt lat="43.12159" lon="6.26062">
        <ele>2.6</ele>
        <time>2021-07-18T18:53:15Z</time>
      </trkpt>
      <trkpt lat="43.12159" lon="6.26061">
        <ele>2.6</ele>
        <time>2021-07-18T18:53:16Z</time>
      </trkpt>
      <trkpt lat="43.12158" lon="6.26059">
        <ele>2.6</ele>
        <time>2021-07-18T18:53:18Z</time>
      </trkpt>
      <trkpt lat="43.12157" lon="6.26058">
        <ele>2.7</ele>
        <time>2021-07-18T18:53:20Z</time>
      </trkpt>
      <trkpt lat="43.12157" lon="6.26056">
        <ele>2.7</ele>
        <time>2021-07-18T18:53:21Z</time>
      </trkpt>
      <trkpt lat="43.12157" lon="6.26055">
        <ele>2.7</ele>
        <time>2021-07-18T18:53:22Z</time>
      </trkpt>
      <trkpt lat="43.12156" lon="6.26053">
        <ele>2.6</ele>
        <time>2021-07-18T18:53:23Z</time>
      </trkpt>
      <trkpt lat="43.12156" lon="6.26052">
        <ele>2.6</ele>
        <time>2021-07-18T18:53:25Z</time>
      </trkpt>
      <trkpt lat="43.12156" lon="6.2605">
        <ele>2.6</ele>
        <time>2021-07-18T18:53:26Z</time>
      </trkpt>
      <trkpt lat="43.12156" lon="6.26049">
        <ele>2.7</ele>
        <time>2021-07-18T18:53:27Z</time>
      </trkpt>
      <trkpt lat="43.12156" lon="6.26047">
        <ele>2.7</ele>
        <time>2021-07-18T18:53:29Z</time>
      </trkpt>
      <trkpt lat="43.12156" lon="6.26046">
        <ele>2.7</ele>
        <time>2021-07-18T18:53:30Z</time>
      </trkpt>
      <trkpt lat="43.12156" lon="6.26045">
        <ele>2.7</ele>
        <time>2021-07-18T18:53:32Z</time>
      </trkpt>
      <trkpt lat="43.12156" lon="6.26043">
        <ele>2.7</ele>
        <time>2021-07-18T18:53:33Z</time>
      </trkpt>
      <trkpt lat="43.12156" lon="6.26042">
        <ele>2.8</ele>
        <time>2021-07-18T18:53:34Z</time>
      </trkpt>
      <trkpt lat="43.12156" lon="6.26041">
        <ele>2.8</ele>
        <time>2021-07-18T18:53:35Z</time>
      </trkpt>
      <trkpt lat="43.12156" lon="6.2604">
        <ele>2.8</ele>
        <time>2021-07-18T18:53:36Z</time>
      </trkpt>
      <trkpt lat="43.12156" lon="6.26038">
        <ele>2.8</ele>
        <time>2021-07-18T18:53:38Z</time>
      </trkpt>
      <trkpt lat="43.12155" lon="6.26037">
        <ele>2.9</ele>
        <time>2021-07-18T18:53:39Z</time>
      </trkpt>
      <trkpt lat="43.12155" lon="6.26036">
        <ele>2.9</ele>
        <time>2021-07-18T18:53:40Z</time>
      </trkpt>
      <trkpt lat="43.12155" lon="6.26035">
        <ele>2.9</ele>
        <time>2021-07-18T18:53:41Z</time>
      </trkpt>
      <trkpt lat="43.12155" lon="6.26034">
        <ele>3</ele>
        <time>2021-07-18T18:53:42Z</time>
      </trkpt>
      <trkpt lat="43.12155" lon="6.26033">
        <ele>3</ele>
        <time>2021-07-18T18:53:44Z</time>
      </trkpt>
      <trkpt lat="43.12155" lon="6.26031">
        <ele>3</ele>
        <time>2021-07-18T18:53:45Z</time>
      </trkpt>
      <trkpt lat="43.12155" lon="6.2603">
        <ele>3</ele>
        <time>2021-07-18T18:53:46Z</time>
      </trkpt>
      <trkpt lat="43.12154" lon="6.26028">
        <ele>3.1</ele>
        <time>2021-07-18T18:53:47Z</time>
      </trkpt>
      <trkpt lat="43.12154" lon="6.26026">
        <ele>3.1</ele>
        <time>2021-07-18T18:53:48Z</time>
      </trkpt>
      <trkpt lat="43.12154" lon="6.26024">
        <ele>3.1</ele>
        <time>2021-07-18T18:53:50Z</time>
      </trkpt>
      <trkpt lat="43.12154" lon="6.26023">
        <ele>3.1</ele>
        <time>2021-07-18T18:53:51Z</time>
      </trkpt>
      <trkpt lat="43.12154" lon="6.26022">
        <ele>3.2</ele>
        <time>2021-07-18T18:53:52Z</time>
      </trkpt>
      <trkpt lat="43.12154" lon="6.26019">
        <ele>3.2</ele>
        <time>2021-07-18T18:53:54Z</time>
      </trkpt>
      <trkpt lat="43.12155" lon="6.26018">
        <ele>3.2</ele>
        <time>2021-07-18T18:53:55Z</time>
      </trkpt>
      <trkpt lat="43.12155" lon="6.26018">
        <ele>3.3</ele>
        <time>2021-07-18T18:53:57Z</time>
      </trkpt>
      <trkpt lat="43.12155" lon="6.26019">
        <ele>3.3</ele>
        <time>2021-07-18T18:54:00Z</time>
      </trkpt>
      <trkpt lat="43.12155" lon="6.26019">
        <ele>3.3</ele>
        <time>2021-07-18T18:54:01Z</time>
      </trkpt>
      <trkpt lat="43.12155" lon="6.26019">
        <ele>3.3</ele>
        <time>2021-07-18T18:54:03Z</time>
      </trkpt>
      <trkpt lat="43.12155" lon="6.26019">
        <ele>3.4</ele>
        <time>2021-07-18T18:54:04Z</time>
      </trkpt>
      <trkpt lat="43.12155" lon="6.26019">
        <ele>3.4</ele>
        <time>2021-07-18T18:54:05Z</time>
      </trkpt>
      <trkpt lat="43.12155" lon="6.26019">
        <ele>3.4</ele>
        <time>2021-07-18T18:54:06Z</time>
      </trkpt>
      <trkpt lat="43.12155" lon="6.26019">
        <ele>3.5</ele>
        <time>2021-07-18T18:54:08Z</time>
      </trkpt>
      <trkpt lat="43.12155" lon="6.26019">
        <ele>3.5</ele>
        <time>2021-07-18T18:54:09Z</time>
      </trkpt>
      <trkpt lat="43.12155" lon="6.26019">
        <ele>3.5</ele>
        <time>2021-07-18T18:54:10Z</time>
      </trkpt>
      <trkpt lat="43.12155" lon="6.26019">
        <ele>3.5</ele>
        <time>2021-07-18T18:54:11Z</time>
      </trkpt>
      <trkpt lat="43.12155" lon="6.26019">
        <ele>3.5</ele>
        <time>2021-07-18T18:54:12Z</time>
      </trkpt>
      <trkpt lat="43.12155" lon="6.26019">
        <ele>3.6</ele>
        <time>2021-07-18T18:54:14Z</time>
      </trkpt>
      <trkpt lat="43.12155" lon="6.26019">
        <ele>3.6</ele>
        <time>2021-07-18T18:54:15Z</time>
      </trkpt>
      <trkpt lat="43.12155" lon="6.2602">
        <ele>3.6</ele>
        <time>2021-07-18T18:54:17Z</time>
      </trkpt>
      <trkpt lat="43.12155" lon="6.2602">
        <ele>3.7</ele>
        <time>2021-07-18T18:54:18Z</time>
      </trkpt>
      <trkpt lat="43.12155" lon="6.2602">
        <ele>3.7</ele>
        <time>2021-07-18T18:54:20Z</time>
      </trkpt>
      <trkpt lat="43.12155" lon="6.2602">
        <ele>3.7</ele>
        <time>2021-07-18T18:54:21Z</time>
      </trkpt>
      <trkpt lat="43.12155" lon="6.2602">
        <ele>3.7</ele>
        <time>2021-07-18T18:54:22Z</time>
      </trkpt>
      <trkpt lat="43.12155" lon="6.2602">
        <ele>3.8</ele>
        <time>2021-07-18T18:54:24Z</time>
      </trkpt>
      <trkpt lat="43.12155" lon="6.2602">
        <ele>3.8</ele>
        <time>2021-07-18T18:54:25Z</time>
      </trkpt>
      <trkpt lat="43.12155" lon="6.2602">
        <ele>3.8</ele>
        <time>2021-07-18T18:54:27Z</time>
      </trkpt>
      <trkpt lat="43.12155" lon="6.26018">
        <ele>3.9</ele>
        <time>2021-07-18T18:54:29Z</time>
      </trkpt>
      <trkpt lat="43.12155" lon="6.26018">
        <ele>3.9</ele>
        <time>2021-07-18T18:54:30Z</time>
      </trkpt>
      <trkpt lat="43.12155" lon="6.26016">
        <ele>3.9</ele>
        <time>2021-07-18T18:54:32Z</time>
      </trkpt>
      <trkpt lat="43.12155" lon="6.26015">
        <ele>3.9</ele>
        <time>2021-07-18T18:54:33Z</time>
      </trkpt>
      <trkpt lat="43.12155" lon="6.26014">
        <ele>4</ele>
        <time>2021-07-18T18:54:34Z</time>
      </trkpt>
      <trkpt lat="43.12154" lon="6.26011">
        <ele>4</ele>
        <time>2021-07-18T18:54:36Z</time>
      </trkpt>
      <trkpt lat="43.12154" lon="6.26009">
        <ele>4.1</ele>
        <time>2021-07-18T18:54:38Z</time>
      </trkpt>
      <trkpt lat="43.12153" lon="6.26008">
        <ele>4</ele>
        <time>2021-07-18T18:54:39Z</time>
      </trkpt>
      <trkpt lat="43.12152" lon="6.26006">
        <ele>4.1</ele>
        <time>2021-07-18T18:54:40Z</time>
      </trkpt>
      <trkpt lat="43.12152" lon="6.26004">
        <ele>4.1</ele>
        <time>2021-07-18T18:54:41Z</time>
      </trkpt>
      <trkpt lat="43.12151" lon="6.26002">
        <ele>4.2</ele>
        <time>2021-07-18T18:54:42Z</time>
      </trkpt>
      <trkpt lat="43.1215" lon="6.26">
        <ele>4.1</ele>
        <time>2021-07-18T18:54:44Z</time>
      </trkpt>
      <trkpt lat="43.1215" lon="6.25999">
        <ele>4.1</ele>
        <time>2021-07-18T18:54:45Z</time>
      </trkpt>
      <trkpt lat="43.12149" lon="6.25998">
        <ele>4.1</ele>
        <time>2021-07-18T18:54:46Z</time>
      </trkpt>
      <trkpt lat="43.12148" lon="6.25997">
        <ele>4.2</ele>
        <time>2021-07-18T18:54:47Z</time>
      </trkpt>
      <trkpt lat="43.12148" lon="6.25996">
        <ele>4.2</ele>
        <time>2021-07-18T18:54:48Z</time>
      </trkpt>
      <trkpt lat="43.12148" lon="6.25995">
        <ele>4.3</ele>
        <time>2021-07-18T18:54:49Z</time>
      </trkpt>
      <trkpt lat="43.12147" lon="6.25992">
        <ele>4.2</ele>
        <time>2021-07-18T18:54:51Z</time>
      </trkpt>
      <trkpt lat="43.12146" lon="6.2599">
        <ele>4.3</ele>
        <time>2021-07-18T18:54:53Z</time>
      </trkpt>
      <trkpt lat="43.12146" lon="6.25989">
        <ele>4.3</ele>
        <time>2021-07-18T18:54:54Z</time>
      </trkpt>
      <trkpt lat="43.12146" lon="6.25987">
        <ele>4.4</ele>
        <time>2021-07-18T18:54:55Z</time>
      </trkpt>
      <trkpt lat="43.12146" lon="6.25984">
        <ele>4.5</ele>
        <time>2021-07-18T18:54:57Z</time>
      </trkpt>
      <trkpt lat="43.12145" lon="6.25982">
        <ele>4.5</ele>
        <time>2021-07-18T18:54:59Z</time>
      </trkpt>
      <trkpt lat="43.12145" lon="6.2598">
        <ele>4.5</ele>
        <time>2021-07-18T18:55:00Z</time>
      </trkpt>
      <trkpt lat="43.12144" lon="6.25977">
        <ele>4.5</ele>
        <time>2021-07-18T18:55:01Z</time>
      </trkpt>
      <trkpt lat="43.12144" lon="6.25975">
        <ele>4.5</ele>
        <time>2021-07-18T18:55:03Z</time>
      </trkpt>
      <trkpt lat="43.12144" lon="6.25974">
        <ele>4.5</ele>
        <time>2021-07-18T18:55:04Z</time>
      </trkpt>
      <trkpt lat="43.12144" lon="6.25972">
        <ele>4.5</ele>
        <time>2021-07-18T18:55:05Z</time>
      </trkpt>
      <trkpt lat="43.12143" lon="6.25971">
        <ele>4.5</ele>
        <time>2021-07-18T18:55:06Z</time>
      </trkpt>
      <trkpt lat="43.12143" lon="6.25969">
        <ele>4.5</ele>
        <time>2021-07-18T18:55:08Z</time>
      </trkpt>
      <trkpt lat="43.12142" lon="6.25967">
        <ele>4.4</ele>
        <time>2021-07-18T18:55:09Z</time>
      </trkpt>
      <trkpt lat="43.12142" lon="6.25966">
        <ele>4.4</ele>
        <time>2021-07-18T18:55:11Z</time>
      </trkpt>
      <trkpt lat="43.12141" lon="6.25964">
        <ele>4.4</ele>
        <time>2021-07-18T18:55:12Z</time>
      </trkpt>
      <trkpt lat="43.12141" lon="6.25963">
        <ele>4.4</ele>
        <time>2021-07-18T18:55:13Z</time>
      </trkpt>
      <trkpt lat="43.12141" lon="6.25962">
        <ele>4.4</ele>
        <time>2021-07-18T18:55:14Z</time>
      </trkpt>
      <trkpt lat="43.12141" lon="6.2596">
        <ele>4.4</ele>
        <time>2021-07-18T18:55:15Z</time>
      </trkpt>
      <trkpt lat="43.12141" lon="6.25959">
        <ele>4.4</ele>
        <time>2021-07-18T18:55:16Z</time>
      </trkpt>
      <trkpt lat="43.1214" lon="6.25958">
        <ele>4.4</ele>
        <time>2021-07-18T18:55:18Z</time>
      </trkpt>
      <trkpt lat="43.1214" lon="6.25957">
        <ele>4.4</ele>
        <time>2021-07-18T18:55:19Z</time>
      </trkpt>
      <trkpt lat="43.12139" lon="6.25955">
        <ele>4.4</ele>
        <time>2021-07-18T18:55:21Z</time>
      </trkpt>
      <trkpt lat="43.12139" lon="6.25953">
        <ele>4.4</ele>
        <time>2021-07-18T18:55:22Z</time>
      </trkpt>
      <trkpt lat="43.12138" lon="6.25952">
        <ele>4.4</ele>
        <time>2021-07-18T18:55:23Z</time>
      </trkpt>
      <trkpt lat="43.12138" lon="6.2595">
        <ele>4.4</ele>
        <time>2021-07-18T18:55:25Z</time>
      </trkpt>
      <trkpt lat="43.12138" lon="6.25948">
        <ele>4.4</ele>
        <time>2021-07-18T18:55:27Z</time>
      </trkpt>
      <trkpt lat="43.12138" lon="6.25947">
        <ele>4.4</ele>
        <time>2021-07-18T18:55:28Z</time>
      </trkpt>
      <trkpt lat="43.12137" lon="6.25945">
        <ele>4.4</ele>
        <time>2021-07-18T18:55:29Z</time>
      </trkpt>
      <trkpt lat="43.12137" lon="6.25944">
        <ele>4.4</ele>
        <time>2021-07-18T18:55:30Z</time>
      </trkpt>
      <trkpt lat="43.12137" lon="6.25942">
        <ele>4.4</ele>
        <time>2021-07-18T18:55:32Z</time>
      </trkpt>
      <trkpt lat="43.12137" lon="6.25941">
        <ele>4.4</ele>
        <time>2021-07-18T18:55:33Z</time>
      </trkpt>
      <trkpt lat="43.12135" lon="6.25939">
        <ele>4.3</ele>
        <time>2021-07-18T18:55:35Z</time>
      </trkpt>
      <trkpt lat="43.12134" lon="6.25938">
        <ele>4.3</ele>
        <time>2021-07-18T18:55:36Z</time>
      </trkpt>
      <trkpt lat="43.12133" lon="6.25938">
        <ele>4.3</ele>
        <time>2021-07-18T18:55:38Z</time>
      </trkpt>
      <trkpt lat="43.12132" lon="6.25937">
        <ele>4.3</ele>
        <time>2021-07-18T18:55:39Z</time>
      </trkpt>
      <trkpt lat="43.12131" lon="6.25937">
        <ele>4.3</ele>
        <time>2021-07-18T18:55:40Z</time>
      </trkpt>
      <trkpt lat="43.1213" lon="6.25936">
        <ele>4.3</ele>
        <time>2021-07-18T18:55:41Z</time>
      </trkpt>
      <trkpt lat="43.12129" lon="6.25936">
        <ele>4.3</ele>
        <time>2021-07-18T18:55:42Z</time>
      </trkpt>
      <trkpt lat="43.12128" lon="6.25935">
        <ele>4.3</ele>
        <time>2021-07-18T18:55:44Z</time>
      </trkpt>
      <trkpt lat="43.12128" lon="6.25934">
        <ele>4.3</ele>
        <time>2021-07-18T18:55:45Z</time>
      </trkpt>
      <trkpt lat="43.12127" lon="6.25934">
        <ele>4.3</ele>
        <time>2021-07-18T18:55:46Z</time>
      </trkpt>
      <trkpt lat="43.12127" lon="6.25932">
        <ele>4.3</ele>
        <time>2021-07-18T18:55:47Z</time>
      </trkpt>
      <trkpt lat="43.12127" lon="6.25931">
        <ele>4.3</ele>
        <time>2021-07-18T18:55:48Z</time>
      </trkpt>
      <trkpt lat="43.12127" lon="6.2593">
        <ele>4.3</ele>
        <time>2021-07-18T18:55:50Z</time>
      </trkpt>
      <trkpt lat="43.12127" lon="6.25929">
        <ele>4.3</ele>
        <time>2021-07-18T18:55:51Z</time>
      </trkpt>
      <trkpt lat="43.12127" lon="6.25927">
        <ele>4.3</ele>
        <time>2021-07-18T18:55:52Z</time>
      </trkpt>
      <trkpt lat="43.12127" lon="6.25925">
        <ele>4.3</ele>
        <time>2021-07-18T18:55:54Z</time>
      </trkpt>
      <trkpt lat="43.12127" lon="6.25924">
        <ele>4.3</ele>
        <time>2021-07-18T18:55:56Z</time>
      </trkpt>
      <trkpt lat="43.12127" lon="6.25923">
        <ele>4.3</ele>
        <time>2021-07-18T18:55:57Z</time>
      </trkpt>
      <trkpt lat="43.12126" lon="6.25921">
        <ele>4.3</ele>
        <time>2021-07-18T18:55:59Z</time>
      </trkpt>
      <trkpt lat="43.12126" lon="6.25919">
        <ele>4.3</ele>
        <time>2021-07-18T18:56:00Z</time>
      </trkpt>
      <trkpt lat="43.12126" lon="6.25918">
        <ele>4.3</ele>
        <time>2021-07-18T18:56:01Z</time>
      </trkpt>
      <trkpt lat="43.12126" lon="6.25916">
        <ele>4.3</ele>
        <time>2021-07-18T18:56:03Z</time>
      </trkpt>
      <trkpt lat="43.12126" lon="6.25914">
        <ele>4.3</ele>
        <time>2021-07-18T18:56:04Z</time>
      </trkpt>
      <trkpt lat="43.12126" lon="6.25912">
        <ele>4.3</ele>
        <time>2021-07-18T18:56:05Z</time>
      </trkpt>
      <trkpt lat="43.12126" lon="6.25909">
        <ele>4.3</ele>
        <time>2021-07-18T18:56:06Z</time>
      </trkpt>
      <trkpt lat="43.12126" lon="6.25908">
        <ele>4.3</ele>
        <time>2021-07-18T18:56:08Z</time>
      </trkpt>
      <trkpt lat="43.12125" lon="6.25906">
        <ele>4.3</ele>
        <time>2021-07-18T18:56:09Z</time>
      </trkpt>
      <trkpt lat="43.12125" lon="6.25904">
        <ele>4.3</ele>
        <time>2021-07-18T18:56:10Z</time>
      </trkpt>
      <trkpt lat="43.12125" lon="6.25902">
        <ele>4.3</ele>
        <time>2021-07-18T18:56:11Z</time>
      </trkpt>
      <trkpt lat="43.12124" lon="6.25901">
        <ele>4.3</ele>
        <time>2021-07-18T18:56:12Z</time>
      </trkpt>
      <trkpt lat="43.12124" lon="6.25898">
        <ele>4.3</ele>
        <time>2021-07-18T18:56:14Z</time>
      </trkpt>
      <trkpt lat="43.12123" lon="6.25895">
        <ele>4.3</ele>
        <time>2021-07-18T18:56:15Z</time>
      </trkpt>
      <trkpt lat="43.12122" lon="6.25892">
        <ele>4.3</ele>
        <time>2021-07-18T18:56:17Z</time>
      </trkpt>
      <trkpt lat="43.12122" lon="6.2589">
        <ele>4.3</ele>
        <time>2021-07-18T18:56:18Z</time>
      </trkpt>
      <trkpt lat="43.12121" lon="6.25888">
        <ele>4.3</ele>
        <time>2021-07-18T18:56:20Z</time>
      </trkpt>
      <trkpt lat="43.1212" lon="6.25885">
        <ele>4.3</ele>
        <time>2021-07-18T18:56:21Z</time>
      </trkpt>
      <trkpt lat="43.1212" lon="6.25882">
        <ele>4.3</ele>
        <time>2021-07-18T18:56:23Z</time>
      </trkpt>
      <trkpt lat="43.1212" lon="6.25881">
        <ele>4.3</ele>
        <time>2021-07-18T18:56:24Z</time>
      </trkpt>
      <trkpt lat="43.12119" lon="6.25879">
        <ele>4.3</ele>
        <time>2021-07-18T18:56:25Z</time>
      </trkpt>
      <trkpt lat="43.12119" lon="6.25878">
        <ele>4.3</ele>
        <time>2021-07-18T18:56:26Z</time>
      </trkpt>
      <trkpt lat="43.12119" lon="6.25875">
        <ele>4.3</ele>
        <time>2021-07-18T18:56:28Z</time>
      </trkpt>
      <trkpt lat="43.12118" lon="6.25874">
        <ele>4.2</ele>
        <time>2021-07-18T18:56:29Z</time>
      </trkpt>
      <trkpt lat="43.12118" lon="6.25872">
        <ele>4.2</ele>
        <time>2021-07-18T18:56:30Z</time>
      </trkpt>
      <trkpt lat="43.12118" lon="6.2587">
        <ele>4.2</ele>
        <time>2021-07-18T18:56:31Z</time>
      </trkpt>
      <trkpt lat="43.12117" lon="6.25869">
        <ele>4.2</ele>
        <time>2021-07-18T18:56:32Z</time>
      </trkpt>
      <trkpt lat="43.12117" lon="6.25867">
        <ele>4.2</ele>
        <time>2021-07-18T18:56:34Z</time>
      </trkpt>
      <trkpt lat="43.12116" lon="6.25865">
        <ele>4.2</ele>
        <time>2021-07-18T18:56:35Z</time>
      </trkpt>
      <trkpt lat="43.12116" lon="6.25863">
        <ele>4.2</ele>
        <time>2021-07-18T18:56:37Z</time>
      </trkpt>
      <trkpt lat="43.12116" lon="6.25861">
        <ele>4.2</ele>
        <time>2021-07-18T18:56:39Z</time>
      </trkpt>
      <trkpt lat="43.12117" lon="6.25859">
        <ele>4.2</ele>
        <time>2021-07-18T18:56:40Z</time>
      </trkpt>
      <trkpt lat="43.12117" lon="6.25857">
        <ele>4.2</ele>
        <time>2021-07-18T18:56:41Z</time>
      </trkpt>
      <trkpt lat="43.12117" lon="6.25856">
        <ele>4.2</ele>
        <time>2021-07-18T18:56:42Z</time>
      </trkpt>
      <trkpt lat="43.12116" lon="6.25854">
        <ele>4.2</ele>
        <time>2021-07-18T18:56:44Z</time>
      </trkpt>
      <trkpt lat="43.12116" lon="6.25852">
        <ele>4.2</ele>
        <time>2021-07-18T18:56:45Z</time>
      </trkpt>
      <trkpt lat="43.12116" lon="6.2585">
        <ele>4.2</ele>
        <time>2021-07-18T18:56:47Z</time>
      </trkpt>
      <trkpt lat="43.12115" lon="6.25849">
        <ele>4.2</ele>
        <time>2021-07-18T18:56:48Z</time>
      </trkpt>
      <trkpt lat="43.12114" lon="6.25847">
        <ele>4.2</ele>
        <time>2021-07-18T18:56:49Z</time>
      </trkpt>
      <trkpt lat="43.12113" lon="6.25845">
        <ele>4.2</ele>
        <time>2021-07-18T18:56:51Z</time>
      </trkpt>
      <trkpt lat="43.12112" lon="6.25843">
        <ele>4.2</ele>
        <time>2021-07-18T18:56:52Z</time>
      </trkpt>
      <trkpt lat="43.12112" lon="6.25842">
        <ele>4.2</ele>
        <time>2021-07-18T18:56:53Z</time>
      </trkpt>
      <trkpt lat="43.12111" lon="6.25841">
        <ele>4.2</ele>
        <time>2021-07-18T18:56:54Z</time>
      </trkpt>
      <trkpt lat="43.12111" lon="6.25839">
        <ele>4.2</ele>
        <time>2021-07-18T18:56:56Z</time>
      </trkpt>
      <trkpt lat="43.1211" lon="6.25837">
        <ele>4.2</ele>
        <time>2021-07-18T18:56:58Z</time>
      </trkpt>
      <trkpt lat="43.1211" lon="6.25836">
        <ele>4.2</ele>
        <time>2021-07-18T18:56:59Z</time>
      </trkpt>
      <trkpt lat="43.1211" lon="6.25833">
        <ele>4.2</ele>
        <time>2021-07-18T18:57:00Z</time>
      </trkpt>
      <trkpt lat="43.12109" lon="6.25831">
        <ele>4.3</ele>
        <time>2021-07-18T18:57:02Z</time>
      </trkpt>
      <trkpt lat="43.12109" lon="6.25829">
        <ele>4.3</ele>
        <time>2021-07-18T18:57:04Z</time>
      </trkpt>
      <trkpt lat="43.12109" lon="6.25826">
        <ele>4.3</ele>
        <time>2021-07-18T18:57:05Z</time>
      </trkpt>
      <trkpt lat="43.12108" lon="6.25824">
        <ele>4.3</ele>
        <time>2021-07-18T18:57:07Z</time>
      </trkpt>
      <trkpt lat="43.12108" lon="6.25823">
        <ele>4.3</ele>
        <time>2021-07-18T18:57:08Z</time>
      </trkpt>
      <trkpt lat="43.12108" lon="6.25821">
        <ele>4.3</ele>
        <time>2021-07-18T18:57:10Z</time>
      </trkpt>
      <trkpt lat="43.12108" lon="6.25819">
        <ele>4.3</ele>
        <time>2021-07-18T18:57:11Z</time>
      </trkpt>
      <trkpt lat="43.12108" lon="6.25818">
        <ele>4.3</ele>
        <time>2021-07-18T18:57:12Z</time>
      </trkpt>
      <trkpt lat="43.12108" lon="6.25815">
        <ele>4.3</ele>
        <time>2021-07-18T18:57:14Z</time>
      </trkpt>
      <trkpt lat="43.12107" lon="6.25813">
        <ele>4.3</ele>
        <time>2021-07-18T18:57:16Z</time>
      </trkpt>
      <trkpt lat="43.12107" lon="6.25812">
        <ele>4.3</ele>
        <time>2021-07-18T18:57:17Z</time>
      </trkpt>
      <trkpt lat="43.12107" lon="6.2581">
        <ele>4.3</ele>
        <time>2021-07-18T18:57:18Z</time>
      </trkpt>
      <trkpt lat="43.12107" lon="6.25807">
        <ele>4.3</ele>
        <time>2021-07-18T18:57:21Z</time>
      </trkpt>
      <trkpt lat="43.12106" lon="6.25805">
        <ele>4.3</ele>
        <time>2021-07-18T18:57:22Z</time>
      </trkpt>
      <trkpt lat="43.12106" lon="6.25803">
        <ele>4.3</ele>
        <time>2021-07-18T18:57:23Z</time>
      </trkpt>
      <trkpt lat="43.12106" lon="6.25802">
        <ele>4.3</ele>
        <time>2021-07-18T18:57:24Z</time>
      </trkpt>
      <trkpt lat="43.12106" lon="6.25799">
        <ele>4.3</ele>
        <time>2021-07-18T18:57:25Z</time>
      </trkpt>
      <trkpt lat="43.12105" lon="6.25796">
        <ele>4.4</ele>
        <time>2021-07-18T18:57:27Z</time>
      </trkpt>
      <trkpt lat="43.12105" lon="6.25793">
        <ele>4.4</ele>
        <time>2021-07-18T18:57:28Z</time>
      </trkpt>
      <trkpt lat="43.12105" lon="6.25792">
        <ele>4.4</ele>
        <time>2021-07-18T18:57:29Z</time>
      </trkpt>
      <trkpt lat="43.12105" lon="6.2579">
        <ele>4.4</ele>
        <time>2021-07-18T18:57:30Z</time>
      </trkpt>
      <trkpt lat="43.12105" lon="6.25789">
        <ele>4.4</ele>
        <time>2021-07-18T18:57:32Z</time>
      </trkpt>
      <trkpt lat="43.12104" lon="6.25787">
        <ele>4.4</ele>
        <time>2021-07-18T18:57:33Z</time>
      </trkpt>
      <trkpt lat="43.12104" lon="6.25785">
        <ele>4.4</ele>
        <time>2021-07-18T18:57:35Z</time>
      </trkpt>
      <trkpt lat="43.12103" lon="6.25783">
        <ele>4.4</ele>
        <time>2021-07-18T18:57:36Z</time>
      </trkpt>
      <trkpt lat="43.12102" lon="6.25782">
        <ele>4.4</ele>
        <time>2021-07-18T18:57:37Z</time>
      </trkpt>
      <trkpt lat="43.12102" lon="6.25781">
        <ele>4.4</ele>
        <time>2021-07-18T18:57:38Z</time>
      </trkpt>
      <trkpt lat="43.12102" lon="6.25779">
        <ele>4.4</ele>
        <time>2021-07-18T18:57:40Z</time>
      </trkpt>
      <trkpt lat="43.12102" lon="6.25778">
        <ele>4.4</ele>
        <time>2021-07-18T18:57:41Z</time>
      </trkpt>
      <trkpt lat="43.12101" lon="6.25776">
        <ele>4.4</ele>
        <time>2021-07-18T18:57:42Z</time>
      </trkpt>
      <trkpt lat="43.12101" lon="6.25774">
        <ele>4.4</ele>
        <time>2021-07-18T18:57:43Z</time>
      </trkpt>
      <trkpt lat="43.12101" lon="6.25773">
        <ele>4.4</ele>
        <time>2021-07-18T18:57:44Z</time>
      </trkpt>
      <trkpt lat="43.12102" lon="6.25769">
        <ele>4.4</ele>
        <time>2021-07-18T18:57:46Z</time>
      </trkpt>
      <trkpt lat="43.12101" lon="6.25766">
        <ele>4.4</ele>
        <time>2021-07-18T18:57:48Z</time>
      </trkpt>
      <trkpt lat="43.12101" lon="6.25765">
        <ele>4.4</ele>
        <time>2021-07-18T18:57:49Z</time>
      </trkpt>
      <trkpt lat="43.12101" lon="6.25764">
        <ele>4.4</ele>
        <time>2021-07-18T18:57:50Z</time>
      </trkpt>
      <trkpt lat="43.12101" lon="6.25763">
        <ele>4.4</ele>
        <time>2021-07-18T18:57:51Z</time>
      </trkpt>
      <trkpt lat="43.12101" lon="6.25762">
        <ele>4.4</ele>
        <time>2021-07-18T18:57:52Z</time>
      </trkpt>
      <trkpt lat="43.121" lon="6.2576">
        <ele>4.4</ele>
        <time>2021-07-18T18:57:53Z</time>
      </trkpt>
      <trkpt lat="43.121" lon="6.25758">
        <ele>4.4</ele>
        <time>2021-07-18T18:57:55Z</time>
      </trkpt>
      <trkpt lat="43.12099" lon="6.25756">
        <ele>4.4</ele>
        <time>2021-07-18T18:57:56Z</time>
      </trkpt>
      <trkpt lat="43.12099" lon="6.25755">
        <ele>4.4</ele>
        <time>2021-07-18T18:57:58Z</time>
      </trkpt>
      <trkpt lat="43.12098" lon="6.25754">
        <ele>4.4</ele>
        <time>2021-07-18T18:57:59Z</time>
      </trkpt>
      <trkpt lat="43.12097" lon="6.25753">
        <ele>4.4</ele>
        <time>2021-07-18T18:58:00Z</time>
      </trkpt>
      <trkpt lat="43.12096" lon="6.25752">
        <ele>4.4</ele>
        <time>2021-07-18T18:58:01Z</time>
      </trkpt>
      <trkpt lat="43.12095" lon="6.25752">
        <ele>4.4</ele>
        <time>2021-07-18T18:58:02Z</time>
      </trkpt>
      <trkpt lat="43.12094" lon="6.25752">
        <ele>4.4</ele>
        <time>2021-07-18T18:58:03Z</time>
      </trkpt>
      <trkpt lat="43.12093" lon="6.25751">
        <ele>4.4</ele>
        <time>2021-07-18T18:58:04Z</time>
      </trkpt>
      <trkpt lat="43.12091" lon="6.25748">
        <ele>4.4</ele>
        <time>2021-07-18T18:58:06Z</time>
      </trkpt>
      <trkpt lat="43.1209" lon="6.25746">
        <ele>4.4</ele>
        <time>2021-07-18T18:58:08Z</time>
      </trkpt>
      <trkpt lat="43.12089" lon="6.25744">
        <ele>4.4</ele>
        <time>2021-07-18T18:58:10Z</time>
      </trkpt>
      <trkpt lat="43.12089" lon="6.25742">
        <ele>4.4</ele>
        <time>2021-07-18T18:58:11Z</time>
      </trkpt>
      <trkpt lat="43.12089" lon="6.25741">
        <ele>4.4</ele>
        <time>2021-07-18T18:58:12Z</time>
      </trkpt>
      <trkpt lat="43.12089" lon="6.25738">
        <ele>4.4</ele>
        <time>2021-07-18T18:58:13Z</time>
      </trkpt>
      <trkpt lat="43.12089" lon="6.25736">
        <ele>4.4</ele>
        <time>2021-07-18T18:58:14Z</time>
      </trkpt>
      <trkpt lat="43.12089" lon="6.25734">
        <ele>4.4</ele>
        <time>2021-07-18T18:58:16Z</time>
      </trkpt>
      <trkpt lat="43.12088" lon="6.25732">
        <ele>4.4</ele>
        <time>2021-07-18T18:58:17Z</time>
      </trkpt>
      <trkpt lat="43.12088" lon="6.2573">
        <ele>4.4</ele>
        <time>2021-07-18T18:58:18Z</time>
      </trkpt>
      <trkpt lat="43.12089" lon="6.25727">
        <ele>4.4</ele>
        <time>2021-07-18T18:58:19Z</time>
      </trkpt>
      <trkpt lat="43.12089" lon="6.25723">
        <ele>4.4</ele>
        <time>2021-07-18T18:58:21Z</time>
      </trkpt>
      <trkpt lat="43.12089" lon="6.25722">
        <ele>4.4</ele>
        <time>2021-07-18T18:58:22Z</time>
      </trkpt>
      <trkpt lat="43.12089" lon="6.2572">
        <ele>4.4</ele>
        <time>2021-07-18T18:58:23Z</time>
      </trkpt>
      <trkpt lat="43.12089" lon="6.25718">
        <ele>4.4</ele>
        <time>2021-07-18T18:58:24Z</time>
      </trkpt>
      <trkpt lat="43.12089" lon="6.25715">
        <ele>4.4</ele>
        <time>2021-07-18T18:58:26Z</time>
      </trkpt>
      <trkpt lat="43.12089" lon="6.25714">
        <ele>4.4</ele>
        <time>2021-07-18T18:58:27Z</time>
      </trkpt>
      <trkpt lat="43.12089" lon="6.25712">
        <ele>4.4</ele>
        <time>2021-07-18T18:58:28Z</time>
      </trkpt>
      <trkpt lat="43.12089" lon="6.2571">
        <ele>4.4</ele>
        <time>2021-07-18T18:58:30Z</time>
      </trkpt>
      <trkpt lat="43.1209" lon="6.25708">
        <ele>4.4</ele>
        <time>2021-07-18T18:58:31Z</time>
      </trkpt>
      <trkpt lat="43.1209" lon="6.25707">
        <ele>4.4</ele>
        <time>2021-07-18T18:58:32Z</time>
      </trkpt>
      <trkpt lat="43.12091" lon="6.25706">
        <ele>4.4</ele>
        <time>2021-07-18T18:58:34Z</time>
      </trkpt>
      <trkpt lat="43.12092" lon="6.25705">
        <ele>4.4</ele>
        <time>2021-07-18T18:58:35Z</time>
      </trkpt>
      <trkpt lat="43.12092" lon="6.25704">
        <ele>4.4</ele>
        <time>2021-07-18T18:58:36Z</time>
      </trkpt>
      <trkpt lat="43.12093" lon="6.25703">
        <ele>4.4</ele>
        <time>2021-07-18T18:58:37Z</time>
      </trkpt>
      <trkpt lat="43.12094" lon="6.257">
        <ele>4.4</ele>
        <time>2021-07-18T18:58:39Z</time>
      </trkpt>
      <trkpt lat="43.12094" lon="6.25699">
        <ele>4.4</ele>
        <time>2021-07-18T18:58:40Z</time>
      </trkpt>
      <trkpt lat="43.12095" lon="6.25698">
        <ele>4.4</ele>
        <time>2021-07-18T18:58:41Z</time>
      </trkpt>
      <trkpt lat="43.12095" lon="6.25697">
        <ele>4.4</ele>
        <time>2021-07-18T18:58:42Z</time>
      </trkpt>
      <trkpt lat="43.12095" lon="6.25695">
        <ele>4.4</ele>
        <time>2021-07-18T18:58:44Z</time>
      </trkpt>
      <trkpt lat="43.12095" lon="6.25693">
        <ele>4.4</ele>
        <time>2021-07-18T18:58:45Z</time>
      </trkpt>
      <trkpt lat="43.12094" lon="6.25692">
        <ele>4.4</ele>
        <time>2021-07-18T18:58:47Z</time>
      </trkpt>
      <trkpt lat="43.12094" lon="6.2569">
        <ele>4.4</ele>
        <time>2021-07-18T18:58:48Z</time>
      </trkpt>
      <trkpt lat="43.12095" lon="6.25689">
        <ele>4.4</ele>
        <time>2021-07-18T18:58:49Z</time>
      </trkpt>
      <trkpt lat="43.12095" lon="6.25687">
        <ele>4.4</ele>
        <time>2021-07-18T18:58:50Z</time>
      </trkpt>
      <trkpt lat="43.12095" lon="6.25686">
        <ele>4.4</ele>
        <time>2021-07-18T18:58:51Z</time>
      </trkpt>
      <trkpt lat="43.12095" lon="6.25685">
        <ele>4.5</ele>
        <time>2021-07-18T18:58:52Z</time>
      </trkpt>
      <trkpt lat="43.12096" lon="6.25683">
        <ele>4.5</ele>
        <time>2021-07-18T18:58:54Z</time>
      </trkpt>
      <trkpt lat="43.12096" lon="6.2568">
        <ele>4.5</ele>
        <time>2021-07-18T18:58:55Z</time>
      </trkpt>
      <trkpt lat="43.12097" lon="6.25678">
        <ele>4.5</ele>
        <time>2021-07-18T18:58:57Z</time>
      </trkpt>
      <trkpt lat="43.12098" lon="6.25677">
        <ele>4.5</ele>
        <time>2021-07-18T18:58:58Z</time>
      </trkpt>
      <trkpt lat="43.12098" lon="6.25676">
        <ele>4.5</ele>
        <time>2021-07-18T18:58:59Z</time>
      </trkpt>
      <trkpt lat="43.121" lon="6.25672">
        <ele>4.5</ele>
        <time>2021-07-18T18:59:00Z</time>
      </trkpt>
      <trkpt lat="43.121" lon="6.25671">
        <ele>4.5</ele>
        <time>2021-07-18T18:59:02Z</time>
      </trkpt>
      <trkpt lat="43.12101" lon="6.2567">
        <ele>4.5</ele>
        <time>2021-07-18T18:59:03Z</time>
      </trkpt>
      <trkpt lat="43.12101" lon="6.25668">
        <ele>4.6</ele>
        <time>2021-07-18T18:59:05Z</time>
      </trkpt>
      <trkpt lat="43.12102" lon="6.25667">
        <ele>4.6</ele>
        <time>2021-07-18T18:59:06Z</time>
      </trkpt>
      <trkpt lat="43.12102" lon="6.25665">
        <ele>4.6</ele>
        <time>2021-07-18T18:59:07Z</time>
      </trkpt>
      <trkpt lat="43.12102" lon="6.25664">
        <ele>4.6</ele>
        <time>2021-07-18T18:59:09Z</time>
      </trkpt>
      <trkpt lat="43.12103" lon="6.25663">
        <ele>4.6</ele>
        <time>2021-07-18T18:59:10Z</time>
      </trkpt>
      <trkpt lat="43.12103" lon="6.25662">
        <ele>4.6</ele>
        <time>2021-07-18T18:59:11Z</time>
      </trkpt>
      <trkpt lat="43.12104" lon="6.2566">
        <ele>4.6</ele>
        <time>2021-07-18T18:59:12Z</time>
      </trkpt>
      <trkpt lat="43.12104" lon="6.25658">
        <ele>4.6</ele>
        <time>2021-07-18T18:59:14Z</time>
      </trkpt>
      <trkpt lat="43.12104" lon="6.25656">
        <ele>4.6</ele>
        <time>2021-07-18T18:59:16Z</time>
      </trkpt>
      <trkpt lat="43.12104" lon="6.25654">
        <ele>4.7</ele>
        <time>2021-07-18T18:59:17Z</time>
      </trkpt>
      <trkpt lat="43.12105" lon="6.25652">
        <ele>4.7</ele>
        <time>2021-07-18T18:59:18Z</time>
      </trkpt>
      <trkpt lat="43.12106" lon="6.25649">
        <ele>4.7</ele>
        <time>2021-07-18T18:59:20Z</time>
      </trkpt>
      <trkpt lat="43.12106" lon="6.25648">
        <ele>4.7</ele>
        <time>2021-07-18T18:59:21Z</time>
      </trkpt>
      <trkpt lat="43.12107" lon="6.25646">
        <ele>4.7</ele>
        <time>2021-07-18T18:59:23Z</time>
      </trkpt>
      <trkpt lat="43.12108" lon="6.25644">
        <ele>4.7</ele>
        <time>2021-07-18T18:59:24Z</time>
      </trkpt>
      <trkpt lat="43.12109" lon="6.25643">
        <ele>4.7</ele>
        <time>2021-07-18T18:59:25Z</time>
      </trkpt>
      <trkpt lat="43.1211" lon="6.25641">
        <ele>4.7</ele>
        <time>2021-07-18T18:59:26Z</time>
      </trkpt>
      <trkpt lat="43.1211" lon="6.2564">
        <ele>4.7</ele>
        <time>2021-07-18T18:59:27Z</time>
      </trkpt>
      <trkpt lat="43.12111" lon="6.25639">
        <ele>4.8</ele>
        <time>2021-07-18T18:59:29Z</time>
      </trkpt>
      <trkpt lat="43.12112" lon="6.25637">
        <ele>4.8</ele>
        <time>2021-07-18T18:59:30Z</time>
      </trkpt>
      <trkpt lat="43.12113" lon="6.25636">
        <ele>4.8</ele>
        <time>2021-07-18T18:59:31Z</time>
      </trkpt>
      <trkpt lat="43.12114" lon="6.25634">
        <ele>4.8</ele>
        <time>2021-07-18T18:59:32Z</time>
      </trkpt>
      <trkpt lat="43.12115" lon="6.25633">
        <ele>4.8</ele>
        <time>2021-07-18T18:59:33Z</time>
      </trkpt>
      <trkpt lat="43.12116" lon="6.25631">
        <ele>4.8</ele>
        <time>2021-07-18T18:59:35Z</time>
      </trkpt>
      <trkpt lat="43.12117" lon="6.25629">
        <ele>4.8</ele>
        <time>2021-07-18T18:59:36Z</time>
      </trkpt>
      <trkpt lat="43.12118" lon="6.25627">
        <ele>4.8</ele>
        <time>2021-07-18T18:59:38Z</time>
      </trkpt>
      <trkpt lat="43.12119" lon="6.25625">
        <ele>4.8</ele>
        <time>2021-07-18T18:59:40Z</time>
      </trkpt>
      <trkpt lat="43.12119" lon="6.25624">
        <ele>4.8</ele>
        <time>2021-07-18T18:59:41Z</time>
      </trkpt>
      <trkpt lat="43.12119" lon="6.25623">
        <ele>4.8</ele>
        <time>2021-07-18T18:59:42Z</time>
      </trkpt>
      <trkpt lat="43.1212" lon="6.2562">
        <ele>4.9</ele>
        <time>2021-07-18T18:59:44Z</time>
      </trkpt>
      <trkpt lat="43.1212" lon="6.25619">
        <ele>4.9</ele>
        <time>2021-07-18T18:59:46Z</time>
      </trkpt>
      <trkpt lat="43.12121" lon="6.25616">
        <ele>4.9</ele>
        <time>2021-07-18T18:59:47Z</time>
      </trkpt>
      <trkpt lat="43.12122" lon="6.25614">
        <ele>4.9</ele>
        <time>2021-07-18T18:59:48Z</time>
      </trkpt>
      <trkpt lat="43.12123" lon="6.25613">
        <ele>4.9</ele>
        <time>2021-07-18T18:59:50Z</time>
      </trkpt>
      <trkpt lat="43.12123" lon="6.25611">
        <ele>4.9</ele>
        <time>2021-07-18T18:59:51Z</time>
      </trkpt>
      <trkpt lat="43.12124" lon="6.2561">
        <ele>4.9</ele>
        <time>2021-07-18T18:59:53Z</time>
      </trkpt>
      <trkpt lat="43.12125" lon="6.25609">
        <ele>4.9</ele>
        <time>2021-07-18T18:59:54Z</time>
      </trkpt>
      <trkpt lat="43.12125" lon="6.25607">
        <ele>4.9</ele>
        <time>2021-07-18T18:59:55Z</time>
      </trkpt>
      <trkpt lat="43.12126" lon="6.25606">
        <ele>4.9</ele>
        <time>2021-07-18T18:59:56Z</time>
      </trkpt>
      <trkpt lat="43.12126" lon="6.25605">
        <ele>4.9</ele>
        <time>2021-07-18T18:59:57Z</time>
      </trkpt>
      <trkpt lat="43.12126" lon="6.25603">
        <ele>4.9</ele>
        <time>2021-07-18T18:59:58Z</time>
      </trkpt>
      <trkpt lat="43.12127" lon="6.25602">
        <ele>4.9</ele>
        <time>2021-07-18T19:00:00Z</time>
      </trkpt>
      <trkpt lat="43.12127" lon="6.256">
        <ele>4.9</ele>
        <time>2021-07-18T19:00:01Z</time>
      </trkpt>
      <trkpt lat="43.12127" lon="6.25599">
        <ele>4.9</ele>
        <time>2021-07-18T19:00:02Z</time>
      </trkpt>
      <trkpt lat="43.12126" lon="6.25597">
        <ele>4.9</ele>
        <time>2021-07-18T19:00:03Z</time>
      </trkpt>
      <trkpt lat="43.12126" lon="6.25596">
        <ele>4.9</ele>
        <time>2021-07-18T19:00:05Z</time>
      </trkpt>
      <trkpt lat="43.12127" lon="6.25594">
        <ele>4.9</ele>
        <time>2021-07-18T19:00:06Z</time>
      </trkpt>
      <trkpt lat="43.12127" lon="6.25592">
        <ele>5</ele>
        <time>2021-07-18T19:00:08Z</time>
      </trkpt>
      <trkpt lat="43.12128" lon="6.2559">
        <ele>5</ele>
        <time>2021-07-18T19:00:10Z</time>
      </trkpt>
      <trkpt lat="43.12129" lon="6.25589">
        <ele>5</ele>
        <time>2021-07-18T19:00:11Z</time>
      </trkpt>
      <trkpt lat="43.1213" lon="6.25587">
        <ele>5</ele>
        <time>2021-07-18T19:00:13Z</time>
      </trkpt>
      <trkpt lat="43.12131" lon="6.25585">
        <ele>5</ele>
        <time>2021-07-18T19:00:15Z</time>
      </trkpt>
      <trkpt lat="43.12131" lon="6.25583">
        <ele>5</ele>
        <time>2021-07-18T19:00:16Z</time>
      </trkpt>
      <trkpt lat="43.12132" lon="6.25582">
        <ele>5</ele>
        <time>2021-07-18T19:00:18Z</time>
      </trkpt>
      <trkpt lat="43.12133" lon="6.25581">
        <ele>5</ele>
        <time>2021-07-18T19:00:19Z</time>
      </trkpt>
      <trkpt lat="43.12134" lon="6.25579">
        <ele>5</ele>
        <time>2021-07-18T19:00:20Z</time>
      </trkpt>
      <trkpt lat="43.12135" lon="6.25578">
        <ele>5</ele>
        <time>2021-07-18T19:00:22Z</time>
      </trkpt>
      <trkpt lat="43.12136" lon="6.25577">
        <ele>5</ele>
        <time>2021-07-18T19:00:23Z</time>
      </trkpt>
      <trkpt lat="43.12136" lon="6.25576">
        <ele>5</ele>
        <time>2021-07-18T19:00:24Z</time>
      </trkpt>
      <trkpt lat="43.12137" lon="6.25574">
        <ele>5</ele>
        <time>2021-07-18T19:00:25Z</time>
      </trkpt>
      <trkpt lat="43.12138" lon="6.25573">
        <ele>5</ele>
        <time>2021-07-18T19:00:26Z</time>
      </trkpt>
      <trkpt lat="43.12139" lon="6.25573">
        <ele>5</ele>
        <time>2021-07-18T19:00:27Z</time>
      </trkpt>
      <trkpt lat="43.12139" lon="6.25571">
        <ele>5</ele>
        <time>2021-07-18T19:00:28Z</time>
      </trkpt>
      <trkpt lat="43.1214" lon="6.25569">
        <ele>5</ele>
        <time>2021-07-18T19:00:30Z</time>
      </trkpt>
      <trkpt lat="43.12141" lon="6.25568">
        <ele>5</ele>
        <time>2021-07-18T19:00:31Z</time>
      </trkpt>
      <trkpt lat="43.12141" lon="6.25567">
        <ele>5</ele>
        <time>2021-07-18T19:00:33Z</time>
      </trkpt>
      <trkpt lat="43.12142" lon="6.25566">
        <ele>5</ele>
        <time>2021-07-18T19:00:34Z</time>
      </trkpt>
      <trkpt lat="43.12142" lon="6.25564">
        <ele>5</ele>
        <time>2021-07-18T19:00:35Z</time>
      </trkpt>
      <trkpt lat="43.12143" lon="6.25563">
        <ele>5</ele>
        <time>2021-07-18T19:00:36Z</time>
      </trkpt>
      <trkpt lat="43.12144" lon="6.25562">
        <ele>5</ele>
        <time>2021-07-18T19:00:37Z</time>
      </trkpt>
      <trkpt lat="43.12144" lon="6.25561">
        <ele>5</ele>
        <time>2021-07-18T19:00:38Z</time>
      </trkpt>
      <trkpt lat="43.12144" lon="6.25559">
        <ele>5</ele>
        <time>2021-07-18T19:00:40Z</time>
      </trkpt>
      <trkpt lat="43.12144" lon="6.25558">
        <ele>5</ele>
        <time>2021-07-18T19:00:41Z</time>
      </trkpt>
      <trkpt lat="43.12143" lon="6.25555">
        <ele>5.1</ele>
        <time>2021-07-18T19:00:42Z</time>
      </trkpt>
      <trkpt lat="43.12143" lon="6.25554">
        <ele>5.1</ele>
        <time>2021-07-18T19:00:43Z</time>
      </trkpt>
      <trkpt lat="43.12142" lon="6.25553">
        <ele>5.1</ele>
        <time>2021-07-18T19:00:44Z</time>
      </trkpt>
      <trkpt lat="43.1214" lon="6.25552">
        <ele>5.1</ele>
        <time>2021-07-18T19:00:46Z</time>
      </trkpt>
      <trkpt lat="43.1214" lon="6.25551">
        <ele>5.1</ele>
        <time>2021-07-18T19:00:47Z</time>
      </trkpt>
      <trkpt lat="43.12139" lon="6.25551">
        <ele>5.1</ele>
        <time>2021-07-18T19:00:48Z</time>
      </trkpt>
      <trkpt lat="43.12138" lon="6.2555">
        <ele>5.1</ele>
        <time>2021-07-18T19:00:49Z</time>
      </trkpt>
      <trkpt lat="43.12137" lon="6.25549">
        <ele>5.1</ele>
        <time>2021-07-18T19:00:51Z</time>
      </trkpt>
      <trkpt lat="43.12136" lon="6.25548">
        <ele>5.1</ele>
        <time>2021-07-18T19:00:53Z</time>
      </trkpt>
      <trkpt lat="43.12136" lon="6.25547">
        <ele>5.1</ele>
        <time>2021-07-18T19:00:54Z</time>
      </trkpt>
      <trkpt lat="43.12136" lon="6.25546">
        <ele>5.1</ele>
        <time>2021-07-18T19:00:55Z</time>
      </trkpt>
      <trkpt lat="43.12137" lon="6.25546">
        <ele>5.1</ele>
        <time>2021-07-18T19:00:57Z</time>
      </trkpt>
      <trkpt lat="43.12138" lon="6.25546">
        <ele>5.1</ele>
        <time>2021-07-18T19:00:58Z</time>
      </trkpt>
      <trkpt lat="43.12139" lon="6.25545">
        <ele>5.1</ele>
        <time>2021-07-18T19:01:00Z</time>
      </trkpt>
      <trkpt lat="43.1214" lon="6.25545">
        <ele>5.1</ele>
        <time>2021-07-18T19:01:01Z</time>
      </trkpt>
      <trkpt lat="43.12141" lon="6.25545">
        <ele>5.1</ele>
        <time>2021-07-18T19:01:03Z</time>
      </trkpt>
      <trkpt lat="43.12142" lon="6.25544">
        <ele>5.1</ele>
        <time>2021-07-18T19:01:04Z</time>
      </trkpt>
      <trkpt lat="43.12142" lon="6.25543">
        <ele>5.1</ele>
        <time>2021-07-18T19:01:05Z</time>
      </trkpt>
      <trkpt lat="43.12143" lon="6.25541">
        <ele>5.1</ele>
        <time>2021-07-18T19:01:06Z</time>
      </trkpt>
      <trkpt lat="43.12144" lon="6.2554">
        <ele>5.1</ele>
        <time>2021-07-18T19:01:08Z</time>
      </trkpt>
      <trkpt lat="43.12145" lon="6.25537">
        <ele>5.1</ele>
        <time>2021-07-18T19:01:10Z</time>
      </trkpt>
      <trkpt lat="43.12145" lon="6.25535">
        <ele>5.1</ele>
        <time>2021-07-18T19:01:11Z</time>
      </trkpt>
      <trkpt lat="43.12146" lon="6.25533">
        <ele>5.1</ele>
        <time>2021-07-18T19:01:12Z</time>
      </trkpt>
      <trkpt lat="43.12146" lon="6.25531">
        <ele>5.1</ele>
        <time>2021-07-18T19:01:13Z</time>
      </trkpt>
      <trkpt lat="43.12146" lon="6.25529">
        <ele>5.1</ele>
        <time>2021-07-18T19:01:14Z</time>
      </trkpt>
      <trkpt lat="43.12146" lon="6.25527">
        <ele>5.1</ele>
        <time>2021-07-18T19:01:16Z</time>
      </trkpt>
      <trkpt lat="43.12145" lon="6.25524">
        <ele>5.1</ele>
        <time>2021-07-18T19:01:17Z</time>
      </trkpt>
      <trkpt lat="43.12144" lon="6.25523">
        <ele>5.1</ele>
        <time>2021-07-18T19:01:18Z</time>
      </trkpt>
      <trkpt lat="43.12143" lon="6.25522">
        <ele>5.1</ele>
        <time>2021-07-18T19:01:20Z</time>
      </trkpt>
      <trkpt lat="43.12141" lon="6.25521">
        <ele>5.1</ele>
        <time>2021-07-18T19:01:21Z</time>
      </trkpt>
      <trkpt lat="43.1214" lon="6.25522">
        <ele>5.1</ele>
        <time>2021-07-18T19:01:23Z</time>
      </trkpt>
      <trkpt lat="43.1214" lon="6.25523">
        <ele>5.1</ele>
        <time>2021-07-18T19:01:25Z</time>
      </trkpt>
      <trkpt lat="43.12139" lon="6.25523">
        <ele>5.1</ele>
        <time>2021-07-18T19:01:27Z</time>
      </trkpt>
      <trkpt lat="43.12139" lon="6.25523">
        <ele>5.1</ele>
        <time>2021-07-18T19:01:29Z</time>
      </trkpt>
      <trkpt lat="43.12139" lon="6.25523">
        <ele>5.1</ele>
        <time>2021-07-18T19:01:30Z</time>
      </trkpt>
      <trkpt lat="43.12139" lon="6.25523">
        <ele>5.1</ele>
        <time>2021-07-18T19:01:32Z</time>
      </trkpt>
      <trkpt lat="43.12139" lon="6.25523">
        <ele>5.1</ele>
        <time>2021-07-18T19:01:33Z</time>
      </trkpt>
      <trkpt lat="43.1214" lon="6.25523">
        <ele>5.1</ele>
        <time>2021-07-18T19:01:35Z</time>
      </trkpt>
      <trkpt lat="43.1214" lon="6.25523">
        <ele>5.1</ele>
        <time>2021-07-18T19:01:36Z</time>
      </trkpt>
      <trkpt lat="43.1214" lon="6.25523">
        <ele>5.1</ele>
        <time>2021-07-18T19:01:37Z</time>
      </trkpt>
      <trkpt lat="43.12141" lon="6.25523">
        <ele>5.1</ele>
        <time>2021-07-18T19:01:39Z</time>
      </trkpt>
      <trkpt lat="43.12141" lon="6.25524">
        <ele>5.1</ele>
        <time>2021-07-18T19:01:41Z</time>
      </trkpt>
      <trkpt lat="43.12141" lon="6.25524">
        <ele>5.1</ele>
        <time>2021-07-18T19:01:42Z</time>
      </trkpt>
      <trkpt lat="43.12142" lon="6.25524">
        <ele>5.1</ele>
        <time>2021-07-18T19:01:44Z</time>
      </trkpt>
      <trkpt lat="43.12142" lon="6.25524">
        <ele>5.1</ele>
        <time>2021-07-18T19:01:46Z</time>
      </trkpt>
      <trkpt lat="43.12142" lon="6.25524">
        <ele>5.1</ele>
        <time>2021-07-18T19:01:47Z</time>
      </trkpt>
      <trkpt lat="43.12143" lon="6.25524">
        <ele>5.1</ele>
        <time>2021-07-18T19:01:48Z</time>
      </trkpt>
      <trkpt lat="43.12143" lon="6.25524">
        <ele>5.1</ele>
        <time>2021-07-18T19:01:50Z</time>
      </trkpt>
      <trkpt lat="43.12143" lon="6.25524">
        <ele>5.1</ele>
        <time>2021-07-18T19:01:51Z</time>
      </trkpt>
      <trkpt lat="43.12144" lon="6.25524">
        <ele>5.1</ele>
        <time>2021-07-18T19:01:53Z</time>
      </trkpt>
      <trkpt lat="43.12144" lon="6.25525">
        <ele>5.1</ele>
        <time>2021-07-18T19:01:54Z</time>
      </trkpt>
      <trkpt lat="43.12144" lon="6.25525">
        <ele>5.1</ele>
        <time>2021-07-18T19:01:56Z</time>
      </trkpt>
      <trkpt lat="43.12145" lon="6.25525">
        <ele>5.1</ele>
        <time>2021-07-18T19:01:57Z</time>
      </trkpt>
      <trkpt lat="43.12145" lon="6.25525">
        <ele>5.1</ele>
        <time>2021-07-18T19:01:58Z</time>
      </trkpt>
      <trkpt lat="43.12145" lon="6.25525">
        <ele>5.1</ele>
        <time>2021-07-18T19:01:59Z</time>
      </trkpt>
      <trkpt lat="43.12146" lon="6.25525">
        <ele>5.1</ele>
        <time>2021-07-18T19:02:01Z</time>
      </trkpt>
      <trkpt lat="43.12146" lon="6.25525">
        <ele>5.1</ele>
        <time>2021-07-18T19:02:02Z</time>
      </trkpt>
      <trkpt lat="43.12146" lon="6.25525">
        <ele>5.2</ele>
        <time>2021-07-18T19:02:03Z</time>
      </trkpt>
      <trkpt lat="43.12147" lon="6.25525">
        <ele>5.2</ele>
        <time>2021-07-18T19:02:04Z</time>
      </trkpt>
      <trkpt lat="43.12147" lon="6.25525">
        <ele>5.2</ele>
        <time>2021-07-18T19:02:06Z</time>
      </trkpt>
      <trkpt lat="43.12147" lon="6.25524">
        <ele>5.2</ele>
        <time>2021-07-18T19:02:07Z</time>
      </trkpt>
      <trkpt lat="43.12147" lon="6.25524">
        <ele>5.2</ele>
        <time>2021-07-18T19:02:09Z</time>
      </trkpt>
      <trkpt lat="43.12147" lon="6.25524">
        <ele>5.2</ele>
        <time>2021-07-18T19:02:11Z</time>
      </trkpt>
      <trkpt lat="43.12147" lon="6.25524">
        <ele>5.2</ele>
        <time>2021-07-18T19:02:12Z</time>
      </trkpt>
      <trkpt lat="43.12147" lon="6.25524">
        <ele>5.2</ele>
        <time>2021-07-18T19:02:14Z</time>
      </trkpt>
      <trkpt lat="43.12147" lon="6.25524">
        <ele>5.2</ele>
        <time>2021-07-18T19:02:16Z</time>
      </trkpt>
      <trkpt lat="43.12147" lon="6.25524">
        <ele>5.2</ele>
        <time>2021-07-18T19:02:17Z</time>
      </trkpt>
      <trkpt lat="43.12147" lon="6.25524">
        <ele>5.2</ele>
        <time>2021-07-18T19:02:18Z</time>
      </trkpt>
      <trkpt lat="43.12147" lon="6.25524">
        <ele>5.2</ele>
        <time>2021-07-18T19:02:20Z</time>
      </trkpt>
      <trkpt lat="43.12145" lon="6.25524">
        <ele>5.2</ele>
        <time>2021-07-18T19:02:21Z</time>
      </trkpt>
      <trkpt lat="43.12145" lon="6.25524">
        <ele>5.2</ele>
        <time>2021-07-18T19:02:23Z</time>
      </trkpt>
      <trkpt lat="43.12145" lon="6.25524">
        <ele>5.2</ele>
        <time>2021-07-18T19:02:24Z</time>
      </trkpt>
      <trkpt lat="43.12146" lon="6.25523">
        <ele>5.2</ele>
        <time>2021-07-18T19:02:26Z</time>
      </trkpt>
      <trkpt lat="43.12147" lon="6.25522">
        <ele>5.2</ele>
        <time>2021-07-18T19:02:27Z</time>
      </trkpt>
      <trkpt lat="43.12148" lon="6.25521">
        <ele>5.2</ele>
        <time>2021-07-18T19:02:28Z</time>
      </trkpt>
      <trkpt lat="43.12148" lon="6.2552">
        <ele>5.2</ele>
        <time>2021-07-18T19:02:29Z</time>
      </trkpt>
      <trkpt lat="43.12149" lon="6.25519">
        <ele>5.2</ele>
        <time>2021-07-18T19:02:31Z</time>
      </trkpt>
      <trkpt lat="43.1215" lon="6.25519">
        <ele>5.2</ele>
        <time>2021-07-18T19:02:32Z</time>
      </trkpt>
      <trkpt lat="43.1215" lon="6.25518">
        <ele>5.2</ele>
        <time>2021-07-18T19:02:33Z</time>
      </trkpt>
      <trkpt lat="43.12151" lon="6.25515">
        <ele>5.2</ele>
        <time>2021-07-18T19:02:35Z</time>
      </trkpt>
      <trkpt lat="43.12151" lon="6.25514">
        <ele>5.2</ele>
        <time>2021-07-18T19:02:36Z</time>
      </trkpt>
      <trkpt lat="43.12151" lon="6.25512">
        <ele>5.2</ele>
        <time>2021-07-18T19:02:37Z</time>
      </trkpt>
      <trkpt lat="43.12151" lon="6.2551">
        <ele>5.2</ele>
        <time>2021-07-18T19:02:39Z</time>
      </trkpt>
      <trkpt lat="43.1215" lon="6.25509">
        <ele>5.2</ele>
        <time>2021-07-18T19:02:40Z</time>
      </trkpt>
      <trkpt lat="43.1215" lon="6.25507">
        <ele>5.2</ele>
        <time>2021-07-18T19:02:42Z</time>
      </trkpt>
      <trkpt lat="43.12149" lon="6.25506">
        <ele>5.2</ele>
        <time>2021-07-18T19:02:43Z</time>
      </trkpt>
      <trkpt lat="43.12149" lon="6.25504">
        <ele>5.2</ele>
        <time>2021-07-18T19:02:45Z</time>
      </trkpt>
      <trkpt lat="43.12148" lon="6.25503">
        <ele>5.2</ele>
        <time>2021-07-18T19:02:46Z</time>
      </trkpt>
      <trkpt lat="43.12149" lon="6.25502">
        <ele>5.2</ele>
        <time>2021-07-18T19:02:47Z</time>
      </trkpt>
      <trkpt lat="43.12149" lon="6.255">
        <ele>5.2</ele>
        <time>2021-07-18T19:02:48Z</time>
      </trkpt>
      <trkpt lat="43.12149" lon="6.25498">
        <ele>5.2</ele>
        <time>2021-07-18T19:02:50Z</time>
      </trkpt>
      <trkpt lat="43.12149" lon="6.25496">
        <ele>5.2</ele>
        <time>2021-07-18T19:02:52Z</time>
      </trkpt>
      <trkpt lat="43.12148" lon="6.25495">
        <ele>5.2</ele>
        <time>2021-07-18T19:02:53Z</time>
      </trkpt>
      <trkpt lat="43.12148" lon="6.25494">
        <ele>5.2</ele>
        <time>2021-07-18T19:02:54Z</time>
      </trkpt>
      <trkpt lat="43.12147" lon="6.25493">
        <ele>5.2</ele>
        <time>2021-07-18T19:02:56Z</time>
      </trkpt>
      <trkpt lat="43.12147" lon="6.25493">
        <ele>5.2</ele>
        <time>2021-07-18T19:02:57Z</time>
      </trkpt>
      <trkpt lat="43.12146" lon="6.25493">
        <ele>5.2</ele>
        <time>2021-07-18T19:02:59Z</time>
      </trkpt>
      <trkpt lat="43.12145" lon="6.25493">
        <ele>5.2</ele>
        <time>2021-07-18T19:03:00Z</time>
      </trkpt>
      <trkpt lat="43.12146" lon="6.25494">
        <ele>5.2</ele>
        <time>2021-07-18T19:03:01Z</time>
      </trkpt>
      <trkpt lat="43.12146" lon="6.25494">
        <ele>5.2</ele>
        <time>2021-07-18T19:03:02Z</time>
      </trkpt>
      <trkpt lat="43.12146" lon="6.25494">
        <ele>5.2</ele>
        <time>2021-07-18T19:03:03Z</time>
      </trkpt>
      <trkpt lat="43.12146" lon="6.25493">
        <ele>5.2</ele>
        <time>2021-07-18T19:03:05Z</time>
      </trkpt>
      <trkpt lat="43.12146" lon="6.25493">
        <ele>5.2</ele>
        <time>2021-07-18T19:03:06Z</time>
      </trkpt>
      <trkpt lat="43.12146" lon="6.25493">
        <ele>5.2</ele>
        <time>2021-07-18T19:03:08Z</time>
      </trkpt>
      <trkpt lat="43.12146" lon="6.25493">
        <ele>5.2</ele>
        <time>2021-07-18T19:03:10Z</time>
      </trkpt>
      <trkpt lat="43.12146" lon="6.25493">
        <ele>5.2</ele>
        <time>2021-07-18T19:03:11Z</time>
      </trkpt>
      <trkpt lat="43.12146" lon="6.25493">
        <ele>5.2</ele>
        <time>2021-07-18T19:03:12Z</time>
      </trkpt>
      <trkpt lat="43.12147" lon="6.25494">
        <ele>5.2</ele>
        <time>2021-07-18T19:03:14Z</time>
      </trkpt>
      <trkpt lat="43.12147" lon="6.25495">
        <ele>5.2</ele>
        <time>2021-07-18T19:03:16Z</time>
      </trkpt>
      <trkpt lat="43.12147" lon="6.25496">
        <ele>5.2</ele>
        <time>2021-07-18T19:03:17Z</time>
      </trkpt>
      <trkpt lat="43.12147" lon="6.25497">
        <ele>5.2</ele>
        <time>2021-07-18T19:03:18Z</time>
      </trkpt>
      <trkpt lat="43.12147" lon="6.25498">
        <ele>5.2</ele>
        <time>2021-07-18T19:03:19Z</time>
      </trkpt>
      <trkpt lat="43.12149" lon="6.25501">
        <ele>5.2</ele>
        <time>2021-07-18T19:03:21Z</time>
      </trkpt>
      <trkpt lat="43.1215" lon="6.25502">
        <ele>5.2</ele>
        <time>2021-07-18T19:03:23Z</time>
      </trkpt>
      <trkpt lat="43.12151" lon="6.25502">
        <ele>5.2</ele>
        <time>2021-07-18T19:03:24Z</time>
      </trkpt>
      <trkpt lat="43.12152" lon="6.25503">
        <ele>5.2</ele>
        <time>2021-07-18T19:03:25Z</time>
      </trkpt>
      <trkpt lat="43.12153" lon="6.25504">
        <ele>5.2</ele>
        <time>2021-07-18T19:03:26Z</time>
      </trkpt>
      <trkpt lat="43.12155" lon="6.25505">
        <ele>5.2</ele>
        <time>2021-07-18T19:03:28Z</time>
      </trkpt>
      <trkpt lat="43.12156" lon="6.25505">
        <ele>5.2</ele>
        <time>2021-07-18T19:03:29Z</time>
      </trkpt>
      <trkpt lat="43.12157" lon="6.25505">
        <ele>5.2</ele>
        <time>2021-07-18T19:03:30Z</time>
      </trkpt>
      <trkpt lat="43.12158" lon="6.25506">
        <ele>5.2</ele>
        <time>2021-07-18T19:03:31Z</time>
      </trkpt>
      <trkpt lat="43.12159" lon="6.25506">
        <ele>5.3</ele>
        <time>2021-07-18T19:03:32Z</time>
      </trkpt>
      <trkpt lat="43.1216" lon="6.25507">
        <ele>5.3</ele>
        <time>2021-07-18T19:03:34Z</time>
      </trkpt>
      <trkpt lat="43.12162" lon="6.25507">
        <ele>5.3</ele>
        <time>2021-07-18T19:03:35Z</time>
      </trkpt>
      <trkpt lat="43.12163" lon="6.25508">
        <ele>5.3</ele>
        <time>2021-07-18T19:03:36Z</time>
      </trkpt>
      <trkpt lat="43.12164" lon="6.25508">
        <ele>5.3</ele>
        <time>2021-07-18T19:03:37Z</time>
      </trkpt>
      <trkpt lat="43.12166" lon="6.25509">
        <ele>5.3</ele>
        <time>2021-07-18T19:03:38Z</time>
      </trkpt>
      <trkpt lat="43.12167" lon="6.25509">
        <ele>5.3</ele>
        <time>2021-07-18T19:03:40Z</time>
      </trkpt>
      <trkpt lat="43.12167" lon="6.2551">
        <ele>5.3</ele>
        <time>2021-07-18T19:03:41Z</time>
      </trkpt>
      <trkpt lat="43.12169" lon="6.2551">
        <ele>5.3</ele>
        <time>2021-07-18T19:03:42Z</time>
      </trkpt>
      <trkpt lat="43.1217" lon="6.2551">
        <ele>5.3</ele>
        <time>2021-07-18T19:03:43Z</time>
      </trkpt>
      <trkpt lat="43.12171" lon="6.2551">
        <ele>5.3</ele>
        <time>2021-07-18T19:03:44Z</time>
      </trkpt>
      <trkpt lat="43.12172" lon="6.25509">
        <ele>5.3</ele>
        <time>2021-07-18T19:03:46Z</time>
      </trkpt>
      <trkpt lat="43.12174" lon="6.25509">
        <ele>5.3</ele>
        <time>2021-07-18T19:03:47Z</time>
      </trkpt>
      <trkpt lat="43.12176" lon="6.25508">
        <ele>5.3</ele>
        <time>2021-07-18T19:03:48Z</time>
      </trkpt>
      <trkpt lat="43.12177" lon="6.25508">
        <ele>5.3</ele>
        <time>2021-07-18T19:03:49Z</time>
      </trkpt>
      <trkpt lat="43.12178" lon="6.25508">
        <ele>5.3</ele>
        <time>2021-07-18T19:03:51Z</time>
      </trkpt>
      <trkpt lat="43.12179" lon="6.25508">
        <ele>5.3</ele>
        <time>2021-07-18T19:03:53Z</time>
      </trkpt>
      <trkpt lat="43.12181" lon="6.25508">
        <ele>5.3</ele>
        <time>2021-07-18T19:03:54Z</time>
      </trkpt>
      <trkpt lat="43.12182" lon="6.25508">
        <ele>5.3</ele>
        <time>2021-07-18T19:03:56Z</time>
      </trkpt>
      <trkpt lat="43.12184" lon="6.25507">
        <ele>5.3</ele>
        <time>2021-07-18T19:03:57Z</time>
      </trkpt>
      <trkpt lat="43.12186" lon="6.25507">
        <ele>5.3</ele>
        <time>2021-07-18T19:03:59Z</time>
      </trkpt>
      <trkpt lat="43.12187" lon="6.25507">
        <ele>5.3</ele>
        <time>2021-07-18T19:04:00Z</time>
      </trkpt>
      <trkpt lat="43.12189" lon="6.25507">
        <ele>5.3</ele>
        <time>2021-07-18T19:04:02Z</time>
      </trkpt>
      <trkpt lat="43.1219" lon="6.25506">
        <ele>5.3</ele>
        <time>2021-07-18T19:04:04Z</time>
      </trkpt>
      <trkpt lat="43.12192" lon="6.25506">
        <ele>5.3</ele>
        <time>2021-07-18T19:04:05Z</time>
      </trkpt>
      <trkpt lat="43.12193" lon="6.25506">
        <ele>5.3</ele>
        <time>2021-07-18T19:04:06Z</time>
      </trkpt>
      <trkpt lat="43.12194" lon="6.25506">
        <ele>5.3</ele>
        <time>2021-07-18T19:04:07Z</time>
      </trkpt>
      <trkpt lat="43.12195" lon="6.25505">
        <ele>5.3</ele>
        <time>2021-07-18T19:04:08Z</time>
      </trkpt>
      <trkpt lat="43.12196" lon="6.25505">
        <ele>5.3</ele>
        <time>2021-07-18T19:04:10Z</time>
      </trkpt>
      <trkpt lat="43.12198" lon="6.25505">
        <ele>5.4</ele>
        <time>2021-07-18T19:04:11Z</time>
      </trkpt>
      <trkpt lat="43.12199" lon="6.25506">
        <ele>5.4</ele>
        <time>2021-07-18T19:04:12Z</time>
      </trkpt>
      <trkpt lat="43.12201" lon="6.25507">
        <ele>5.4</ele>
        <time>2021-07-18T19:04:14Z</time>
      </trkpt>
      <trkpt lat="43.12202" lon="6.25507">
        <ele>5.4</ele>
        <time>2021-07-18T19:04:15Z</time>
      </trkpt>
      <trkpt lat="43.12203" lon="6.25508">
        <ele>5.4</ele>
        <time>2021-07-18T19:04:17Z</time>
      </trkpt>
      <trkpt lat="43.12204" lon="6.25508">
        <ele>5.4</ele>
        <time>2021-07-18T19:04:18Z</time>
      </trkpt>
      <trkpt lat="43.12205" lon="6.25508">
        <ele>5.4</ele>
        <time>2021-07-18T19:04:20Z</time>
      </trkpt>
      <trkpt lat="43.12206" lon="6.25508">
        <ele>5.4</ele>
        <time>2021-07-18T19:04:21Z</time>
      </trkpt>
      <trkpt lat="43.12207" lon="6.25508">
        <ele>5.4</ele>
        <time>2021-07-18T19:04:23Z</time>
      </trkpt>
      <trkpt lat="43.12208" lon="6.25508">
        <ele>5.4</ele>
        <time>2021-07-18T19:04:24Z</time>
      </trkpt>
      <trkpt lat="43.12209" lon="6.25508">
        <ele>5.4</ele>
        <time>2021-07-18T19:04:25Z</time>
      </trkpt>
      <trkpt lat="43.1221" lon="6.25508">
        <ele>5.4</ele>
        <time>2021-07-18T19:04:26Z</time>
      </trkpt>
      <trkpt lat="43.12212" lon="6.25508">
        <ele>5.4</ele>
        <time>2021-07-18T19:04:28Z</time>
      </trkpt>
      <trkpt lat="43.12213" lon="6.25508">
        <ele>5.4</ele>
        <time>2021-07-18T19:04:29Z</time>
      </trkpt>
      <trkpt lat="43.12215" lon="6.25507">
        <ele>5.4</ele>
        <time>2021-07-18T19:04:30Z</time>
      </trkpt>
      <trkpt lat="43.12217" lon="6.25507">
        <ele>5.4</ele>
        <time>2021-07-18T19:04:32Z</time>
      </trkpt>
      <trkpt lat="43.12218" lon="6.25506">
        <ele>5.4</ele>
        <time>2021-07-18T19:04:33Z</time>
      </trkpt>
      <trkpt lat="43.12219" lon="6.25505">
        <ele>5.4</ele>
        <time>2021-07-18T19:04:34Z</time>
      </trkpt>
      <trkpt lat="43.1222" lon="6.25504">
        <ele>5.4</ele>
        <time>2021-07-18T19:04:36Z</time>
      </trkpt>
      <trkpt lat="43.12222" lon="6.25503">
        <ele>5.4</ele>
        <time>2021-07-18T19:04:37Z</time>
      </trkpt>
      <trkpt lat="43.12223" lon="6.25502">
        <ele>5.4</ele>
        <time>2021-07-18T19:04:38Z</time>
      </trkpt>
      <trkpt lat="43.12225" lon="6.25501">
        <ele>5.4</ele>
        <time>2021-07-18T19:04:39Z</time>
      </trkpt>
      <trkpt lat="43.12226" lon="6.25501">
        <ele>5.4</ele>
        <time>2021-07-18T19:04:40Z</time>
      </trkpt>
      <trkpt lat="43.12226" lon="6.255">
        <ele>5.4</ele>
        <time>2021-07-18T19:04:41Z</time>
      </trkpt>
      <trkpt lat="43.12227" lon="6.255">
        <ele>5.4</ele>
        <time>2021-07-18T19:04:42Z</time>
      </trkpt>
      <trkpt lat="43.12228" lon="6.25499">
        <ele>5.4</ele>
        <time>2021-07-18T19:04:44Z</time>
      </trkpt>
      <trkpt lat="43.12229" lon="6.25498">
        <ele>5.4</ele>
        <time>2021-07-18T19:04:45Z</time>
      </trkpt>
      <trkpt lat="43.1223" lon="6.25498">
        <ele>5.4</ele>
        <time>2021-07-18T19:04:46Z</time>
      </trkpt>
      <trkpt lat="43.12232" lon="6.25498">
        <ele>5.4</ele>
        <time>2021-07-18T19:04:47Z</time>
      </trkpt>
      <trkpt lat="43.12233" lon="6.25498">
        <ele>5.4</ele>
        <time>2021-07-18T19:04:48Z</time>
      </trkpt>
      <trkpt lat="43.12235" lon="6.25498">
        <ele>5.4</ele>
        <time>2021-07-18T19:04:50Z</time>
      </trkpt>
      <trkpt lat="43.12236" lon="6.25498">
        <ele>5.4</ele>
        <time>2021-07-18T19:04:51Z</time>
      </trkpt>
      <trkpt lat="43.12238" lon="6.25498">
        <ele>5.4</ele>
        <time>2021-07-18T19:04:52Z</time>
      </trkpt>
      <trkpt lat="43.1224" lon="6.25499">
        <ele>5.4</ele>
        <time>2021-07-18T19:04:54Z</time>
      </trkpt>
      <trkpt lat="43.12242" lon="6.25498">
        <ele>5.4</ele>
        <time>2021-07-18T19:04:55Z</time>
      </trkpt>
      <trkpt lat="43.12243" lon="6.25498">
        <ele>5.4</ele>
        <time>2021-07-18T19:04:56Z</time>
      </trkpt>
      <trkpt lat="43.12244" lon="6.25498">
        <ele>5.4</ele>
        <time>2021-07-18T19:04:57Z</time>
      </trkpt>
      <trkpt lat="43.12246" lon="6.25498">
        <ele>5.5</ele>
        <time>2021-07-18T19:04:59Z</time>
      </trkpt>
      <trkpt lat="43.12248" lon="6.25498">
        <ele>5.5</ele>
        <time>2021-07-18T19:05:00Z</time>
      </trkpt>
      <trkpt lat="43.1225" lon="6.25497">
        <ele>5.5</ele>
        <time>2021-07-18T19:05:01Z</time>
      </trkpt>
      <trkpt lat="43.12251" lon="6.25498">
        <ele>5.5</ele>
        <time>2021-07-18T19:05:02Z</time>
      </trkpt>
      <trkpt lat="43.12251" lon="6.25498">
        <ele>5.5</ele>
        <time>2021-07-18T19:05:03Z</time>
      </trkpt>
      <trkpt lat="43.12253" lon="6.25499">
        <ele>5.5</ele>
        <time>2021-07-18T19:05:05Z</time>
      </trkpt>
      <trkpt lat="43.12255" lon="6.25499">
        <ele>5.5</ele>
        <time>2021-07-18T19:05:06Z</time>
      </trkpt>
      <trkpt lat="43.12257" lon="6.25498">
        <ele>5.5</ele>
        <time>2021-07-18T19:05:08Z</time>
      </trkpt>
      <trkpt lat="43.12258" lon="6.25497">
        <ele>5.5</ele>
        <time>2021-07-18T19:05:10Z</time>
      </trkpt>
      <trkpt lat="43.12259" lon="6.25497">
        <ele>5.5</ele>
        <time>2021-07-18T19:05:11Z</time>
      </trkpt>
      <trkpt lat="43.12261" lon="6.25496">
        <ele>5.6</ele>
        <time>2021-07-18T19:05:12Z</time>
      </trkpt>
      <trkpt lat="43.12263" lon="6.25496">
        <ele>5.6</ele>
        <time>2021-07-18T19:05:14Z</time>
      </trkpt>
      <trkpt lat="43.12264" lon="6.25496">
        <ele>5.6</ele>
        <time>2021-07-18T19:05:15Z</time>
      </trkpt>
      <trkpt lat="43.12264" lon="6.25496">
        <ele>5.6</ele>
        <time>2021-07-18T19:05:16Z</time>
      </trkpt>
      <trkpt lat="43.12265" lon="6.25496">
        <ele>5.6</ele>
        <time>2021-07-18T19:05:17Z</time>
      </trkpt>
      <trkpt lat="43.12267" lon="6.25496">
        <ele>5.6</ele>
        <time>2021-07-18T19:05:19Z</time>
      </trkpt>
      <trkpt lat="43.12268" lon="6.25496">
        <ele>5.6</ele>
        <time>2021-07-18T19:05:21Z</time>
      </trkpt>
      <trkpt lat="43.12269" lon="6.25496">
        <ele>5.6</ele>
        <time>2021-07-18T19:05:22Z</time>
      </trkpt>
      <trkpt lat="43.12271" lon="6.25496">
        <ele>5.6</ele>
        <time>2021-07-18T19:05:23Z</time>
      </trkpt>
      <trkpt lat="43.12272" lon="6.25496">
        <ele>5.6</ele>
        <time>2021-07-18T19:05:24Z</time>
      </trkpt>
      <trkpt lat="43.12274" lon="6.25496">
        <ele>5.6</ele>
        <time>2021-07-18T19:05:26Z</time>
      </trkpt>
      <trkpt lat="43.12275" lon="6.25496">
        <ele>5.7</ele>
        <time>2021-07-18T19:05:27Z</time>
      </trkpt>
      <trkpt lat="43.12277" lon="6.25495">
        <ele>5.7</ele>
        <time>2021-07-18T19:05:29Z</time>
      </trkpt>
      <trkpt lat="43.12278" lon="6.25495">
        <ele>5.7</ele>
        <time>2021-07-18T19:05:30Z</time>
      </trkpt>
      <trkpt lat="43.12279" lon="6.25495">
        <ele>5.7</ele>
        <time>2021-07-18T19:05:31Z</time>
      </trkpt>
      <trkpt lat="43.1228" lon="6.25495">
        <ele>5.7</ele>
        <time>2021-07-18T19:05:33Z</time>
      </trkpt>
      <trkpt lat="43.12282" lon="6.25495">
        <ele>5.7</ele>
        <time>2021-07-18T19:05:34Z</time>
      </trkpt>
      <trkpt lat="43.12283" lon="6.25495">
        <ele>5.7</ele>
        <time>2021-07-18T19:05:35Z</time>
      </trkpt>
      <trkpt lat="43.12287" lon="6.25495">
        <ele>5.7</ele>
        <time>2021-07-18T19:05:37Z</time>
      </trkpt>
      <trkpt lat="43.12287" lon="6.25495">
        <ele>5.7</ele>
        <time>2021-07-18T19:05:38Z</time>
      </trkpt>
      <trkpt lat="43.12289" lon="6.25494">
        <ele>5.7</ele>
        <time>2021-07-18T19:05:39Z</time>
      </trkpt>
      <trkpt lat="43.12291" lon="6.25494">
        <ele>5.7</ele>
        <time>2021-07-18T19:05:41Z</time>
      </trkpt>
      <trkpt lat="43.12292" lon="6.25494">
        <ele>5.7</ele>
        <time>2021-07-18T19:05:42Z</time>
      </trkpt>
      <trkpt lat="43.12293" lon="6.25494">
        <ele>5.8</ele>
        <time>2021-07-18T19:05:43Z</time>
      </trkpt>
      <trkpt lat="43.12294" lon="6.25494">
        <ele>5.8</ele>
        <time>2021-07-18T19:05:44Z</time>
      </trkpt>
      <trkpt lat="43.12295" lon="6.25494">
        <ele>5.8</ele>
        <time>2021-07-18T19:05:45Z</time>
      </trkpt>
      <trkpt lat="43.12296" lon="6.25493">
        <ele>5.8</ele>
        <time>2021-07-18T19:05:46Z</time>
      </trkpt>
      <trkpt lat="43.12297" lon="6.25493">
        <ele>5.8</ele>
        <time>2021-07-18T19:05:48Z</time>
      </trkpt>
      <trkpt lat="43.12298" lon="6.25493">
        <ele>5.8</ele>
        <time>2021-07-18T19:05:49Z</time>
      </trkpt>
      <trkpt lat="43.12299" lon="6.25493">
        <ele>5.8</ele>
        <time>2021-07-18T19:05:51Z</time>
      </trkpt>
      <trkpt lat="43.123" lon="6.25492">
        <ele>5.8</ele>
        <time>2021-07-18T19:05:52Z</time>
      </trkpt>
      <trkpt lat="43.123" lon="6.25492">
        <ele>5.8</ele>
        <time>2021-07-18T19:05:53Z</time>
      </trkpt>
      <trkpt lat="43.12301" lon="6.25491">
        <ele>5.8</ele>
        <time>2021-07-18T19:05:55Z</time>
      </trkpt>
      <trkpt lat="43.12301" lon="6.2549">
        <ele>5.8</ele>
        <time>2021-07-18T19:05:57Z</time>
      </trkpt>
      <trkpt lat="43.12301" lon="6.2549">
        <ele>5.8</ele>
        <time>2021-07-18T19:05:58Z</time>
      </trkpt>
      <trkpt lat="43.12302" lon="6.2549">
        <ele>5.8</ele>
        <time>2021-07-18T19:05:59Z</time>
      </trkpt>
      <trkpt lat="43.12302" lon="6.25491">
        <ele>5.8</ele>
        <time>2021-07-18T19:06:00Z</time>
      </trkpt>
      <trkpt lat="43.12303" lon="6.25491">
        <ele>5.8</ele>
        <time>2021-07-18T19:06:01Z</time>
      </trkpt>
      <trkpt lat="43.12304" lon="6.25491">
        <ele>5.8</ele>
        <time>2021-07-18T19:06:02Z</time>
      </trkpt>
      <trkpt lat="43.12305" lon="6.25492">
        <ele>5.8</ele>
        <time>2021-07-18T19:06:04Z</time>
      </trkpt>
      <trkpt lat="43.12306" lon="6.25492">
        <ele>5.9</ele>
        <time>2021-07-18T19:06:05Z</time>
      </trkpt>
      <trkpt lat="43.12307" lon="6.25492">
        <ele>5.9</ele>
        <time>2021-07-18T19:06:06Z</time>
      </trkpt>
      <trkpt lat="43.12309" lon="6.25492">
        <ele>5.9</ele>
        <time>2021-07-18T19:06:08Z</time>
      </trkpt>
      <trkpt lat="43.12311" lon="6.25492">
        <ele>5.9</ele>
        <time>2021-07-18T19:06:09Z</time>
      </trkpt>
      <trkpt lat="43.12313" lon="6.25492">
        <ele>5.9</ele>
        <time>2021-07-18T19:06:11Z</time>
      </trkpt>
      <trkpt lat="43.12314" lon="6.25492">
        <ele>5.9</ele>
        <time>2021-07-18T19:06:12Z</time>
      </trkpt>
      <trkpt lat="43.12317" lon="6.25492">
        <ele>5.9</ele>
        <time>2021-07-18T19:06:14Z</time>
      </trkpt>
      <trkpt lat="43.12318" lon="6.25492">
        <ele>6</ele>
        <time>2021-07-18T19:06:15Z</time>
      </trkpt>
      <trkpt lat="43.12319" lon="6.25492">
        <ele>6</ele>
        <time>2021-07-18T19:06:16Z</time>
      </trkpt>
      <trkpt lat="43.12321" lon="6.25492">
        <ele>6</ele>
        <time>2021-07-18T19:06:17Z</time>
      </trkpt>
      <trkpt lat="43.12322" lon="6.25492">
        <ele>6</ele>
        <time>2021-07-18T19:06:18Z</time>
      </trkpt>
      <trkpt lat="43.12325" lon="6.25491">
        <ele>6</ele>
        <time>2021-07-18T19:06:20Z</time>
      </trkpt>
      <trkpt lat="43.12326" lon="6.25491">
        <ele>6</ele>
        <time>2021-07-18T19:06:21Z</time>
      </trkpt>
      <trkpt lat="43.12329" lon="6.2549">
        <ele>6</ele>
        <time>2021-07-18T19:06:23Z</time>
      </trkpt>
      <trkpt lat="43.1233" lon="6.2549">
        <ele>6.1</ele>
        <time>2021-07-18T19:06:24Z</time>
      </trkpt>
      <trkpt lat="43.12331" lon="6.25488">
        <ele>6.1</ele>
        <time>2021-07-18T19:06:26Z</time>
      </trkpt>
      <trkpt lat="43.12332" lon="6.25488">
        <ele>6.1</ele>
        <time>2021-07-18T19:06:27Z</time>
      </trkpt>
      <trkpt lat="43.12333" lon="6.25487">
        <ele>6.1</ele>
        <time>2021-07-18T19:06:28Z</time>
      </trkpt>
      <trkpt lat="43.12334" lon="6.25486">
        <ele>6.1</ele>
        <time>2021-07-18T19:06:29Z</time>
      </trkpt>
      <trkpt lat="43.12335" lon="6.25486">
        <ele>6.1</ele>
        <time>2021-07-18T19:06:30Z</time>
      </trkpt>
      <trkpt lat="43.12337" lon="6.25485">
        <ele>6.1</ele>
        <time>2021-07-18T19:06:32Z</time>
      </trkpt>
      <trkpt lat="43.12339" lon="6.25485">
        <ele>6.1</ele>
        <time>2021-07-18T19:06:34Z</time>
      </trkpt>
      <trkpt lat="43.12341" lon="6.25485">
        <ele>6.1</ele>
        <time>2021-07-18T19:06:35Z</time>
      </trkpt>
      <trkpt lat="43.12342" lon="6.25485">
        <ele>6.1</ele>
        <time>2021-07-18T19:06:36Z</time>
      </trkpt>
      <trkpt lat="43.12343" lon="6.25485">
        <ele>6.1</ele>
        <time>2021-07-18T19:06:38Z</time>
      </trkpt>
      <trkpt lat="43.12345" lon="6.25486">
        <ele>6.1</ele>
        <time>2021-07-18T19:06:40Z</time>
      </trkpt>
      <trkpt lat="43.12346" lon="6.25486">
        <ele>6.1</ele>
        <time>2021-07-18T19:06:41Z</time>
      </trkpt>
      <trkpt lat="43.12347" lon="6.25486">
        <ele>6.2</ele>
        <time>2021-07-18T19:06:42Z</time>
      </trkpt>
      <trkpt lat="43.12349" lon="6.25487">
        <ele>6.2</ele>
        <time>2021-07-18T19:06:43Z</time>
      </trkpt>
      <trkpt lat="43.1235" lon="6.25487">
        <ele>6.2</ele>
        <time>2021-07-18T19:06:45Z</time>
      </trkpt>
      <trkpt lat="43.1235" lon="6.25488">
        <ele>6.2</ele>
        <time>2021-07-18T19:06:46Z</time>
      </trkpt>
      <trkpt lat="43.12351" lon="6.25489">
        <ele>6.2</ele>
        <time>2021-07-18T19:06:47Z</time>
      </trkpt>
      <trkpt lat="43.12351" lon="6.2549">
        <ele>6.2</ele>
        <time>2021-07-18T19:06:48Z</time>
      </trkpt>
      <trkpt lat="43.12351" lon="6.25491">
        <ele>6.2</ele>
        <time>2021-07-18T19:06:50Z</time>
      </trkpt>
      <trkpt lat="43.12351" lon="6.25491">
        <ele>6.2</ele>
        <time>2021-07-18T19:06:52Z</time>
      </trkpt>
      <trkpt lat="43.12351" lon="6.25491">
        <ele>6.2</ele>
        <time>2021-07-18T19:06:53Z</time>
      </trkpt>
      <trkpt lat="43.12351" lon="6.25491">
        <ele>6.2</ele>
        <time>2021-07-18T19:06:54Z</time>
      </trkpt>
      <trkpt lat="43.12351" lon="6.25491">
        <ele>6.2</ele>
        <time>2021-07-18T19:06:55Z</time>
      </trkpt>
      <trkpt lat="43.12351" lon="6.25492">
        <ele>6.2</ele>
        <time>2021-07-18T19:06:57Z</time>
      </trkpt>
      <trkpt lat="43.12351" lon="6.25492">
        <ele>6.2</ele>
        <time>2021-07-18T19:06:58Z</time>
      </trkpt>
      <trkpt lat="43.12352" lon="6.25492">
        <ele>6.2</ele>
        <time>2021-07-18T19:07:00Z</time>
      </trkpt>
      <trkpt lat="43.12352" lon="6.25491">
        <ele>6.2</ele>
        <time>2021-07-18T19:07:01Z</time>
      </trkpt>
      <trkpt lat="43.12353" lon="6.2549">
        <ele>6.2</ele>
        <time>2021-07-18T19:07:02Z</time>
      </trkpt>
      <trkpt lat="43.12354" lon="6.25489">
        <ele>6.2</ele>
        <time>2021-07-18T19:07:03Z</time>
      </trkpt>
      <trkpt lat="43.12354" lon="6.25488">
        <ele>6.2</ele>
        <time>2021-07-18T19:07:05Z</time>
      </trkpt>
      <trkpt lat="43.12355" lon="6.25486">
        <ele>6.2</ele>
        <time>2021-07-18T19:07:07Z</time>
      </trkpt>
      <trkpt lat="43.12356" lon="6.25484">
        <ele>6.2</ele>
        <time>2021-07-18T19:07:08Z</time>
      </trkpt>
      <trkpt lat="43.12356" lon="6.25483">
        <ele>6.2</ele>
        <time>2021-07-18T19:07:09Z</time>
      </trkpt>
      <trkpt lat="43.12357" lon="6.25481">
        <ele>6.2</ele>
        <time>2021-07-18T19:07:11Z</time>
      </trkpt>
      <trkpt lat="43.12358" lon="6.25479">
        <ele>6.2</ele>
        <time>2021-07-18T19:07:12Z</time>
      </trkpt>
      <trkpt lat="43.12359" lon="6.25478">
        <ele>6.2</ele>
        <time>2021-07-18T19:07:13Z</time>
      </trkpt>
      <trkpt lat="43.12361" lon="6.25478">
        <ele>6.3</ele>
        <time>2021-07-18T19:07:14Z</time>
      </trkpt>
      <trkpt lat="43.12362" lon="6.25477">
        <ele>6.3</ele>
        <time>2021-07-18T19:07:15Z</time>
      </trkpt>
      <trkpt lat="43.12363" lon="6.25477">
        <ele>6.3</ele>
        <time>2021-07-18T19:07:17Z</time>
      </trkpt>
      <trkpt lat="43.12363" lon="6.25476">
        <ele>6.3</ele>
        <time>2021-07-18T19:07:18Z</time>
      </trkpt>
      <trkpt lat="43.12363" lon="6.25476">
        <ele>6.3</ele>
        <time>2021-07-18T19:07:19Z</time>
      </trkpt>
      <trkpt lat="43.12365" lon="6.25476">
        <ele>6.3</ele>
        <time>2021-07-18T19:07:21Z</time>
      </trkpt>
      <trkpt lat="43.12366" lon="6.25476">
        <ele>6.3</ele>
        <time>2021-07-18T19:07:23Z</time>
      </trkpt>
      <trkpt lat="43.12368" lon="6.25477">
        <ele>6.3</ele>
        <time>2021-07-18T19:07:24Z</time>
      </trkpt>
      <trkpt lat="43.12369" lon="6.25478">
        <ele>6.3</ele>
        <time>2021-07-18T19:07:26Z</time>
      </trkpt>
      <trkpt lat="43.1237" lon="6.25479">
        <ele>6.3</ele>
        <time>2021-07-18T19:07:27Z</time>
      </trkpt>
      <trkpt lat="43.12371" lon="6.2548">
        <ele>6.3</ele>
        <time>2021-07-18T19:07:29Z</time>
      </trkpt>
      <trkpt lat="43.12372" lon="6.25481">
        <ele>6.3</ele>
        <time>2021-07-18T19:07:30Z</time>
      </trkpt>
      <trkpt lat="43.12372" lon="6.25483">
        <ele>6.3</ele>
        <time>2021-07-18T19:07:31Z</time>
      </trkpt>
      <trkpt lat="43.12372" lon="6.25485">
        <ele>6.3</ele>
        <time>2021-07-18T19:07:33Z</time>
      </trkpt>
      <trkpt lat="43.12372" lon="6.25486">
        <ele>6.3</ele>
        <time>2021-07-18T19:07:34Z</time>
      </trkpt>
      <trkpt lat="43.12372" lon="6.25487">
        <ele>6.3</ele>
        <time>2021-07-18T19:07:35Z</time>
      </trkpt>
      <trkpt lat="43.12372" lon="6.25488">
        <ele>6.3</ele>
        <time>2021-07-18T19:07:36Z</time>
      </trkpt>
      <trkpt lat="43.12372" lon="6.25489">
        <ele>6.3</ele>
        <time>2021-07-18T19:07:38Z</time>
      </trkpt>
      <trkpt lat="43.12372" lon="6.2549">
        <ele>6.3</ele>
        <time>2021-07-18T19:07:39Z</time>
      </trkpt>
      <trkpt lat="43.12372" lon="6.2549">
        <ele>6.3</ele>
        <time>2021-07-18T19:07:40Z</time>
      </trkpt>
      <trkpt lat="43.12372" lon="6.25491">
        <ele>6.3</ele>
        <time>2021-07-18T19:07:41Z</time>
      </trkpt>
      <trkpt lat="43.12372" lon="6.25491">
        <ele>6.3</ele>
        <time>2021-07-18T19:07:42Z</time>
      </trkpt>
      <trkpt lat="43.12372" lon="6.25493">
        <ele>6.3</ele>
        <time>2021-07-18T19:07:44Z</time>
      </trkpt>
      <trkpt lat="43.12371" lon="6.25494">
        <ele>6.3</ele>
        <time>2021-07-18T19:07:45Z</time>
      </trkpt>
      <trkpt lat="43.12371" lon="6.25495">
        <ele>6.3</ele>
        <time>2021-07-18T19:07:47Z</time>
      </trkpt>
      <trkpt lat="43.12371" lon="6.25497">
        <ele>6.3</ele>
        <time>2021-07-18T19:07:48Z</time>
      </trkpt>
      <trkpt lat="43.1237" lon="6.25498">
        <ele>6.3</ele>
        <time>2021-07-18T19:07:49Z</time>
      </trkpt>
      <trkpt lat="43.1237" lon="6.255">
        <ele>6.3</ele>
        <time>2021-07-18T19:07:50Z</time>
      </trkpt>
      <trkpt lat="43.12369" lon="6.25501">
        <ele>6.3</ele>
        <time>2021-07-18T19:07:51Z</time>
      </trkpt>
      <trkpt lat="43.12368" lon="6.25503">
        <ele>6.3</ele>
        <time>2021-07-18T19:07:53Z</time>
      </trkpt>
      <trkpt lat="43.12367" lon="6.25505">
        <ele>6.3</ele>
        <time>2021-07-18T19:07:54Z</time>
      </trkpt>
      <trkpt lat="43.12366" lon="6.25508">
        <ele>6.3</ele>
        <time>2021-07-18T19:07:56Z</time>
      </trkpt>
      <trkpt lat="43.12364" lon="6.25511">
        <ele>6.3</ele>
        <time>2021-07-18T19:07:58Z</time>
      </trkpt>
      <trkpt lat="43.12363" lon="6.25512">
        <ele>6.3</ele>
        <time>2021-07-18T19:07:59Z</time>
      </trkpt>
      <trkpt lat="43.12362" lon="6.25513">
        <ele>6.3</ele>
        <time>2021-07-18T19:08:00Z</time>
      </trkpt>
      <trkpt lat="43.12361" lon="6.25515">
        <ele>6.3</ele>
        <time>2021-07-18T19:08:02Z</time>
      </trkpt>
      <trkpt lat="43.12361" lon="6.25517">
        <ele>6.3</ele>
        <time>2021-07-18T19:08:03Z</time>
      </trkpt>
      <trkpt lat="43.1236" lon="6.25518">
        <ele>6.3</ele>
        <time>2021-07-18T19:08:04Z</time>
      </trkpt>
      <trkpt lat="43.12359" lon="6.25521">
        <ele>6.3</ele>
        <time>2021-07-18T19:08:06Z</time>
      </trkpt>
      <trkpt lat="43.12359" lon="6.25523">
        <ele>6.3</ele>
        <time>2021-07-18T19:08:08Z</time>
      </trkpt>
      <trkpt lat="43.12358" lon="6.25524">
        <ele>6.3</ele>
        <time>2021-07-18T19:08:09Z</time>
      </trkpt>
      <trkpt lat="43.12358" lon="6.25526">
        <ele>6.3</ele>
        <time>2021-07-18T19:08:10Z</time>
      </trkpt>
      <trkpt lat="43.12357" lon="6.25528">
        <ele>6.3</ele>
        <time>2021-07-18T19:08:12Z</time>
      </trkpt>
      <trkpt lat="43.12357" lon="6.25529">
        <ele>6.3</ele>
        <time>2021-07-18T19:08:13Z</time>
      </trkpt>
      <trkpt lat="43.12357" lon="6.25531">
        <ele>6.3</ele>
        <time>2021-07-18T19:08:14Z</time>
      </trkpt>
      <trkpt lat="43.12358" lon="6.25532">
        <ele>6.3</ele>
        <time>2021-07-18T19:08:16Z</time>
      </trkpt>
      <trkpt lat="43.12358" lon="6.25533">
        <ele>6.3</ele>
        <time>2021-07-18T19:08:17Z</time>
      </trkpt>
      <trkpt lat="43.12357" lon="6.25534">
        <ele>6.3</ele>
        <time>2021-07-18T19:08:18Z</time>
      </trkpt>
      <trkpt lat="43.12357" lon="6.25536">
        <ele>6.3</ele>
        <time>2021-07-18T19:08:19Z</time>
      </trkpt>
      <trkpt lat="43.12357" lon="6.25537">
        <ele>6.3</ele>
        <time>2021-07-18T19:08:20Z</time>
      </trkpt>
      <trkpt lat="43.12356" lon="6.25539">
        <ele>6.3</ele>
        <time>2021-07-18T19:08:21Z</time>
      </trkpt>
      <trkpt lat="43.12356" lon="6.2554">
        <ele>6.3</ele>
        <time>2021-07-18T19:08:22Z</time>
      </trkpt>
      <trkpt lat="43.12356" lon="6.25541">
        <ele>6.3</ele>
        <time>2021-07-18T19:08:24Z</time>
      </trkpt>
      <trkpt lat="43.12355" lon="6.25542">
        <ele>6.3</ele>
        <time>2021-07-18T19:08:25Z</time>
      </trkpt>
      <trkpt lat="43.12355" lon="6.25543">
        <ele>6.4</ele>
        <time>2021-07-18T19:08:26Z</time>
      </trkpt>
      <trkpt lat="43.12354" lon="6.25544">
        <ele>6.4</ele>
        <time>2021-07-18T19:08:27Z</time>
      </trkpt>
      <trkpt lat="43.12354" lon="6.25545">
        <ele>6.4</ele>
        <time>2021-07-18T19:08:29Z</time>
      </trkpt>
      <trkpt lat="43.12354" lon="6.25547">
        <ele>6.4</ele>
        <time>2021-07-18T19:08:30Z</time>
      </trkpt>
      <trkpt lat="43.12353" lon="6.25548">
        <ele>6.4</ele>
        <time>2021-07-18T19:08:31Z</time>
      </trkpt>
      <trkpt lat="43.12353" lon="6.25549">
        <ele>6.4</ele>
        <time>2021-07-18T19:08:32Z</time>
      </trkpt>
      <trkpt lat="43.12352" lon="6.2555">
        <ele>6.4</ele>
        <time>2021-07-18T19:08:33Z</time>
      </trkpt>
      <trkpt lat="43.12352" lon="6.25551">
        <ele>6.4</ele>
        <time>2021-07-18T19:08:35Z</time>
      </trkpt>
      <trkpt lat="43.12351" lon="6.25552">
        <ele>6.4</ele>
        <time>2021-07-18T19:08:36Z</time>
      </trkpt>
      <trkpt lat="43.12351" lon="6.25554">
        <ele>6.4</ele>
        <time>2021-07-18T19:08:37Z</time>
      </trkpt>
      <trkpt lat="43.12351" lon="6.25555">
        <ele>6.4</ele>
        <time>2021-07-18T19:08:38Z</time>
      </trkpt>
      <trkpt lat="43.1235" lon="6.25556">
        <ele>6.4</ele>
        <time>2021-07-18T19:08:40Z</time>
      </trkpt>
      <trkpt lat="43.12349" lon="6.25557">
        <ele>6.4</ele>
        <time>2021-07-18T19:08:41Z</time>
      </trkpt>
      <trkpt lat="43.12348" lon="6.25558">
        <ele>6.4</ele>
        <time>2021-07-18T19:08:42Z</time>
      </trkpt>
      <trkpt lat="43.12347" lon="6.25559">
        <ele>6.4</ele>
        <time>2021-07-18T19:08:44Z</time>
      </trkpt>
      <trkpt lat="43.12347" lon="6.25561">
        <ele>6.4</ele>
        <time>2021-07-18T19:08:45Z</time>
      </trkpt>
      <trkpt lat="43.12346" lon="6.25561">
        <ele>6.4</ele>
        <time>2021-07-18T19:08:46Z</time>
      </trkpt>
      <trkpt lat="43.12345" lon="6.25561">
        <ele>6.4</ele>
        <time>2021-07-18T19:08:48Z</time>
      </trkpt>
      <trkpt lat="43.12344" lon="6.2556">
        <ele>6.4</ele>
        <time>2021-07-18T19:08:50Z</time>
      </trkpt>
      <trkpt lat="43.12344" lon="6.2556">
        <ele>6.4</ele>
        <time>2021-07-18T19:08:51Z</time>
      </trkpt>
      <trkpt lat="43.12346" lon="6.2556">
        <ele>6.4</ele>
        <time>2021-07-18T19:08:53Z</time>
      </trkpt>
      <trkpt lat="43.12346" lon="6.2556">
        <ele>6.4</ele>
        <time>2021-07-18T19:08:54Z</time>
      </trkpt>
      <trkpt lat="43.12347" lon="6.25561">
        <ele>6.4</ele>
        <time>2021-07-18T19:08:55Z</time>
      </trkpt>
      <trkpt lat="43.12347" lon="6.25561">
        <ele>6.4</ele>
        <time>2021-07-18T19:08:56Z</time>
      </trkpt>
      <trkpt lat="43.12346" lon="6.25561">
        <ele>6.4</ele>
        <time>2021-07-18T19:08:57Z</time>
      </trkpt>
      <trkpt lat="43.12346" lon="6.25562">
        <ele>6.4</ele>
        <time>2021-07-18T19:08:58Z</time>
      </trkpt>
      <trkpt lat="43.12345" lon="6.25562">
        <ele>6.4</ele>
        <time>2021-07-18T19:09:00Z</time>
      </trkpt>
      <trkpt lat="43.12345" lon="6.25563">
        <ele>6.4</ele>
        <time>2021-07-18T19:09:01Z</time>
      </trkpt>
      <trkpt lat="43.12344" lon="6.25564">
        <ele>6.4</ele>
        <time>2021-07-18T19:09:02Z</time>
      </trkpt>
      <trkpt lat="43.12343" lon="6.25565">
        <ele>6.4</ele>
        <time>2021-07-18T19:09:04Z</time>
      </trkpt>
      <trkpt lat="43.12342" lon="6.25567">
        <ele>6.4</ele>
        <time>2021-07-18T19:09:05Z</time>
      </trkpt>
      <trkpt lat="43.12341" lon="6.25569">
        <ele>6.4</ele>
        <time>2021-07-18T19:09:06Z</time>
      </trkpt>
      <trkpt lat="43.12341" lon="6.2557">
        <ele>6.4</ele>
        <time>2021-07-18T19:09:07Z</time>
      </trkpt>
      <trkpt lat="43.1234" lon="6.25572">
        <ele>6.4</ele>
        <time>2021-07-18T19:09:08Z</time>
      </trkpt>
      <trkpt lat="43.1234" lon="6.25574">
        <ele>6.4</ele>
        <time>2021-07-18T19:09:10Z</time>
      </trkpt>
      <trkpt lat="43.1234" lon="6.25576">
        <ele>6.4</ele>
        <time>2021-07-18T19:09:11Z</time>
      </trkpt>
      <trkpt lat="43.1234" lon="6.25579">
        <ele>6.4</ele>
        <time>2021-07-18T19:09:12Z</time>
      </trkpt>
      <trkpt lat="43.1234" lon="6.25581">
        <ele>6.4</ele>
        <time>2021-07-18T19:09:14Z</time>
      </trkpt>
      <trkpt lat="43.1234" lon="6.25583">
        <ele>6.4</ele>
        <time>2021-07-18T19:09:15Z</time>
      </trkpt>
      <trkpt lat="43.12339" lon="6.25584">
        <ele>6.4</ele>
        <time>2021-07-18T19:09:16Z</time>
      </trkpt>
      <trkpt lat="43.12339" lon="6.25587">
        <ele>6.4</ele>
        <time>2021-07-18T19:09:18Z</time>
      </trkpt>
      <trkpt lat="43.12339" lon="6.25588">
        <ele>6.4</ele>
        <time>2021-07-18T19:09:19Z</time>
      </trkpt>
      <trkpt lat="43.12338" lon="6.25589">
        <ele>6.4</ele>
        <time>2021-07-18T19:09:20Z</time>
      </trkpt>
      <trkpt lat="43.12338" lon="6.25591">
        <ele>6.4</ele>
        <time>2021-07-18T19:09:22Z</time>
      </trkpt>
      <trkpt lat="43.12337" lon="6.25593">
        <ele>6.4</ele>
        <time>2021-07-18T19:09:23Z</time>
      </trkpt>
      <trkpt lat="43.12337" lon="6.25594">
        <ele>6.4</ele>
        <time>2021-07-18T19:09:24Z</time>
      </trkpt>
      <trkpt lat="43.12337" lon="6.25597">
        <ele>6.4</ele>
        <time>2021-07-18T19:09:26Z</time>
      </trkpt>
      <trkpt lat="43.12336" lon="6.256">
        <ele>6.4</ele>
        <time>2021-07-18T19:09:28Z</time>
      </trkpt>
      <trkpt lat="43.12336" lon="6.25601">
        <ele>6.4</ele>
        <time>2021-07-18T19:09:29Z</time>
      </trkpt>
      <trkpt lat="43.12335" lon="6.25602">
        <ele>6.4</ele>
        <time>2021-07-18T19:09:30Z</time>
      </trkpt>
      <trkpt lat="43.12335" lon="6.25604">
        <ele>6.4</ele>
        <time>2021-07-18T19:09:31Z</time>
      </trkpt>
      <trkpt lat="43.12335" lon="6.25606">
        <ele>6.4</ele>
        <time>2021-07-18T19:09:32Z</time>
      </trkpt>
      <trkpt lat="43.12335" lon="6.25608">
        <ele>6.4</ele>
        <time>2021-07-18T19:09:34Z</time>
      </trkpt>
      <trkpt lat="43.12335" lon="6.25609">
        <ele>6.4</ele>
        <time>2021-07-18T19:09:35Z</time>
      </trkpt>
      <trkpt lat="43.12334" lon="6.2561">
        <ele>6.4</ele>
        <time>2021-07-18T19:09:36Z</time>
      </trkpt>
      <trkpt lat="43.12333" lon="6.25612">
        <ele>6.4</ele>
        <time>2021-07-18T19:09:38Z</time>
      </trkpt>
      <trkpt lat="43.12332" lon="6.25615">
        <ele>6.4</ele>
        <time>2021-07-18T19:09:39Z</time>
      </trkpt>
      <trkpt lat="43.12332" lon="6.25617">
        <ele>6.4</ele>
        <time>2021-07-18T19:09:41Z</time>
      </trkpt>
      <trkpt lat="43.12331" lon="6.25618">
        <ele>6.4</ele>
        <time>2021-07-18T19:09:43Z</time>
      </trkpt>
      <trkpt lat="43.12331" lon="6.25619">
        <ele>6.4</ele>
        <time>2021-07-18T19:09:44Z</time>
      </trkpt>
      <trkpt lat="43.1233" lon="6.25621">
        <ele>6.4</ele>
        <time>2021-07-18T19:09:45Z</time>
      </trkpt>
      <trkpt lat="43.1233" lon="6.25622">
        <ele>6.4</ele>
        <time>2021-07-18T19:09:46Z</time>
      </trkpt>
      <trkpt lat="43.1233" lon="6.25624">
        <ele>6.4</ele>
        <time>2021-07-18T19:09:48Z</time>
      </trkpt>
      <trkpt lat="43.12329" lon="6.25625">
        <ele>6.4</ele>
        <time>2021-07-18T19:09:49Z</time>
      </trkpt>
      <trkpt lat="43.12329" lon="6.25627">
        <ele>6.4</ele>
        <time>2021-07-18T19:09:50Z</time>
      </trkpt>
      <trkpt lat="43.12329" lon="6.25628">
        <ele>6.4</ele>
        <time>2021-07-18T19:09:52Z</time>
      </trkpt>
      <trkpt lat="43.12328" lon="6.2563">
        <ele>6.4</ele>
        <time>2021-07-18T19:09:53Z</time>
      </trkpt>
      <trkpt lat="43.12328" lon="6.25632">
        <ele>6.4</ele>
        <time>2021-07-18T19:09:55Z</time>
      </trkpt>
      <trkpt lat="43.12329" lon="6.25633">
        <ele>6.4</ele>
        <time>2021-07-18T19:09:56Z</time>
      </trkpt>
      <trkpt lat="43.1233" lon="6.25634">
        <ele>6.4</ele>
        <time>2021-07-18T19:09:58Z</time>
      </trkpt>
      <trkpt lat="43.12332" lon="6.25634">
        <ele>6.4</ele>
        <time>2021-07-18T19:09:59Z</time>
      </trkpt>
      <trkpt lat="43.12333" lon="6.25635">
        <ele>6.7</ele>
        <time>2021-07-18T19:10:01Z</time>
      </trkpt>
      <trkpt lat="43.12334" lon="6.25635">
        <ele>6.7</ele>
        <time>2021-07-18T19:10:02Z</time>
      </trkpt>
      <trkpt lat="43.12336" lon="6.25636">
        <ele>6.7</ele>
        <time>2021-07-18T19:10:04Z</time>
      </trkpt>
      <trkpt lat="43.12337" lon="6.25636">
        <ele>6.7</ele>
        <time>2021-07-18T19:10:05Z</time>
      </trkpt>
      <trkpt lat="43.12339" lon="6.25637">
        <ele>6.8</ele>
        <time>2021-07-18T19:10:06Z</time>
      </trkpt>
      <trkpt lat="43.1234" lon="6.25637">
        <ele>6.8</ele>
        <time>2021-07-18T19:10:07Z</time>
      </trkpt>
      <trkpt lat="43.1234" lon="6.25637">
        <ele>6.8</ele>
        <time>2021-07-18T19:10:08Z</time>
      </trkpt>
      <trkpt lat="43.12341" lon="6.25636">
        <ele>6.8</ele>
        <time>2021-07-18T19:10:09Z</time>
      </trkpt>
      <trkpt lat="43.12343" lon="6.25636">
        <ele>6.9</ele>
        <time>2021-07-18T19:10:11Z</time>
      </trkpt>
      <trkpt lat="43.12346" lon="6.25636">
        <ele>6.9</ele>
        <time>2021-07-18T19:10:13Z</time>
      </trkpt>
      <trkpt lat="43.12346" lon="6.25637">
        <ele>6.9</ele>
        <time>2021-07-18T19:10:14Z</time>
      </trkpt>
      <trkpt lat="43.12348" lon="6.25637">
        <ele>7</ele>
        <time>2021-07-18T19:10:16Z</time>
      </trkpt>
      <trkpt lat="43.12349" lon="6.25638">
        <ele>7</ele>
        <time>2021-07-18T19:10:17Z</time>
      </trkpt>
      <trkpt lat="43.1235" lon="6.25638">
        <ele>7</ele>
        <time>2021-07-18T19:10:18Z</time>
      </trkpt>
      <trkpt lat="43.1235" lon="6.25638">
        <ele>7</ele>
        <time>2021-07-18T19:10:20Z</time>
      </trkpt>
      <trkpt lat="43.12351" lon="6.25638">
        <ele>7.1</ele>
        <time>2021-07-18T19:10:21Z</time>
      </trkpt>
      <trkpt lat="43.12352" lon="6.25638">
        <ele>7.1</ele>
        <time>2021-07-18T19:10:22Z</time>
      </trkpt>
      <trkpt lat="43.12355" lon="6.25638">
        <ele>7.2</ele>
        <time>2021-07-18T19:10:23Z</time>
      </trkpt>
      <trkpt lat="43.12356" lon="6.25637">
        <ele>7.2</ele>
        <time>2021-07-18T19:10:25Z</time>
      </trkpt>
      <trkpt lat="43.12357" lon="6.25636">
        <ele>7.2</ele>
        <time>2021-07-18T19:10:26Z</time>
      </trkpt>
      <trkpt lat="43.12359" lon="6.25636">
        <ele>7.3</ele>
        <time>2021-07-18T19:10:28Z</time>
      </trkpt>
      <trkpt lat="43.1236" lon="6.25635">
        <ele>7.3</ele>
        <time>2021-07-18T19:10:29Z</time>
      </trkpt>
      <trkpt lat="43.12361" lon="6.25634">
        <ele>7.4</ele>
        <time>2021-07-18T19:10:30Z</time>
      </trkpt>
      <trkpt lat="43.12362" lon="6.25634">
        <ele>7.4</ele>
        <time>2021-07-18T19:10:31Z</time>
      </trkpt>
      <trkpt lat="43.12363" lon="6.25633">
        <ele>7.4</ele>
        <time>2021-07-18T19:10:32Z</time>
      </trkpt>
      <trkpt lat="43.12364" lon="6.25632">
        <ele>7.5</ele>
        <time>2021-07-18T19:10:34Z</time>
      </trkpt>
      <trkpt lat="43.12365" lon="6.25631">
        <ele>7.5</ele>
        <time>2021-07-18T19:10:35Z</time>
      </trkpt>
      <trkpt lat="43.12366" lon="6.2563">
        <ele>7.5</ele>
        <time>2021-07-18T19:10:36Z</time>
      </trkpt>
      <trkpt lat="43.12367" lon="6.25628">
        <ele>7.6</ele>
        <time>2021-07-18T19:10:37Z</time>
      </trkpt>
      <trkpt lat="43.12368" lon="6.25627">
        <ele>7.6</ele>
        <time>2021-07-18T19:10:39Z</time>
      </trkpt>
      <trkpt lat="43.12369" lon="6.25625">
        <ele>7.7</ele>
        <time>2021-07-18T19:10:40Z</time>
      </trkpt>
      <trkpt lat="43.12369" lon="6.25624">
        <ele>7.7</ele>
        <time>2021-07-18T19:10:41Z</time>
      </trkpt>
      <trkpt lat="43.1237" lon="6.25624">
        <ele>7.7</ele>
        <time>2021-07-18T19:10:42Z</time>
      </trkpt>
      <trkpt lat="43.12371" lon="6.25623">
        <ele>7.8</ele>
        <time>2021-07-18T19:10:44Z</time>
      </trkpt>
      <trkpt lat="43.12372" lon="6.25622">
        <ele>7.8</ele>
        <time>2021-07-18T19:10:45Z</time>
      </trkpt>
      <trkpt lat="43.12373" lon="6.25621">
        <ele>7.9</ele>
        <time>2021-07-18T19:10:46Z</time>
      </trkpt>
      <trkpt lat="43.12375" lon="6.25619">
        <ele>8</ele>
        <time>2021-07-18T19:10:48Z</time>
      </trkpt>
      <trkpt lat="43.12376" lon="6.25619">
        <ele>8</ele>
        <time>2021-07-18T19:10:49Z</time>
      </trkpt>
      <trkpt lat="43.12377" lon="6.25618">
        <ele>8.1</ele>
        <time>2021-07-18T19:10:50Z</time>
      </trkpt>
      <trkpt lat="43.12379" lon="6.25619">
        <ele>8.1</ele>
        <time>2021-07-18T19:10:51Z</time>
      </trkpt>
      <trkpt lat="43.1238" lon="6.2562">
        <ele>8.2</ele>
        <time>2021-07-18T19:10:52Z</time>
      </trkpt>
      <trkpt lat="43.12381" lon="6.25621">
        <ele>8.2</ele>
        <time>2021-07-18T19:10:54Z</time>
      </trkpt>
      <trkpt lat="43.12382" lon="6.25623">
        <ele>8.3</ele>
        <time>2021-07-18T19:10:55Z</time>
      </trkpt>
      <trkpt lat="43.12382" lon="6.25625">
        <ele>8.4</ele>
        <time>2021-07-18T19:10:56Z</time>
      </trkpt>
      <trkpt lat="43.12383" lon="6.25627">
        <ele>8.4</ele>
        <time>2021-07-18T19:10:58Z</time>
      </trkpt>
      <trkpt lat="43.12383" lon="6.25628">
        <ele>8.5</ele>
        <time>2021-07-18T19:10:59Z</time>
      </trkpt>
      <trkpt lat="43.12384" lon="6.25629">
        <ele>8.5</ele>
        <time>2021-07-18T19:11:00Z</time>
      </trkpt>
      <trkpt lat="43.12385" lon="6.25629">
        <ele>8.5</ele>
        <time>2021-07-18T19:11:01Z</time>
      </trkpt>
      <trkpt lat="43.12386" lon="6.25629">
        <ele>8.6</ele>
        <time>2021-07-18T19:11:03Z</time>
      </trkpt>
      <trkpt lat="43.12387" lon="6.2563">
        <ele>8.6</ele>
        <time>2021-07-18T19:11:04Z</time>
      </trkpt>
      <trkpt lat="43.12389" lon="6.2563">
        <ele>8.7</ele>
        <time>2021-07-18T19:11:05Z</time>
      </trkpt>
      <trkpt lat="43.1239" lon="6.25629">
        <ele>8.8</ele>
        <time>2021-07-18T19:11:07Z</time>
      </trkpt>
      <trkpt lat="43.12392" lon="6.25629">
        <ele>8.8</ele>
        <time>2021-07-18T19:11:08Z</time>
      </trkpt>
      <trkpt lat="43.12394" lon="6.25629">
        <ele>8.9</ele>
        <time>2021-07-18T19:11:09Z</time>
      </trkpt>
      <trkpt lat="43.12395" lon="6.25628">
        <ele>9</ele>
        <time>2021-07-18T19:11:11Z</time>
      </trkpt>
      <trkpt lat="43.12397" lon="6.25628">
        <ele>9</ele>
        <time>2021-07-18T19:11:12Z</time>
      </trkpt>
      <trkpt lat="43.124" lon="6.25628">
        <ele>9.2</ele>
        <time>2021-07-18T19:11:13Z</time>
      </trkpt>
      <trkpt lat="43.12401" lon="6.25627">
        <ele>9.2</ele>
        <time>2021-07-18T19:11:14Z</time>
      </trkpt>
      <trkpt lat="43.12404" lon="6.25627">
        <ele>9.4</ele>
        <time>2021-07-18T19:11:16Z</time>
      </trkpt>
      <trkpt lat="43.12405" lon="6.25627">
        <ele>9.4</ele>
        <time>2021-07-18T19:11:17Z</time>
      </trkpt>
      <trkpt lat="43.12406" lon="6.25627">
        <ele>9.5</ele>
        <time>2021-07-18T19:11:18Z</time>
      </trkpt>
      <trkpt lat="43.12407" lon="6.25627">
        <ele>9.5</ele>
        <time>2021-07-18T19:11:19Z</time>
      </trkpt>
      <trkpt lat="43.12409" lon="6.25626">
        <ele>9.6</ele>
        <time>2021-07-18T19:11:21Z</time>
      </trkpt>
      <trkpt lat="43.1241" lon="6.25626">
        <ele>9.7</ele>
        <time>2021-07-18T19:11:22Z</time>
      </trkpt>
      <trkpt lat="43.12411" lon="6.25626">
        <ele>9.7</ele>
        <time>2021-07-18T19:11:23Z</time>
      </trkpt>
      <trkpt lat="43.12412" lon="6.25625">
        <ele>9.7</ele>
        <time>2021-07-18T19:11:25Z</time>
      </trkpt>
      <trkpt lat="43.12413" lon="6.25625">
        <ele>9.8</ele>
        <time>2021-07-18T19:11:26Z</time>
      </trkpt>
      <trkpt lat="43.12414" lon="6.25626">
        <ele>9.8</ele>
        <time>2021-07-18T19:11:27Z</time>
      </trkpt>
      <trkpt lat="43.12415" lon="6.25626">
        <ele>9.9</ele>
        <time>2021-07-18T19:11:28Z</time>
      </trkpt>
      <trkpt lat="43.12416" lon="6.25626">
        <ele>9.9</ele>
        <time>2021-07-18T19:11:29Z</time>
      </trkpt>
      <trkpt lat="43.12417" lon="6.25625">
        <ele>10</ele>
        <time>2021-07-18T19:11:31Z</time>
      </trkpt>
      <trkpt lat="43.12419" lon="6.25625">
        <ele>10</ele>
        <time>2021-07-18T19:11:32Z</time>
      </trkpt>
      <trkpt lat="43.12421" lon="6.25624">
        <ele>10.2</ele>
        <time>2021-07-18T19:11:33Z</time>
      </trkpt>
      <trkpt lat="43.12422" lon="6.25624">
        <ele>10.2</ele>
        <time>2021-07-18T19:11:35Z</time>
      </trkpt>
      <trkpt lat="43.12423" lon="6.25624">
        <ele>10.3</ele>
        <time>2021-07-18T19:11:36Z</time>
      </trkpt>
      <trkpt lat="43.12425" lon="6.25624">
        <ele>10.3</ele>
        <time>2021-07-18T19:11:37Z</time>
      </trkpt>
      <trkpt lat="43.12426" lon="6.25624">
        <ele>10.4</ele>
        <time>2021-07-18T19:11:38Z</time>
      </trkpt>
      <trkpt lat="43.12428" lon="6.25624">
        <ele>10.5</ele>
        <time>2021-07-18T19:11:39Z</time>
      </trkpt>
      <trkpt lat="43.12429" lon="6.25624">
        <ele>10.5</ele>
        <time>2021-07-18T19:11:41Z</time>
      </trkpt>
      <trkpt lat="43.1243" lon="6.25624">
        <ele>10.6</ele>
        <time>2021-07-18T19:11:42Z</time>
      </trkpt>
      <trkpt lat="43.12431" lon="6.25624">
        <ele>10.6</ele>
        <time>2021-07-18T19:11:43Z</time>
      </trkpt>
      <trkpt lat="43.12432" lon="6.25624">
        <ele>10.7</ele>
        <time>2021-07-18T19:11:44Z</time>
      </trkpt>
      <trkpt lat="43.12433" lon="6.25624">
        <ele>10.7</ele>
        <time>2021-07-18T19:11:45Z</time>
      </trkpt>
      <trkpt lat="43.12435" lon="6.25624">
        <ele>10.8</ele>
        <time>2021-07-18T19:11:47Z</time>
      </trkpt>
      <trkpt lat="43.12436" lon="6.25624">
        <ele>10.9</ele>
        <time>2021-07-18T19:11:48Z</time>
      </trkpt>
      <trkpt lat="43.12438" lon="6.25623">
        <ele>11</ele>
        <time>2021-07-18T19:11:50Z</time>
      </trkpt>
      <trkpt lat="43.12439" lon="6.25623">
        <ele>11</ele>
        <time>2021-07-18T19:11:51Z</time>
      </trkpt>
      <trkpt lat="43.1244" lon="6.25622">
        <ele>11.1</ele>
        <time>2021-07-18T19:11:52Z</time>
      </trkpt>
      <trkpt lat="43.12441" lon="6.25622">
        <ele>11.1</ele>
        <time>2021-07-18T19:11:53Z</time>
      </trkpt>
      <trkpt lat="43.12442" lon="6.25622">
        <ele>11.1</ele>
        <time>2021-07-18T19:11:54Z</time>
      </trkpt>
      <trkpt lat="43.12444" lon="6.25622">
        <ele>11.2</ele>
        <time>2021-07-18T19:11:56Z</time>
      </trkpt>
      <trkpt lat="43.12445" lon="6.25622">
        <ele>11.3</ele>
        <time>2021-07-18T19:11:57Z</time>
      </trkpt>
      <trkpt lat="43.12446" lon="6.25623">
        <ele>11.3</ele>
        <time>2021-07-18T19:11:58Z</time>
      </trkpt>
      <trkpt lat="43.12446" lon="6.25623">
        <ele>11.4</ele>
        <time>2021-07-18T19:12:00Z</time>
      </trkpt>
      <trkpt lat="43.12447" lon="6.25623">
        <ele>11.4</ele>
        <time>2021-07-18T19:12:01Z</time>
      </trkpt>
      <trkpt lat="43.12447" lon="6.25623">
        <ele>11.4</ele>
        <time>2021-07-18T19:12:02Z</time>
      </trkpt>
      <trkpt lat="43.12448" lon="6.25623">
        <ele>11.5</ele>
        <time>2021-07-18T19:12:04Z</time>
      </trkpt>
      <trkpt lat="43.12448" lon="6.25623">
        <ele>11.5</ele>
        <time>2021-07-18T19:12:05Z</time>
      </trkpt>
      <trkpt lat="43.12449" lon="6.25623">
        <ele>11.5</ele>
        <time>2021-07-18T19:12:06Z</time>
      </trkpt>
      <trkpt lat="43.1245" lon="6.25624">
        <ele>11.5</ele>
        <time>2021-07-18T19:12:08Z</time>
      </trkpt>
      <trkpt lat="43.1245" lon="6.25624">
        <ele>11.6</ele>
        <time>2021-07-18T19:12:09Z</time>
      </trkpt>
      <trkpt lat="43.12451" lon="6.25624">
        <ele>11.6</ele>
        <time>2021-07-18T19:12:11Z</time>
      </trkpt>
      <trkpt lat="43.12451" lon="6.25624">
        <ele>11.6</ele>
        <time>2021-07-18T19:12:12Z</time>
      </trkpt>
      <trkpt lat="43.12452" lon="6.25624">
        <ele>11.7</ele>
        <time>2021-07-18T19:12:13Z</time>
      </trkpt>
      <trkpt lat="43.12454" lon="6.25624">
        <ele>11.7</ele>
        <time>2021-07-18T19:12:14Z</time>
      </trkpt>
      <trkpt lat="43.12455" lon="6.25624">
        <ele>11.8</ele>
        <time>2021-07-18T19:12:15Z</time>
      </trkpt>
      <trkpt lat="43.12457" lon="6.25624">
        <ele>11.9</ele>
        <time>2021-07-18T19:12:17Z</time>
      </trkpt>
      <trkpt lat="43.12458" lon="6.25625">
        <ele>11.9</ele>
        <time>2021-07-18T19:12:18Z</time>
      </trkpt>
      <trkpt lat="43.1246" lon="6.25625">
        <ele>12.1</ele>
        <time>2021-07-18T19:12:19Z</time>
      </trkpt>
      <trkpt lat="43.12461" lon="6.25626">
        <ele>12.1</ele>
        <time>2021-07-18T19:12:21Z</time>
      </trkpt>
      <trkpt lat="43.12462" lon="6.25626">
        <ele>12.2</ele>
        <time>2021-07-18T19:12:22Z</time>
      </trkpt>
      <trkpt lat="43.12463" lon="6.25627">
        <ele>12.2</ele>
        <time>2021-07-18T19:12:23Z</time>
      </trkpt>
      <trkpt lat="43.12464" lon="6.25627">
        <ele>12.3</ele>
        <time>2021-07-18T19:12:24Z</time>
      </trkpt>
      <trkpt lat="43.12465" lon="6.25628">
        <ele>12.4</ele>
        <time>2021-07-18T19:12:26Z</time>
      </trkpt>
      <trkpt lat="43.12467" lon="6.25627">
        <ele>12.4</ele>
        <time>2021-07-18T19:12:27Z</time>
      </trkpt>
      <trkpt lat="43.12468" lon="6.25628">
        <ele>12.5</ele>
        <time>2021-07-18T19:12:29Z</time>
      </trkpt>
      <trkpt lat="43.1247" lon="6.25628">
        <ele>12.6</ele>
        <time>2021-07-18T19:12:30Z</time>
      </trkpt>
      <trkpt lat="43.12471" lon="6.25628">
        <ele>12.7</ele>
        <time>2021-07-18T19:12:31Z</time>
      </trkpt>
      <trkpt lat="43.12473" lon="6.25627">
        <ele>12.8</ele>
        <time>2021-07-18T19:12:33Z</time>
      </trkpt>
      <trkpt lat="43.12475" lon="6.25624">
        <ele>12.9</ele>
        <time>2021-07-18T19:12:34Z</time>
      </trkpt>
      <trkpt lat="43.12476" lon="6.2562">
        <ele>13.1</ele>
        <time>2021-07-18T19:12:36Z</time>
      </trkpt>
      <trkpt lat="43.12476" lon="6.2562">
        <ele>13.1</ele>
        <time>2021-07-18T19:12:37Z</time>
      </trkpt>
      <trkpt lat="43.12477" lon="6.25618">
        <ele>13.2</ele>
        <time>2021-07-18T19:12:39Z</time>
      </trkpt>
      <trkpt lat="43.12477" lon="6.25617">
        <ele>13.2</ele>
        <time>2021-07-18T19:12:40Z</time>
      </trkpt>
      <trkpt lat="43.12478" lon="6.25617">
        <ele>13.3</ele>
        <time>2021-07-18T19:12:41Z</time>
      </trkpt>
      <trkpt lat="43.12479" lon="6.25617">
        <ele>13.3</ele>
        <time>2021-07-18T19:12:42Z</time>
      </trkpt>
      <trkpt lat="43.12479" lon="6.25615">
        <ele>13.4</ele>
        <time>2021-07-18T19:12:44Z</time>
      </trkpt>
      <trkpt lat="43.1248" lon="6.25615">
        <ele>13.4</ele>
        <time>2021-07-18T19:12:45Z</time>
      </trkpt>
      <trkpt lat="43.1248" lon="6.25613">
        <ele>13.5</ele>
        <time>2021-07-18T19:12:47Z</time>
      </trkpt>
      <trkpt lat="43.1248" lon="6.25612">
        <ele>13.5</ele>
        <time>2021-07-18T19:12:48Z</time>
      </trkpt>
      <trkpt lat="43.1248" lon="6.25611">
        <ele>13.6</ele>
        <time>2021-07-18T19:12:50Z</time>
      </trkpt>
      <trkpt lat="43.1248" lon="6.25611">
        <ele>13.6</ele>
        <time>2021-07-18T19:12:51Z</time>
      </trkpt>
      <trkpt lat="43.1248" lon="6.25611">
        <ele>13.6</ele>
        <time>2021-07-18T19:12:53Z</time>
      </trkpt>
      <trkpt lat="43.12481" lon="6.25611">
        <ele>13.6</ele>
        <time>2021-07-18T19:12:54Z</time>
      </trkpt>
      <trkpt lat="43.12482" lon="6.25612">
        <ele>13.6</ele>
        <time>2021-07-18T19:12:56Z</time>
      </trkpt>
      <trkpt lat="43.12482" lon="6.25612">
        <ele>13.7</ele>
        <time>2021-07-18T19:12:58Z</time>
      </trkpt>
      <trkpt lat="43.12482" lon="6.25612">
        <ele>13.7</ele>
        <time>2021-07-18T19:12:59Z</time>
      </trkpt>
      <trkpt lat="43.12482" lon="6.25612">
        <ele>13.7</ele>
        <time>2021-07-18T19:13:01Z</time>
      </trkpt>
      <trkpt lat="43.12483" lon="6.25612">
        <ele>13.7</ele>
        <time>2021-07-18T19:13:02Z</time>
      </trkpt>
      <trkpt lat="43.12483" lon="6.25612">
        <ele>13.8</ele>
        <time>2021-07-18T19:13:04Z</time>
      </trkpt>
      <trkpt lat="43.12484" lon="6.25612">
        <ele>13.8</ele>
        <time>2021-07-18T19:13:05Z</time>
      </trkpt>
      <trkpt lat="43.12484" lon="6.25612">
        <ele>13.8</ele>
        <time>2021-07-18T19:13:06Z</time>
      </trkpt>
      <trkpt lat="43.12484" lon="6.25613">
        <ele>13.8</ele>
        <time>2021-07-18T19:13:08Z</time>
      </trkpt>
      <trkpt lat="43.12485" lon="6.25613">
        <ele>13.8</ele>
        <time>2021-07-18T19:13:09Z</time>
      </trkpt>
      <trkpt lat="43.12485" lon="6.25613">
        <ele>13.8</ele>
        <time>2021-07-18T19:13:11Z</time>
      </trkpt>
      <trkpt lat="43.12485" lon="6.25613">
        <ele>13.9</ele>
        <time>2021-07-18T19:13:12Z</time>
      </trkpt>
      <trkpt lat="43.12485" lon="6.25614">
        <ele>13.9</ele>
        <time>2021-07-18T19:13:14Z</time>
      </trkpt>
      <trkpt lat="43.12485" lon="6.25614">
        <ele>13.9</ele>
        <time>2021-07-18T19:13:15Z</time>
      </trkpt>
      <trkpt lat="43.12485" lon="6.25615">
        <ele>13.9</ele>
        <time>2021-07-18T19:13:17Z</time>
      </trkpt>
      <trkpt lat="43.12485" lon="6.25615">
        <ele>13.9</ele>
        <time>2021-07-18T19:13:18Z</time>
      </trkpt>
      <trkpt lat="43.12485" lon="6.25615">
        <ele>13.9</ele>
        <time>2021-07-18T19:13:20Z</time>
      </trkpt>
      <trkpt lat="43.12484" lon="6.25614">
        <ele>14</ele>
        <time>2021-07-18T19:13:22Z</time>
      </trkpt>
      <trkpt lat="43.12484" lon="6.25614">
        <ele>14</ele>
        <time>2021-07-18T19:13:24Z</time>
      </trkpt>
      <trkpt lat="43.12484" lon="6.25614">
        <ele>14</ele>
        <time>2021-07-18T19:13:25Z</time>
      </trkpt>
      <trkpt lat="43.12484" lon="6.25614">
        <ele>14</ele>
        <time>2021-07-18T19:13:26Z</time>
      </trkpt>
      <trkpt lat="43.12483" lon="6.25613">
        <ele>14</ele>
        <time>2021-07-18T19:13:28Z</time>
      </trkpt>
      <trkpt lat="43.12483" lon="6.25613">
        <ele>14.1</ele>
        <time>2021-07-18T19:13:30Z</time>
      </trkpt>
      <trkpt lat="43.12483" lon="6.25613">
        <ele>14.1</ele>
        <time>2021-07-18T19:13:32Z</time>
      </trkpt>
      <trkpt lat="43.12481" lon="6.25616">
        <ele>14.2</ele>
        <time>2021-07-18T19:13:34Z</time>
      </trkpt>
      <trkpt lat="43.12481" lon="6.25616">
        <ele>14.2</ele>
        <time>2021-07-18T19:13:35Z</time>
      </trkpt>
      <trkpt lat="43.12481" lon="6.25616">
        <ele>14.2</ele>
        <time>2021-07-18T19:13:36Z</time>
      </trkpt>
      <trkpt lat="43.12481" lon="6.25616">
        <ele>14.3</ele>
        <time>2021-07-18T19:13:38Z</time>
      </trkpt>
      <trkpt lat="43.12481" lon="6.25617">
        <ele>14.3</ele>
        <time>2021-07-18T19:13:40Z</time>
      </trkpt>
      <trkpt lat="43.12481" lon="6.25616">
        <ele>14.3</ele>
        <time>2021-07-18T19:13:42Z</time>
      </trkpt>
      <trkpt lat="43.12481" lon="6.25616">
        <ele>14.3</ele>
        <time>2021-07-18T19:13:43Z</time>
      </trkpt>
      <trkpt lat="43.12482" lon="6.25616">
        <ele>14.4</ele>
        <time>2021-07-18T19:13:44Z</time>
      </trkpt>
      <trkpt lat="43.12483" lon="6.25616">
        <ele>14.4</ele>
        <time>2021-07-18T19:13:45Z</time>
      </trkpt>
      <trkpt lat="43.12484" lon="6.25615">
        <ele>14.5</ele>
        <time>2021-07-18T19:13:47Z</time>
      </trkpt>
      <trkpt lat="43.12485" lon="6.25615">
        <ele>14.5</ele>
        <time>2021-07-18T19:13:48Z</time>
      </trkpt>
      <trkpt lat="43.12487" lon="6.25614">
        <ele>14.6</ele>
        <time>2021-07-18T19:13:50Z</time>
      </trkpt>
      <trkpt lat="43.12488" lon="6.25614">
        <ele>14.7</ele>
        <time>2021-07-18T19:13:52Z</time>
      </trkpt>
      <trkpt lat="43.12489" lon="6.25613">
        <ele>14.7</ele>
        <time>2021-07-18T19:13:53Z</time>
      </trkpt>
      <trkpt lat="43.12489" lon="6.25613">
        <ele>14.8</ele>
        <time>2021-07-18T19:13:54Z</time>
      </trkpt>
      <trkpt lat="43.12489" lon="6.25613">
        <ele>14.8</ele>
        <time>2021-07-18T19:13:56Z</time>
      </trkpt>
      <trkpt lat="43.12489" lon="6.25613">
        <ele>14.8</ele>
        <time>2021-07-18T19:13:58Z</time>
      </trkpt>
      <trkpt lat="43.12489" lon="6.25613">
        <ele>14.8</ele>
        <time>2021-07-18T19:13:59Z</time>
      </trkpt>
      <trkpt lat="43.12489" lon="6.25613">
        <ele>14.8</ele>
        <time>2021-07-18T19:14:00Z</time>
      </trkpt>
      <trkpt lat="43.12489" lon="6.25613">
        <ele>14.8</ele>
        <time>2021-07-18T19:14:02Z</time>
      </trkpt>
      <trkpt lat="43.12489" lon="6.25613">
        <ele>14.8</ele>
        <time>2021-07-18T19:14:03Z</time>
      </trkpt>
      <trkpt lat="43.12489" lon="6.25613">
        <ele>14.8</ele>
        <time>2021-07-18T19:14:05Z</time>
      </trkpt>
      <trkpt lat="43.12489" lon="6.25613">
        <ele>14.8</ele>
        <time>2021-07-18T19:14:06Z</time>
      </trkpt>
      <trkpt lat="43.12489" lon="6.25613">
        <ele>14.8</ele>
        <time>2021-07-18T19:14:08Z</time>
      </trkpt>
      <trkpt lat="43.12489" lon="6.25613">
        <ele>14.8</ele>
        <time>2021-07-18T19:14:09Z</time>
      </trkpt>
      <trkpt lat="43.12489" lon="6.25613">
        <ele>14.8</ele>
        <time>2021-07-18T19:14:10Z</time>
      </trkpt>
      <trkpt lat="43.12489" lon="6.25613">
        <ele>14.8</ele>
        <time>2021-07-18T19:14:11Z</time>
      </trkpt>
      <trkpt lat="43.12489" lon="6.25613">
        <ele>14.8</ele>
        <time>2021-07-18T19:14:12Z</time>
      </trkpt>
      <trkpt lat="43.1249" lon="6.25614">
        <ele>14.9</ele>
        <time>2021-07-18T19:14:14Z</time>
      </trkpt>
      <trkpt lat="43.12491" lon="6.25614">
        <ele>14.9</ele>
        <time>2021-07-18T19:14:15Z</time>
      </trkpt>
      <trkpt lat="43.12491" lon="6.25614">
        <ele>14.9</ele>
        <time>2021-07-18T19:14:16Z</time>
      </trkpt>
      <trkpt lat="43.12491" lon="6.25614">
        <ele>15</ele>
        <time>2021-07-18T19:14:18Z</time>
      </trkpt>
      <trkpt lat="43.12491" lon="6.25614">
        <ele>15</ele>
        <time>2021-07-18T19:14:20Z</time>
      </trkpt>
      <trkpt lat="43.12491" lon="6.25614">
        <ele>15</ele>
        <time>2021-07-18T19:14:22Z</time>
      </trkpt>
      <trkpt lat="43.12491" lon="6.25614">
        <ele>15</ele>
        <time>2021-07-18T19:14:24Z</time>
      </trkpt>
      <trkpt lat="43.12491" lon="6.25614">
        <ele>15</ele>
        <time>2021-07-18T19:14:26Z</time>
      </trkpt>
      <trkpt lat="43.12491" lon="6.25614">
        <ele>15</ele>
        <time>2021-07-18T19:14:28Z</time>
      </trkpt>
      <trkpt lat="43.12491" lon="6.25614">
        <ele>15</ele>
        <time>2021-07-18T19:14:29Z</time>
      </trkpt>
      <trkpt lat="43.12491" lon="6.25614">
        <ele>15</ele>
        <time>2021-07-18T19:14:30Z</time>
      </trkpt>
      <trkpt lat="43.12491" lon="6.25614">
        <ele>15</ele>
        <time>2021-07-18T19:14:32Z</time>
      </trkpt>
      <trkpt lat="43.12491" lon="6.25614">
        <ele>15</ele>
        <time>2021-07-18T19:14:33Z</time>
      </trkpt>
      <trkpt lat="43.12491" lon="6.25615">
        <ele>15</ele>
        <time>2021-07-18T19:14:35Z</time>
      </trkpt>
      <trkpt lat="43.12491" lon="6.25615">
        <ele>15</ele>
        <time>2021-07-18T19:14:36Z</time>
      </trkpt>
      <trkpt lat="43.12491" lon="6.25616">
        <ele>15.1</ele>
        <time>2021-07-18T19:14:38Z</time>
      </trkpt>
      <trkpt lat="43.12492" lon="6.25616">
        <ele>15.1</ele>
        <time>2021-07-18T19:14:39Z</time>
      </trkpt>
      <trkpt lat="43.12492" lon="6.25617">
        <ele>15.1</ele>
        <time>2021-07-18T19:14:40Z</time>
      </trkpt>
      <trkpt lat="43.12493" lon="6.25617">
        <ele>15.2</ele>
        <time>2021-07-18T19:14:42Z</time>
      </trkpt>
      <trkpt lat="43.12494" lon="6.25618">
        <ele>15.2</ele>
        <time>2021-07-18T19:14:44Z</time>
      </trkpt>
      <trkpt lat="43.12494" lon="6.25619">
        <ele>15.3</ele>
        <time>2021-07-18T19:14:46Z</time>
      </trkpt>
      <trkpt lat="43.12494" lon="6.25619">
        <ele>15.3</ele>
        <time>2021-07-18T19:14:47Z</time>
      </trkpt>
      <trkpt lat="43.12493" lon="6.25619">
        <ele>15.3</ele>
        <time>2021-07-18T19:14:48Z</time>
      </trkpt>
      <trkpt lat="43.12492" lon="6.25618">
        <ele>15.4</ele>
        <time>2021-07-18T19:14:50Z</time>
      </trkpt>
      <trkpt lat="43.12491" lon="6.25618">
        <ele>15.4</ele>
        <time>2021-07-18T19:14:52Z</time>
      </trkpt>
      <trkpt lat="43.1249" lon="6.25618">
        <ele>15.5</ele>
        <time>2021-07-18T19:14:53Z</time>
      </trkpt>
      <trkpt lat="43.12489" lon="6.25618">
        <ele>15.5</ele>
        <time>2021-07-18T19:14:54Z</time>
      </trkpt>
      <trkpt lat="43.12487" lon="6.25618">
        <ele>15.7</ele>
        <time>2021-07-18T19:14:55Z</time>
      </trkpt>
      <trkpt lat="43.12487" lon="6.25618">
        <ele>15.7</ele>
        <time>2021-07-18T19:14:56Z</time>
      </trkpt>
      <trkpt lat="43.12486" lon="6.25618">
        <ele>15.8</ele>
        <time>2021-07-18T19:14:57Z</time>
      </trkpt>
      <trkpt lat="43.12484" lon="6.25617">
        <ele>15.9</ele>
        <time>2021-07-18T19:14:58Z</time>
      </trkpt>
      <trkpt lat="43.12483" lon="6.25617">
        <ele>16</ele>
        <time>2021-07-18T19:14:59Z</time>
      </trkpt>
      <trkpt lat="43.12482" lon="6.25616">
        <ele>16</ele>
        <time>2021-07-18T19:15:00Z</time>
      </trkpt>
      <trkpt lat="43.1248" lon="6.25615">
        <ele>16.1</ele>
        <time>2021-07-18T19:15:02Z</time>
      </trkpt>
      <trkpt lat="43.12481" lon="6.25615">
        <ele>16.1</ele>
        <time>2021-07-18T19:15:04Z</time>
      </trkpt>
      <trkpt lat="43.12481" lon="6.25615">
        <ele>16.1</ele>
        <time>2021-07-18T19:15:06Z</time>
      </trkpt>
      <trkpt lat="43.12481" lon="6.25615">
        <ele>16.2</ele>
        <time>2021-07-18T19:15:07Z</time>
      </trkpt>
      <trkpt lat="43.12481" lon="6.25615">
        <ele>16.2</ele>
        <time>2021-07-18T19:15:08Z</time>
      </trkpt>
      <trkpt lat="43.12482" lon="6.25615">
        <ele>16.2</ele>
        <time>2021-07-18T19:15:10Z</time>
      </trkpt>
      <trkpt lat="43.12482" lon="6.25615">
        <ele>16.2</ele>
        <time>2021-07-18T19:15:11Z</time>
      </trkpt>
      <trkpt lat="43.12482" lon="6.25615">
        <ele>16.2</ele>
        <time>2021-07-18T19:15:12Z</time>
      </trkpt>
      <trkpt lat="43.12482" lon="6.25615">
        <ele>16.2</ele>
        <time>2021-07-18T19:15:13Z</time>
      </trkpt>
      <trkpt lat="43.12483" lon="6.25615">
        <ele>16.2</ele>
        <time>2021-07-18T19:15:15Z</time>
      </trkpt>
      <trkpt lat="43.12483" lon="6.25615">
        <ele>16.3</ele>
        <time>2021-07-18T19:15:16Z</time>
      </trkpt>
      <trkpt lat="43.12483" lon="6.25615">
        <ele>16.3</ele>
        <time>2021-07-18T19:15:17Z</time>
      </trkpt>
      <trkpt lat="43.12484" lon="6.25616">
        <ele>16.3</ele>
        <time>2021-07-18T19:15:18Z</time>
      </trkpt>
      <trkpt lat="43.12487" lon="6.25617">
        <ele>16.5</ele>
        <time>2021-07-18T19:15:20Z</time>
      </trkpt>
      <trkpt lat="43.12488" lon="6.25616">
        <ele>16.6</ele>
        <time>2021-07-18T19:15:21Z</time>
      </trkpt>
      <trkpt lat="43.1249" lon="6.25616">
        <ele>16.7</ele>
        <time>2021-07-18T19:15:22Z</time>
      </trkpt>
      <trkpt lat="43.12492" lon="6.25617">
        <ele>16.8</ele>
        <time>2021-07-18T19:15:24Z</time>
      </trkpt>
      <trkpt lat="43.12494" lon="6.25617">
        <ele>16.9</ele>
        <time>2021-07-18T19:15:25Z</time>
      </trkpt>
      <trkpt lat="43.12495" lon="6.25617">
        <ele>17</ele>
        <time>2021-07-18T19:15:26Z</time>
      </trkpt>
      <trkpt lat="43.12497" lon="6.25616">
        <ele>17.1</ele>
        <time>2021-07-18T19:15:28Z</time>
      </trkpt>
      <trkpt lat="43.12498" lon="6.25615">
        <ele>17.2</ele>
        <time>2021-07-18T19:15:29Z</time>
      </trkpt>
      <trkpt lat="43.12498" lon="6.25615">
        <ele>17.2</ele>
        <time>2021-07-18T19:15:30Z</time>
      </trkpt>
      <trkpt lat="43.125" lon="6.25615">
        <ele>17.3</ele>
        <time>2021-07-18T19:15:32Z</time>
      </trkpt>
      <trkpt lat="43.125" lon="6.25615">
        <ele>17.3</ele>
        <time>2021-07-18T19:15:33Z</time>
      </trkpt>
      <trkpt lat="43.12501" lon="6.25616">
        <ele>17.3</ele>
        <time>2021-07-18T19:15:34Z</time>
      </trkpt>
      <trkpt lat="43.12502" lon="6.25616">
        <ele>17.4</ele>
        <time>2021-07-18T19:15:36Z</time>
      </trkpt>
      <trkpt lat="43.12503" lon="6.25618">
        <ele>17.5</ele>
        <time>2021-07-18T19:15:37Z</time>
      </trkpt>
      <trkpt lat="43.12504" lon="6.2562">
        <ele>17.6</ele>
        <time>2021-07-18T19:15:39Z</time>
      </trkpt>
      <trkpt lat="43.12505" lon="6.2562">
        <ele>17.6</ele>
        <time>2021-07-18T19:15:40Z</time>
      </trkpt>
      <trkpt lat="43.12505" lon="6.25621">
        <ele>17.7</ele>
        <time>2021-07-18T19:15:41Z</time>
      </trkpt>
      <trkpt lat="43.12506" lon="6.25621">
        <ele>17.8</ele>
        <time>2021-07-18T19:15:42Z</time>
      </trkpt>
      <trkpt lat="43.12507" lon="6.25622">
        <ele>17.8</ele>
        <time>2021-07-18T19:15:43Z</time>
      </trkpt>
      <trkpt lat="43.12509" lon="6.25622">
        <ele>17.9</ele>
        <time>2021-07-18T19:15:45Z</time>
      </trkpt>
      <trkpt lat="43.1251" lon="6.25622">
        <ele>18</ele>
        <time>2021-07-18T19:15:46Z</time>
      </trkpt>
      <trkpt lat="43.12511" lon="6.25622">
        <ele>18</ele>
        <time>2021-07-18T19:15:47Z</time>
      </trkpt>
      <trkpt lat="43.12512" lon="6.25621">
        <ele>18.1</ele>
        <time>2021-07-18T19:15:48Z</time>
      </trkpt>
      <trkpt lat="43.12512" lon="6.25618">
        <ele>18.2</ele>
        <time>2021-07-18T19:15:50Z</time>
      </trkpt>
      <trkpt lat="43.12512" lon="6.25617">
        <ele>18.3</ele>
        <time>2021-07-18T19:15:52Z</time>
      </trkpt>
      <trkpt lat="43.12512" lon="6.25616">
        <ele>18.3</ele>
        <time>2021-07-18T19:15:53Z</time>
      </trkpt>
      <trkpt lat="43.12513" lon="6.25616">
        <ele>18.4</ele>
        <time>2021-07-18T19:15:54Z</time>
      </trkpt>
      <trkpt lat="43.12515" lon="6.25616">
        <ele>18.5</ele>
        <time>2021-07-18T19:15:56Z</time>
      </trkpt>
      <trkpt lat="43.12516" lon="6.25615">
        <ele>18.5</ele>
        <time>2021-07-18T19:15:58Z</time>
      </trkpt>
      <trkpt lat="43.12517" lon="6.25615">
        <ele>18.6</ele>
        <time>2021-07-18T19:15:59Z</time>
      </trkpt>
      <trkpt lat="43.12518" lon="6.25615">
        <ele>18.6</ele>
        <time>2021-07-18T19:16:00Z</time>
      </trkpt>
      <trkpt lat="43.12519" lon="6.25614">
        <ele>18.7</ele>
        <time>2021-07-18T19:16:02Z</time>
      </trkpt>
      <trkpt lat="43.1252" lon="6.25614">
        <ele>18.7</ele>
        <time>2021-07-18T19:16:04Z</time>
      </trkpt>
      <trkpt lat="43.12521" lon="6.25614">
        <ele>18.8</ele>
        <time>2021-07-18T19:16:05Z</time>
      </trkpt>
      <trkpt lat="43.12522" lon="6.25614">
        <ele>18.9</ele>
        <time>2021-07-18T19:16:06Z</time>
      </trkpt>
      <trkpt lat="43.12523" lon="6.25614">
        <ele>19</ele>
        <time>2021-07-18T19:16:08Z</time>
      </trkpt>
      <trkpt lat="43.12524" lon="6.25614">
        <ele>19</ele>
        <time>2021-07-18T19:16:09Z</time>
      </trkpt>
      <trkpt lat="43.12526" lon="6.25615">
        <ele>19.1</ele>
        <time>2021-07-18T19:16:10Z</time>
      </trkpt>
      <trkpt lat="43.12527" lon="6.25615">
        <ele>19.2</ele>
        <time>2021-07-18T19:16:12Z</time>
      </trkpt>
      <trkpt lat="43.12528" lon="6.25615">
        <ele>19.2</ele>
        <time>2021-07-18T19:16:13Z</time>
      </trkpt>
      <trkpt lat="43.1253" lon="6.25616">
        <ele>19.3</ele>
        <time>2021-07-18T19:16:15Z</time>
      </trkpt>
      <trkpt lat="43.12531" lon="6.25616">
        <ele>19.4</ele>
        <time>2021-07-18T19:16:16Z</time>
      </trkpt>
      <trkpt lat="43.12532" lon="6.25616">
        <ele>19.5</ele>
        <time>2021-07-18T19:16:17Z</time>
      </trkpt>
      <trkpt lat="43.12533" lon="6.25616">
        <ele>19.5</ele>
        <time>2021-07-18T19:16:18Z</time>
      </trkpt>
      <trkpt lat="43.12535" lon="6.25616">
        <ele>19.6</ele>
        <time>2021-07-18T19:16:20Z</time>
      </trkpt>
      <trkpt lat="43.12536" lon="6.25616">
        <ele>19.7</ele>
        <time>2021-07-18T19:16:22Z</time>
      </trkpt>
      <trkpt lat="43.12537" lon="6.25616">
        <ele>19.7</ele>
        <time>2021-07-18T19:16:23Z</time>
      </trkpt>
      <trkpt lat="43.12538" lon="6.25615">
        <ele>19.8</ele>
        <time>2021-07-18T19:16:24Z</time>
      </trkpt>
      <trkpt lat="43.12539" lon="6.25615">
        <ele>19.9</ele>
        <time>2021-07-18T19:16:26Z</time>
      </trkpt>
      <trkpt lat="43.1254" lon="6.25614">
        <ele>19.9</ele>
        <time>2021-07-18T19:16:28Z</time>
      </trkpt>
      <trkpt lat="43.1254" lon="6.25612">
        <ele>20</ele>
        <time>2021-07-18T19:16:29Z</time>
      </trkpt>
      <trkpt lat="43.12541" lon="6.25611">
        <ele>20.1</ele>
        <time>2021-07-18T19:16:31Z</time>
      </trkpt>
      <trkpt lat="43.12542" lon="6.25611">
        <ele>20.1</ele>
        <time>2021-07-18T19:16:32Z</time>
      </trkpt>
      <trkpt lat="43.12542" lon="6.2561">
        <ele>20.2</ele>
        <time>2021-07-18T19:16:33Z</time>
      </trkpt>
      <trkpt lat="43.12543" lon="6.25607">
        <ele>20.3</ele>
        <time>2021-07-18T19:16:35Z</time>
      </trkpt>
      <trkpt lat="43.12543" lon="6.25606">
        <ele>20.3</ele>
        <time>2021-07-18T19:16:36Z</time>
      </trkpt>
      <trkpt lat="43.12543" lon="6.25603">
        <ele>20.4</ele>
        <time>2021-07-18T19:16:38Z</time>
      </trkpt>
      <trkpt lat="43.12543" lon="6.25602">
        <ele>20.5</ele>
        <time>2021-07-18T19:16:39Z</time>
      </trkpt>
      <trkpt lat="43.12543" lon="6.256">
        <ele>20.6</ele>
        <time>2021-07-18T19:16:41Z</time>
      </trkpt>
      <trkpt lat="43.12544" lon="6.25599">
        <ele>20.6</ele>
        <time>2021-07-18T19:16:42Z</time>
      </trkpt>
      <trkpt lat="43.12544" lon="6.25596">
        <ele>20.7</ele>
        <time>2021-07-18T19:16:43Z</time>
      </trkpt>
      <trkpt lat="43.12544" lon="6.25595">
        <ele>20.8</ele>
        <time>2021-07-18T19:16:44Z</time>
      </trkpt>
      <trkpt lat="43.12544" lon="6.25593">
        <ele>20.9</ele>
        <time>2021-07-18T19:16:46Z</time>
      </trkpt>
      <trkpt lat="43.12544" lon="6.25591">
        <ele>20.9</ele>
        <time>2021-07-18T19:16:47Z</time>
      </trkpt>
      <trkpt lat="43.12544" lon="6.2559">
        <ele>21</ele>
        <time>2021-07-18T19:16:48Z</time>
      </trkpt>
      <trkpt lat="43.12544" lon="6.25589">
        <ele>21</ele>
        <time>2021-07-18T19:16:49Z</time>
      </trkpt>
      <trkpt lat="43.12544" lon="6.25587">
        <ele>21.1</ele>
        <time>2021-07-18T19:16:50Z</time>
      </trkpt>
      <trkpt lat="43.12543" lon="6.25586">
        <ele>21.2</ele>
        <time>2021-07-18T19:16:51Z</time>
      </trkpt>
      <trkpt lat="43.12544" lon="6.25585">
        <ele>21.2</ele>
        <time>2021-07-18T19:16:52Z</time>
      </trkpt>
      <trkpt lat="43.12544" lon="6.25583">
        <ele>21.3</ele>
        <time>2021-07-18T19:16:53Z</time>
      </trkpt>
      <trkpt lat="43.12545" lon="6.2558">
        <ele>21.4</ele>
        <time>2021-07-18T19:16:54Z</time>
      </trkpt>
      <trkpt lat="43.12545" lon="6.25579">
        <ele>21.5</ele>
        <time>2021-07-18T19:16:56Z</time>
      </trkpt>
      <trkpt lat="43.12546" lon="6.25577">
        <ele>21.6</ele>
        <time>2021-07-18T19:16:57Z</time>
      </trkpt>
      <trkpt lat="43.12546" lon="6.25576">
        <ele>21.6</ele>
        <time>2021-07-18T19:16:59Z</time>
      </trkpt>
      <trkpt lat="43.12547" lon="6.25574">
        <ele>21.7</ele>
        <time>2021-07-18T19:17:00Z</time>
      </trkpt>
      <trkpt lat="43.12547" lon="6.25573">
        <ele>21.8</ele>
        <time>2021-07-18T19:17:02Z</time>
      </trkpt>
      <trkpt lat="43.12547" lon="6.25572">
        <ele>21.8</ele>
        <time>2021-07-18T19:17:03Z</time>
      </trkpt>
      <trkpt lat="43.12548" lon="6.25571">
        <ele>21.9</ele>
        <time>2021-07-18T19:17:04Z</time>
      </trkpt>
      <trkpt lat="43.12548" lon="6.2557">
        <ele>21.9</ele>
        <time>2021-07-18T19:17:05Z</time>
      </trkpt>
      <trkpt lat="43.12548" lon="6.25569">
        <ele>21.9</ele>
        <time>2021-07-18T19:17:06Z</time>
      </trkpt>
      <trkpt lat="43.12549" lon="6.25568">
        <ele>22</ele>
        <time>2021-07-18T19:17:08Z</time>
      </trkpt>
      <trkpt lat="43.12549" lon="6.25567">
        <ele>22</ele>
        <time>2021-07-18T19:17:10Z</time>
      </trkpt>
      <trkpt lat="43.12549" lon="6.25567">
        <ele>22</ele>
        <time>2021-07-18T19:17:11Z</time>
      </trkpt>
      <trkpt lat="43.12549" lon="6.25567">
        <ele>22</ele>
        <time>2021-07-18T19:17:12Z</time>
      </trkpt>
      <trkpt lat="43.12549" lon="6.25566">
        <ele>22.1</ele>
        <time>2021-07-18T19:17:14Z</time>
      </trkpt>
      <trkpt lat="43.1255" lon="6.25566">
        <ele>22.1</ele>
        <time>2021-07-18T19:17:15Z</time>
      </trkpt>
      <trkpt lat="43.1255" lon="6.25566">
        <ele>22.1</ele>
        <time>2021-07-18T19:17:16Z</time>
      </trkpt>
      <trkpt lat="43.1255" lon="6.25565">
        <ele>22.2</ele>
        <time>2021-07-18T19:17:18Z</time>
      </trkpt>
      <trkpt lat="43.12551" lon="6.25565">
        <ele>22.2</ele>
        <time>2021-07-18T19:17:19Z</time>
      </trkpt>
      <trkpt lat="43.12551" lon="6.25564">
        <ele>22.2</ele>
        <time>2021-07-18T19:17:21Z</time>
      </trkpt>
      <trkpt lat="43.12551" lon="6.25563">
        <ele>22.2</ele>
        <time>2021-07-18T19:17:22Z</time>
      </trkpt>
      <trkpt lat="43.12551" lon="6.25562">
        <ele>22.3</ele>
        <time>2021-07-18T19:17:24Z</time>
      </trkpt>
      <trkpt lat="43.12551" lon="6.25562">
        <ele>22.3</ele>
        <time>2021-07-18T19:17:25Z</time>
      </trkpt>
      <trkpt lat="43.12551" lon="6.25561">
        <ele>22.3</ele>
        <time>2021-07-18T19:17:26Z</time>
      </trkpt>
      <trkpt lat="43.12551" lon="6.2556">
        <ele>22.4</ele>
        <time>2021-07-18T19:17:28Z</time>
      </trkpt>
      <trkpt lat="43.12551" lon="6.2556">
        <ele>22.4</ele>
        <time>2021-07-18T19:17:29Z</time>
      </trkpt>
      <trkpt lat="43.12551" lon="6.2556">
        <ele>22.4</ele>
        <time>2021-07-18T19:17:30Z</time>
      </trkpt>
      <trkpt lat="43.12552" lon="6.2556">
        <ele>22.4</ele>
        <time>2021-07-18T19:17:32Z</time>
      </trkpt>
      <trkpt lat="43.12552" lon="6.2556">
        <ele>22.5</ele>
        <time>2021-07-18T19:17:34Z</time>
      </trkpt>
      <trkpt lat="43.12552" lon="6.2556">
        <ele>22.5</ele>
        <time>2021-07-18T19:17:35Z</time>
      </trkpt>
      <trkpt lat="43.12552" lon="6.2556">
        <ele>22.5</ele>
        <time>2021-07-18T19:17:36Z</time>
      </trkpt>
      <trkpt lat="43.12551" lon="6.2556">
        <ele>22.5</ele>
        <time>2021-07-18T19:17:38Z</time>
      </trkpt>
      <trkpt lat="43.12551" lon="6.25559">
        <ele>22.5</ele>
        <time>2021-07-18T19:17:40Z</time>
      </trkpt>
      <trkpt lat="43.12551" lon="6.25559">
        <ele>22.6</ele>
        <time>2021-07-18T19:17:41Z</time>
      </trkpt>
      <trkpt lat="43.1255" lon="6.25559">
        <ele>22.6</ele>
        <time>2021-07-18T19:17:42Z</time>
      </trkpt>
      <trkpt lat="43.12549" lon="6.2556">
        <ele>22.7</ele>
        <time>2021-07-18T19:17:44Z</time>
      </trkpt>
      <trkpt lat="43.12548" lon="6.25561">
        <ele>22.8</ele>
        <time>2021-07-18T19:17:45Z</time>
      </trkpt>
      <trkpt lat="43.12547" lon="6.25561">
        <ele>22.8</ele>
        <time>2021-07-18T19:17:46Z</time>
      </trkpt>
    </trkseg>
  </trk>
</gpx>